<?xml version="1.0" encoding="UTF-8" standalone="no" ?>
<gpx xmlns="http://www.topografix.com/GPX/1/1" xmlns:xsi="http://www.w3.org/2001/XMLSchema-instance" xsi:schemaLocation="http://www.topografix.com/GPX/1/1 http://www.topografix.com/GPX/1/1/gpx.xsd" version="1.1" creator="VisuGPX - https://www.visugpx.com">
  <metadata>
    <name>dinan plouer en 3 boucles</name>
  </metadata>
  <trk>
    <name><![CDATA[20 octo 2020]]></name>
    <trkseg>
      <trkpt lat="48.45742" lon="-2.04848">
        <ele>124.699997</ele>
        <time>2020-10-20T11:59:03.150Z</time>
      </trkpt>
      <trkpt lat="48.45743" lon="-2.04846">
        <ele>124.699997</ele>
        <time>2020-10-20T12:00:05.658Z</time>
      </trkpt>
      <trkpt lat="48.45746" lon="-2.04833">
        <ele>124.699997</ele>
        <time>2020-10-20T12:00:11.089Z</time>
      </trkpt>
      <trkpt lat="48.45746" lon="-2.04818">
        <ele>124.699997</ele>
        <time>2020-10-20T12:00:16.094Z</time>
      </trkpt>
      <trkpt lat="48.45752" lon="-2.04788">
        <ele>124.699997</ele>
        <time>2020-10-20T12:00:21.097Z</time>
      </trkpt>
      <trkpt lat="48.45768" lon="-2.04768">
        <ele>124.699997</ele>
        <time>2020-10-20T12:00:30.676Z</time>
      </trkpt>
      <trkpt lat="48.45792" lon="-2.04772">
        <ele>124.699997</ele>
        <time>2020-10-20T12:00:36.072Z</time>
      </trkpt>
      <trkpt lat="48.45815" lon="-2.04773">
        <ele>124.699997</ele>
        <time>2020-10-20T12:00:41.175Z</time>
      </trkpt>
      <trkpt lat="48.45833" lon="-2.04774">
        <ele>124.699997</ele>
        <time>2020-10-20T12:00:46.857Z</time>
      </trkpt>
      <trkpt lat="48.45834" lon="-2.04735">
        <ele>122.692383</ele>
        <time>2020-10-20T12:00:55.528Z</time>
      </trkpt>
      <trkpt lat="48.45833" lon="-2.04634">
        <ele>126.248962</ele>
        <time>2020-10-20T12:01:14.498Z</time>
      </trkpt>
      <trkpt lat="48.45832" lon="-2.04605">
        <ele>125.940735</ele>
        <time>2020-10-20T12:01:20.083Z</time>
      </trkpt>
      <trkpt lat="48.45827" lon="-2.04537">
        <ele>124.908508</ele>
        <time>2020-10-20T12:01:33.459Z</time>
      </trkpt>
      <trkpt lat="48.45824" lon="-2.04493">
        <ele>125.67926</ele>
        <time>2020-10-20T12:01:41.066Z</time>
      </trkpt>
      <trkpt lat="48.45812" lon="-2.04454">
        <ele>124.162354</ele>
        <time>2020-10-20T12:01:49.064Z</time>
      </trkpt>
      <trkpt lat="48.45838" lon="-2.04443">
        <ele>123.317139</ele>
        <time>2020-10-20T12:01:56.223Z</time>
      </trkpt>
      <trkpt lat="48.45869" lon="-2.0442">
        <ele>123.600952</ele>
        <time>2020-10-20T12:02:05.089Z</time>
      </trkpt>
      <trkpt lat="48.45886" lon="-2.04377">
        <ele>122.075134</ele>
        <time>2020-10-20T12:02:11.082Z</time>
      </trkpt>
      <trkpt lat="48.45903" lon="-2.04347">
        <ele>118.905396</ele>
        <time>2020-10-20T12:02:16.106Z</time>
      </trkpt>
      <trkpt lat="48.45909" lon="-2.04313">
        <ele>118.561279</ele>
        <time>2020-10-20T12:02:21.114Z</time>
      </trkpt>
      <trkpt lat="48.45907" lon="-2.04277">
        <ele>116.80481</ele>
        <time>2020-10-20T12:02:26.384Z</time>
      </trkpt>
      <trkpt lat="48.45907" lon="-2.04227">
        <ele>116.562561</ele>
        <time>2020-10-20T12:02:35.494Z</time>
      </trkpt>
      <trkpt lat="48.45914" lon="-2.0422">
        <ele>118.302612</ele>
        <time>2020-10-20T12:02:40.901Z</time>
      </trkpt>
      <trkpt lat="48.4592" lon="-2.04198">
        <ele>119.548462</ele>
        <time>2020-10-20T12:02:46.057Z</time>
      </trkpt>
      <trkpt lat="48.45918" lon="-2.04156">
        <ele>119.274597</ele>
        <time>2020-10-20T12:02:51.072Z</time>
      </trkpt>
      <trkpt lat="48.45916" lon="-2.0412">
        <ele>119.47583</ele>
        <time>2020-10-20T12:02:56.094Z</time>
      </trkpt>
      <trkpt lat="48.45935" lon="-2.04054">
        <ele>115.415161</ele>
        <time>2020-10-20T12:03:06.089Z</time>
      </trkpt>
      <trkpt lat="48.45969" lon="-2.04005">
        <ele>116.71106</ele>
        <time>2020-10-20T12:03:16.084Z</time>
      </trkpt>
      <trkpt lat="48.46008" lon="-2.03952">
        <ele>117.444031</ele>
        <time>2020-10-20T12:03:26.084Z</time>
      </trkpt>
      <trkpt lat="48.46029" lon="-2.03924">
        <ele>116.603455</ele>
        <time>2020-10-20T12:03:31.087Z</time>
      </trkpt>
      <trkpt lat="48.4605" lon="-2.03904">
        <ele>116.694702</ele>
        <time>2020-10-20T12:03:36.096Z</time>
      </trkpt>
      <trkpt lat="48.46095" lon="-2.03878">
        <ele>117.597839</ele>
        <time>2020-10-20T12:03:46.072Z</time>
      </trkpt>
      <trkpt lat="48.46123" lon="-2.03862">
        <ele>121.259155</ele>
        <time>2020-10-20T12:03:51.077Z</time>
      </trkpt>
      <trkpt lat="48.46168" lon="-2.03836">
        <ele>114.510193</ele>
        <time>2020-10-20T12:04:01.073Z</time>
      </trkpt>
      <trkpt lat="48.46226" lon="-2.03821">
        <ele>112.078125</ele>
        <time>2020-10-20T12:04:11.087Z</time>
      </trkpt>
      <trkpt lat="48.46255" lon="-2.03813">
        <ele>113.178711</ele>
        <time>2020-10-20T12:04:16.087Z</time>
      </trkpt>
      <trkpt lat="48.46307" lon="-2.03794">
        <ele>110.499268</ele>
        <time>2020-10-20T12:04:26.071Z</time>
      </trkpt>
      <trkpt lat="48.46333" lon="-2.03786">
        <ele>111.959473</ele>
        <time>2020-10-20T12:04:31.078Z</time>
      </trkpt>
      <trkpt lat="48.46359" lon="-2.03777">
        <ele>111.184387</ele>
        <time>2020-10-20T12:04:36.080Z</time>
      </trkpt>
      <trkpt lat="48.4639" lon="-2.03766">
        <ele>110.289246</ele>
        <time>2020-10-20T12:04:41.082Z</time>
      </trkpt>
      <trkpt lat="48.46425" lon="-2.03755">
        <ele>112.572998</ele>
        <time>2020-10-20T12:04:46.095Z</time>
      </trkpt>
      <trkpt lat="48.46496" lon="-2.03711">
        <ele>115.273987</ele>
        <time>2020-10-20T12:04:56.086Z</time>
      </trkpt>
      <trkpt lat="48.46564" lon="-2.03697">
        <ele>115.810608</ele>
        <time>2020-10-20T12:05:06.084Z</time>
      </trkpt>
      <trkpt lat="48.4661" lon="-2.03648">
        <ele>108.832581</ele>
        <time>2020-10-20T12:05:16.079Z</time>
      </trkpt>
      <trkpt lat="48.46639" lon="-2.03658">
        <ele>105.20105</ele>
        <time>2020-10-20T12:05:21.084Z</time>
      </trkpt>
      <trkpt lat="48.46671" lon="-2.03655">
        <ele>113.299995</ele>
        <time>2020-10-20T12:05:31.082Z</time>
      </trkpt>
      <trkpt lat="48.46678" lon="-2.03647">
        <ele>113.299995</ele>
        <time>2020-10-20T12:05:36.174Z</time>
      </trkpt>
      <trkpt lat="48.46685" lon="-2.03654">
        <ele>113.299995</ele>
        <time>2020-10-20T12:05:41.594Z</time>
      </trkpt>
      <trkpt lat="48.46691" lon="-2.03642">
        <ele>113.299995</ele>
        <time>2020-10-20T12:05:47.069Z</time>
      </trkpt>
      <trkpt lat="48.46701" lon="-2.03646">
        <ele>113.299995</ele>
        <time>2020-10-20T12:05:52.075Z</time>
      </trkpt>
      <trkpt lat="48.46696" lon="-2.0367">
        <ele>113.299995</ele>
        <time>2020-10-20T12:05:57.433Z</time>
      </trkpt>
      <trkpt lat="48.46689" lon="-2.0369">
        <ele>113.299995</ele>
        <time>2020-10-20T12:06:02.658Z</time>
      </trkpt>
      <trkpt lat="48.46703" lon="-2.03684">
        <ele>113.299995</ele>
        <time>2020-10-20T12:06:08.078Z</time>
      </trkpt>
      <trkpt lat="48.46714" lon="-2.03663">
        <ele>113.299995</ele>
        <time>2020-10-20T12:06:13.542Z</time>
      </trkpt>
      <trkpt lat="48.46716" lon="-2.0365">
        <ele>113.299995</ele>
        <time>2020-10-20T12:06:21.065Z</time>
      </trkpt>
      <trkpt lat="48.46715" lon="-2.03644">
        <ele>113.299995</ele>
        <time>2020-10-20T12:06:26.090Z</time>
      </trkpt>
      <trkpt lat="48.46721" lon="-2.03635">
        <ele>112.199997</ele>
        <time>2020-10-20T12:06:41.060Z</time>
      </trkpt>
      <trkpt lat="48.46722" lon="-2.0363">
        <ele>112.199997</ele>
        <time>2020-10-20T12:06:46.076Z</time>
      </trkpt>
      <trkpt lat="48.46727" lon="-2.03626">
        <ele>112.199997</ele>
        <time>2020-10-20T12:06:51.081Z</time>
      </trkpt>
      <trkpt lat="48.46734" lon="-2.0364">
        <ele>112.199997</ele>
        <time>2020-10-20T12:07:06.086Z</time>
      </trkpt>
      <trkpt lat="48.46735" lon="-2.03669">
        <ele>112.199997</ele>
        <time>2020-10-20T12:07:16.063Z</time>
      </trkpt>
      <trkpt lat="48.46739" lon="-2.03656">
        <ele>112.199997</ele>
        <time>2020-10-20T12:07:21.504Z</time>
      </trkpt>
      <trkpt lat="48.46745" lon="-2.03662">
        <ele>112.199997</ele>
        <time>2020-10-20T12:07:27.057Z</time>
      </trkpt>
      <trkpt lat="48.46744" lon="-2.03671">
        <ele>112.199997</ele>
        <time>2020-10-20T12:07:32.695Z</time>
      </trkpt>
      <trkpt lat="48.46742" lon="-2.03672">
        <ele>88.400002</ele>
        <time>2020-10-20T12:07:43.078Z</time>
      </trkpt>
      <trkpt lat="48.46739" lon="-2.03671">
        <ele>88.400002</ele>
        <time>2020-10-20T12:07:56.074Z</time>
      </trkpt>
      <trkpt lat="48.46739" lon="-2.03674">
        <ele>88.400002</ele>
        <time>2020-10-20T12:08:01.080Z</time>
      </trkpt>
      <trkpt lat="48.46738" lon="-2.03675">
        <ele>88.400002</ele>
        <time>2020-10-20T12:08:11.065Z</time>
      </trkpt>
      <trkpt lat="48.46739" lon="-2.03678">
        <ele>88.400002</ele>
        <time>2020-10-20T12:08:16.080Z</time>
      </trkpt>
      <trkpt lat="48.46739" lon="-2.03675">
        <ele>88.400002</ele>
        <time>2020-10-20T12:08:31.090Z</time>
      </trkpt>
      <trkpt lat="48.46734" lon="-2.03669">
        <ele>88.400002</ele>
        <time>2020-10-20T12:08:36.095Z</time>
      </trkpt>
      <trkpt lat="48.46732" lon="-2.03645">
        <ele>88.400002</ele>
        <time>2020-10-20T12:08:41.103Z</time>
      </trkpt>
      <trkpt lat="48.46743" lon="-2.03628">
        <ele>88.400002</ele>
        <time>2020-10-20T12:08:51.069Z</time>
      </trkpt>
      <trkpt lat="48.46743" lon="-2.03644">
        <ele>88.400002</ele>
        <time>2020-10-20T12:08:56.074Z</time>
      </trkpt>
      <trkpt lat="48.46746" lon="-2.03657">
        <ele>88.400002</ele>
        <time>2020-10-20T12:09:01.079Z</time>
      </trkpt>
      <trkpt lat="48.46744" lon="-2.0368">
        <ele>88.400002</ele>
        <time>2020-10-20T12:09:06.088Z</time>
      </trkpt>
      <trkpt lat="48.46741" lon="-2.03728">
        <ele>88.400002</ele>
        <time>2020-10-20T12:09:16.069Z</time>
      </trkpt>
      <trkpt lat="48.46748" lon="-2.0375">
        <ele>88.400002</ele>
        <time>2020-10-20T12:09:21.076Z</time>
      </trkpt>
      <trkpt lat="48.46755" lon="-2.03772">
        <ele>88.400002</ele>
        <time>2020-10-20T12:09:26.086Z</time>
      </trkpt>
      <trkpt lat="48.46761" lon="-2.0382">
        <ele>75.595947</ele>
        <time>2020-10-20T12:09:36.080Z</time>
      </trkpt>
      <trkpt lat="48.46762" lon="-2.03845">
        <ele>76.657227</ele>
        <time>2020-10-20T12:09:41.083Z</time>
      </trkpt>
      <trkpt lat="48.46767" lon="-2.0387">
        <ele>77.231323</ele>
        <time>2020-10-20T12:09:46.089Z</time>
      </trkpt>
      <trkpt lat="48.46796" lon="-2.03908">
        <ele>78.1698</ele>
        <time>2020-10-20T12:09:56.074Z</time>
      </trkpt>
      <trkpt lat="48.46813" lon="-2.03927">
        <ele>75.748962</ele>
        <time>2020-10-20T12:10:01.097Z</time>
      </trkpt>
      <trkpt lat="48.46821" lon="-2.03961">
        <ele>71.701904</ele>
        <time>2020-10-20T12:10:06.097Z</time>
      </trkpt>
      <trkpt lat="48.46792" lon="-2.04002">
        <ele>71.919983</ele>
        <time>2020-10-20T12:10:16.081Z</time>
      </trkpt>
      <trkpt lat="48.46775" lon="-2.04024">
        <ele>74.504578</ele>
        <time>2020-10-20T12:10:21.089Z</time>
      </trkpt>
      <trkpt lat="48.46758" lon="-2.04051">
        <ele>79.96814</ele>
        <time>2020-10-20T12:10:26.092Z</time>
      </trkpt>
      <trkpt lat="48.46734" lon="-2.04089">
        <ele>73.354187</ele>
        <time>2020-10-20T12:10:36.071Z</time>
      </trkpt>
      <trkpt lat="48.46712" lon="-2.04106">
        <ele>70.995972</ele>
        <time>2020-10-20T12:10:41.071Z</time>
      </trkpt>
      <trkpt lat="48.467" lon="-2.04132">
        <ele>74.633789</ele>
        <time>2020-10-20T12:10:46.077Z</time>
      </trkpt>
      <trkpt lat="48.46689" lon="-2.04158">
        <ele>78.945068</ele>
        <time>2020-10-20T12:10:51.083Z</time>
      </trkpt>
      <trkpt lat="48.46681" lon="-2.04182">
        <ele>81.295837</ele>
        <time>2020-10-20T12:10:56.093Z</time>
      </trkpt>
      <trkpt lat="48.46677" lon="-2.04226">
        <ele>86.647644</ele>
        <time>2020-10-20T12:11:06.068Z</time>
      </trkpt>
      <trkpt lat="48.46673" lon="-2.04246">
        <ele>86.88916</ele>
        <time>2020-10-20T12:11:11.074Z</time>
      </trkpt>
      <trkpt lat="48.46667" lon="-2.04266">
        <ele>87.225525</ele>
        <time>2020-10-20T12:11:16.080Z</time>
      </trkpt>
      <trkpt lat="48.4666" lon="-2.04286">
        <ele>89.130249</ele>
        <time>2020-10-20T12:11:21.081Z</time>
      </trkpt>
      <trkpt lat="48.46655" lon="-2.04307">
        <ele>89.785645</ele>
        <time>2020-10-20T12:11:26.086Z</time>
      </trkpt>
      <trkpt lat="48.46668" lon="-2.04309">
        <ele>90.527832</ele>
        <time>2020-10-20T12:11:31.093Z</time>
      </trkpt>
      <trkpt lat="48.46699" lon="-2.04299">
        <ele>91.315796</ele>
        <time>2020-10-20T12:11:41.062Z</time>
      </trkpt>
      <trkpt lat="48.46714" lon="-2.04295">
        <ele>93.831543</ele>
        <time>2020-10-20T12:11:46.093Z</time>
      </trkpt>
      <trkpt lat="48.46751" lon="-2.04286">
        <ele>93.954163</ele>
        <time>2020-10-20T12:11:56.077Z</time>
      </trkpt>
      <trkpt lat="48.46765" lon="-2.04287">
        <ele>94.614746</ele>
        <time>2020-10-20T12:12:01.084Z</time>
      </trkpt>
      <trkpt lat="48.46796" lon="-2.04291">
        <ele>97.001831</ele>
        <time>2020-10-20T12:12:11.079Z</time>
      </trkpt>
      <trkpt lat="48.46814" lon="-2.04292">
        <ele>97.558105</ele>
        <time>2020-10-20T12:12:16.082Z</time>
      </trkpt>
      <trkpt lat="48.46836" lon="-2.04297">
        <ele>97.553162</ele>
        <time>2020-10-20T12:12:22.075Z</time>
      </trkpt>
      <trkpt lat="48.46867" lon="-2.04305">
        <ele>97.660522</ele>
        <time>2020-10-20T12:12:31.094Z</time>
      </trkpt>
      <trkpt lat="48.4689" lon="-2.04313">
        <ele>96.216431</ele>
        <time>2020-10-20T12:12:38.081Z</time>
      </trkpt>
      <trkpt lat="48.46909" lon="-2.0432">
        <ele>97.894348</ele>
        <time>2020-10-20T12:12:43.905Z</time>
      </trkpt>
      <trkpt lat="48.46926" lon="-2.04327">
        <ele>99.881897</ele>
        <time>2020-10-20T12:12:49.077Z</time>
      </trkpt>
      <trkpt lat="48.46947" lon="-2.04334">
        <ele>99.7677</ele>
        <time>2020-10-20T12:12:55.088Z</time>
      </trkpt>
      <trkpt lat="48.46968" lon="-2.04341">
        <ele>100.911316</ele>
        <time>2020-10-20T12:13:01.083Z</time>
      </trkpt>
      <trkpt lat="48.46987" lon="-2.04349">
        <ele>101.662903</ele>
        <time>2020-10-20T12:13:06.093Z</time>
      </trkpt>
      <trkpt lat="48.47019" lon="-2.04362">
        <ele>101.491699</ele>
        <time>2020-10-20T12:13:15.088Z</time>
      </trkpt>
      <trkpt lat="48.47037" lon="-2.04368">
        <ele>101.905273</ele>
        <time>2020-10-20T12:13:20.090Z</time>
      </trkpt>
      <trkpt lat="48.47057" lon="-2.04373">
        <ele>102.732849</ele>
        <time>2020-10-20T12:13:25.096Z</time>
      </trkpt>
      <trkpt lat="48.47085" lon="-2.04376">
        <ele>103.003479</ele>
        <time>2020-10-20T12:13:31.088Z</time>
      </trkpt>
      <trkpt lat="48.47134" lon="-2.04359">
        <ele>102.681519</ele>
        <time>2020-10-20T12:13:40.069Z</time>
      </trkpt>
      <trkpt lat="48.47167" lon="-2.04364">
        <ele>102.58844</ele>
        <time>2020-10-20T12:13:45.073Z</time>
      </trkpt>
      <trkpt lat="48.47207" lon="-2.04354">
        <ele>101.590942</ele>
        <time>2020-10-20T12:13:50.080Z</time>
      </trkpt>
      <trkpt lat="48.4726" lon="-2.04342">
        <ele>100.739441</ele>
        <time>2020-10-20T12:13:56.076Z</time>
      </trkpt>
      <trkpt lat="48.47307" lon="-2.04328">
        <ele>97.901794</ele>
        <time>2020-10-20T12:14:01.084Z</time>
      </trkpt>
      <trkpt lat="48.47389" lon="-2.04306">
        <ele>101.661255</ele>
        <time>2020-10-20T12:14:10.077Z</time>
      </trkpt>
      <trkpt lat="48.47437" lon="-2.04293">
        <ele>101.36615</ele>
        <time>2020-10-20T12:14:16.091Z</time>
      </trkpt>
      <trkpt lat="48.47486" lon="-2.04253">
        <ele>102.063843</ele>
        <time>2020-10-20T12:14:25.081Z</time>
      </trkpt>
      <trkpt lat="48.47481" lon="-2.04187">
        <ele>98.863953</ele>
        <time>2020-10-20T12:14:31.072Z</time>
      </trkpt>
      <trkpt lat="48.47471" lon="-2.04123">
        <ele>96.613403</ele>
        <time>2020-10-20T12:14:36.106Z</time>
      </trkpt>
      <trkpt lat="48.47464" lon="-2.04057">
        <ele>93.246399</ele>
        <time>2020-10-20T12:14:45.079Z</time>
      </trkpt>
      <trkpt lat="48.4745" lon="-2.0405">
        <ele>90.858887</ele>
        <time>2020-10-20T12:14:51.075Z</time>
      </trkpt>
      <trkpt lat="48.47436" lon="-2.04037">
        <ele>88.865967</ele>
        <time>2020-10-20T12:14:56.094Z</time>
      </trkpt>
      <trkpt lat="48.4741" lon="-2.04028">
        <ele>83.557068</ele>
        <time>2020-10-20T12:15:01.099Z</time>
      </trkpt>
      <trkpt lat="48.47376" lon="-2.04015">
        <ele>77.984619</ele>
        <time>2020-10-20T12:15:11.080Z</time>
      </trkpt>
      <trkpt lat="48.47349" lon="-2.03997">
        <ele>78.871643</ele>
        <time>2020-10-20T12:15:21.011Z</time>
      </trkpt>
      <trkpt lat="48.47358" lon="-2.03964">
        <ele>77.169312</ele>
        <time>2020-10-20T12:15:26.467Z</time>
      </trkpt>
      <trkpt lat="48.47369" lon="-2.03944">
        <ele>78.791443</ele>
        <time>2020-10-20T12:15:31.806Z</time>
      </trkpt>
      <trkpt lat="48.47372" lon="-2.03935">
        <ele>77.935547</ele>
        <time>2020-10-20T12:15:37.964Z</time>
      </trkpt>
      <trkpt lat="48.47377" lon="-2.03924">
        <ele>78.96582</ele>
        <time>2020-10-20T12:15:43.087Z</time>
      </trkpt>
      <trkpt lat="48.47386" lon="-2.03903">
        <ele>84.431824</ele>
        <time>2020-10-20T12:15:51.700Z</time>
      </trkpt>
      <trkpt lat="48.47392" lon="-2.03888">
        <ele>84.915649</ele>
        <time>2020-10-20T12:15:58.421Z</time>
      </trkpt>
      <trkpt lat="48.47395" lon="-2.03873">
        <ele>83.984375</ele>
        <time>2020-10-20T12:16:03.795Z</time>
      </trkpt>
      <trkpt lat="48.47394" lon="-2.03859">
        <ele>85.558472</ele>
        <time>2020-10-20T12:16:09.075Z</time>
      </trkpt>
      <trkpt lat="48.47395" lon="-2.03844">
        <ele>90.256836</ele>
        <time>2020-10-20T12:16:14.495Z</time>
      </trkpt>
      <trkpt lat="48.47395" lon="-2.0384">
        <ele>93.35437</ele>
        <time>2020-10-20T12:16:20.089Z</time>
      </trkpt>
      <trkpt lat="48.47393" lon="-2.03829">
        <ele>95.226563</ele>
        <time>2020-10-20T12:16:46.747Z</time>
      </trkpt>
      <trkpt lat="48.47395" lon="-2.03822">
        <ele>104.009399</ele>
        <time>2020-10-20T12:16:53.082Z</time>
      </trkpt>
      <trkpt lat="48.474" lon="-2.03811">
        <ele>102.89563</ele>
        <time>2020-10-20T12:16:58.142Z</time>
      </trkpt>
      <trkpt lat="48.474" lon="-2.03804">
        <ele>103.335022</ele>
        <time>2020-10-20T12:17:04.081Z</time>
      </trkpt>
      <trkpt lat="48.47398" lon="-2.03793">
        <ele>105.064453</ele>
        <time>2020-10-20T12:17:11.578Z</time>
      </trkpt>
      <trkpt lat="48.4739" lon="-2.03778">
        <ele>111.376953</ele>
        <time>2020-10-20T12:17:30.048Z</time>
      </trkpt>
      <trkpt lat="48.47389" lon="-2.0377">
        <ele>106.92041</ele>
        <time>2020-10-20T12:17:35.505Z</time>
      </trkpt>
      <trkpt lat="48.47389" lon="-2.03757">
        <ele>106.27063</ele>
        <time>2020-10-20T12:17:41.077Z</time>
      </trkpt>
      <trkpt lat="48.47391" lon="-2.03742">
        <ele>105.185547</ele>
        <time>2020-10-20T12:17:46.089Z</time>
      </trkpt>
      <trkpt lat="48.47392" lon="-2.03726">
        <ele>103.98822</ele>
        <time>2020-10-20T12:17:51.551Z</time>
      </trkpt>
      <trkpt lat="48.47393" lon="-2.0371">
        <ele>106.402649</ele>
        <time>2020-10-20T12:17:56.850Z</time>
      </trkpt>
      <trkpt lat="48.47395" lon="-2.03695">
        <ele>106.194275</ele>
        <time>2020-10-20T12:18:02.072Z</time>
      </trkpt>
      <trkpt lat="48.47402" lon="-2.03675">
        <ele>109.491821</ele>
        <time>2020-10-20T12:18:11.070Z</time>
      </trkpt>
      <trkpt lat="48.47408" lon="-2.03663">
        <ele>108.568542</ele>
        <time>2020-10-20T12:18:17.599Z</time>
      </trkpt>
      <trkpt lat="48.47411" lon="-2.03649">
        <ele>108.460938</ele>
        <time>2020-10-20T12:18:22.940Z</time>
      </trkpt>
      <trkpt lat="48.47414" lon="-2.03634">
        <ele>107.950867</ele>
        <time>2020-10-20T12:18:28.077Z</time>
      </trkpt>
      <trkpt lat="48.4741" lon="-2.03607">
        <ele>107.86676</ele>
        <time>2020-10-20T12:18:36.491Z</time>
      </trkpt>
      <trkpt lat="48.47401" lon="-2.03584">
        <ele>107.988281</ele>
        <time>2020-10-20T12:18:44.070Z</time>
      </trkpt>
      <trkpt lat="48.47393" lon="-2.03571">
        <ele>108.480774</ele>
        <time>2020-10-20T12:18:49.076Z</time>
      </trkpt>
      <trkpt lat="48.47386" lon="-2.03553">
        <ele>108.273071</ele>
        <time>2020-10-20T12:18:54.564Z</time>
      </trkpt>
      <trkpt lat="48.47384" lon="-2.03532">
        <ele>108.987061</ele>
        <time>2020-10-20T12:18:59.619Z</time>
      </trkpt>
      <trkpt lat="48.47385" lon="-2.03513">
        <ele>109.889954</ele>
        <time>2020-10-20T12:19:04.699Z</time>
      </trkpt>
      <trkpt lat="48.47388" lon="-2.03494">
        <ele>110.563782</ele>
        <time>2020-10-20T12:19:09.818Z</time>
      </trkpt>
      <trkpt lat="48.47393" lon="-2.03473">
        <ele>110.762329</ele>
        <time>2020-10-20T12:19:15.072Z</time>
      </trkpt>
      <trkpt lat="48.47397" lon="-2.03452">
        <ele>111.448486</ele>
        <time>2020-10-20T12:19:20.330Z</time>
      </trkpt>
      <trkpt lat="48.474" lon="-2.03431">
        <ele>111.383545</ele>
        <time>2020-10-20T12:19:25.422Z</time>
      </trkpt>
      <trkpt lat="48.47404" lon="-2.0341">
        <ele>111.997009</ele>
        <time>2020-10-20T12:19:30.544Z</time>
      </trkpt>
      <trkpt lat="48.47409" lon="-2.03385">
        <ele>112.97583</ele>
        <time>2020-10-20T12:19:36.084Z</time>
      </trkpt>
      <trkpt lat="48.47414" lon="-2.03363">
        <ele>110.237793</ele>
        <time>2020-10-20T12:19:41.310Z</time>
      </trkpt>
      <trkpt lat="48.47417" lon="-2.03337">
        <ele>113.584961</ele>
        <time>2020-10-20T12:19:46.875Z</time>
      </trkpt>
      <trkpt lat="48.47422" lon="-2.03311">
        <ele>114.396301</ele>
        <time>2020-10-20T12:19:51.990Z</time>
      </trkpt>
      <trkpt lat="48.47428" lon="-2.03279">
        <ele>115.782349</ele>
        <time>2020-10-20T12:19:57.698Z</time>
      </trkpt>
      <trkpt lat="48.47435" lon="-2.0325">
        <ele>116.369019</ele>
        <time>2020-10-20T12:20:02.770Z</time>
      </trkpt>
      <trkpt lat="48.47442" lon="-2.03223">
        <ele>114.861145</ele>
        <time>2020-10-20T12:20:08.096Z</time>
      </trkpt>
      <trkpt lat="48.47456" lon="-2.03182">
        <ele>114.58844</ele>
        <time>2020-10-20T12:20:16.075Z</time>
      </trkpt>
      <trkpt lat="48.47475" lon="-2.03164">
        <ele>114.265564</ele>
        <time>2020-10-20T12:20:21.077Z</time>
      </trkpt>
      <trkpt lat="48.47497" lon="-2.03148">
        <ele>110.315125</ele>
        <time>2020-10-20T12:20:26.086Z</time>
      </trkpt>
      <trkpt lat="48.47538" lon="-2.03121">
        <ele>112.259155</ele>
        <time>2020-10-20T12:20:34.068Z</time>
      </trkpt>
      <trkpt lat="48.47567" lon="-2.03105">
        <ele>111.488647</ele>
        <time>2020-10-20T12:20:39.087Z</time>
      </trkpt>
      <trkpt lat="48.4761" lon="-2.03084">
        <ele>112.181152</ele>
        <time>2020-10-20T12:20:46.068Z</time>
      </trkpt>
      <trkpt lat="48.47641" lon="-2.03073">
        <ele>113.307739</ele>
        <time>2020-10-20T12:20:51.078Z</time>
      </trkpt>
      <trkpt lat="48.47672" lon="-2.03059">
        <ele>114.3573</ele>
        <time>2020-10-20T12:20:56.085Z</time>
      </trkpt>
      <trkpt lat="48.47718" lon="-2.03046">
        <ele>113.497253</ele>
        <time>2020-10-20T12:21:04.076Z</time>
      </trkpt>
      <trkpt lat="48.47749" lon="-2.03038">
        <ele>115.0802</ele>
        <time>2020-10-20T12:21:09.080Z</time>
      </trkpt>
      <trkpt lat="48.47787" lon="-2.03038">
        <ele>114.664307</ele>
        <time>2020-10-20T12:21:14.086Z</time>
      </trkpt>
      <trkpt lat="48.47842" lon="-2.0303">
        <ele>113.471191</ele>
        <time>2020-10-20T12:21:21.068Z</time>
      </trkpt>
      <trkpt lat="48.4788" lon="-2.03013">
        <ele>112.675903</ele>
        <time>2020-10-20T12:21:26.075Z</time>
      </trkpt>
      <trkpt lat="48.47919" lon="-2.02988">
        <ele>112.865051</ele>
        <time>2020-10-20T12:21:31.083Z</time>
      </trkpt>
      <trkpt lat="48.47984" lon="-2.02955">
        <ele>111.733643</ele>
        <time>2020-10-20T12:21:39.074Z</time>
      </trkpt>
      <trkpt lat="48.48027" lon="-2.02946">
        <ele>106.789612</ele>
        <time>2020-10-20T12:21:44.080Z</time>
      </trkpt>
      <trkpt lat="48.48086" lon="-2.02932">
        <ele>110.196472</ele>
        <time>2020-10-20T12:21:51.087Z</time>
      </trkpt>
      <trkpt lat="48.4815" lon="-2.02919">
        <ele>114.364563</ele>
        <time>2020-10-20T12:21:59.072Z</time>
      </trkpt>
      <trkpt lat="48.48188" lon="-2.02912">
        <ele>116.480042</ele>
        <time>2020-10-20T12:22:04.074Z</time>
      </trkpt>
      <trkpt lat="48.48223" lon="-2.02903">
        <ele>118.286133</ele>
        <time>2020-10-20T12:22:09.079Z</time>
      </trkpt>
      <trkpt lat="48.48268" lon="-2.02895">
        <ele>120.334778</ele>
        <time>2020-10-20T12:22:16.082Z</time>
      </trkpt>
      <trkpt lat="48.48299" lon="-2.02888">
        <ele>119.953369</ele>
        <time>2020-10-20T12:22:21.093Z</time>
      </trkpt>
      <trkpt lat="48.48349" lon="-2.02879">
        <ele>116.48822</ele>
        <time>2020-10-20T12:22:29.082Z</time>
      </trkpt>
      <trkpt lat="48.48356" lon="-2.02842">
        <ele>111.923035</ele>
        <time>2020-10-20T12:22:36.087Z</time>
      </trkpt>
      <trkpt lat="48.48336" lon="-2.02779">
        <ele>113.265747</ele>
        <time>2020-10-20T12:22:44.069Z</time>
      </trkpt>
      <trkpt lat="48.48325" lon="-2.02737">
        <ele>114.358948</ele>
        <time>2020-10-20T12:22:49.090Z</time>
      </trkpt>
      <trkpt lat="48.48314" lon="-2.02673">
        <ele>115.323303</ele>
        <time>2020-10-20T12:22:56.070Z</time>
      </trkpt>
      <trkpt lat="48.48318" lon="-2.0262">
        <ele>112.795959</ele>
        <time>2020-10-20T12:23:01.073Z</time>
      </trkpt>
      <trkpt lat="48.48339" lon="-2.0254">
        <ele>115.705139</ele>
        <time>2020-10-20T12:23:09.071Z</time>
      </trkpt>
      <trkpt lat="48.48356" lon="-2.02488">
        <ele>115.887939</ele>
        <time>2020-10-20T12:23:14.076Z</time>
      </trkpt>
      <trkpt lat="48.48371" lon="-2.02437">
        <ele>116.955933</ele>
        <time>2020-10-20T12:23:19.084Z</time>
      </trkpt>
      <trkpt lat="48.48387" lon="-2.0239">
        <ele>110.078369</ele>
        <time>2020-10-20T12:23:24.092Z</time>
      </trkpt>
      <trkpt lat="48.4841" lon="-2.02337">
        <ele>103.9198</ele>
        <time>2020-10-20T12:23:31.075Z</time>
      </trkpt>
      <trkpt lat="48.48421" lon="-2.02304">
        <ele>106.087646</ele>
        <time>2020-10-20T12:23:36.083Z</time>
      </trkpt>
      <trkpt lat="48.48423" lon="-2.02288">
        <ele>108.135254</ele>
        <time>2020-10-20T12:23:41.108Z</time>
      </trkpt>
      <trkpt lat="48.48435" lon="-2.02237">
        <ele>108.350403</ele>
        <time>2020-10-20T12:23:50.080Z</time>
      </trkpt>
      <trkpt lat="48.48443" lon="-2.02195">
        <ele>105.366089</ele>
        <time>2020-10-20T12:23:56.077Z</time>
      </trkpt>
      <trkpt lat="48.48447" lon="-2.02151">
        <ele>102.598511</ele>
        <time>2020-10-20T12:24:01.084Z</time>
      </trkpt>
      <trkpt lat="48.48442" lon="-2.0206">
        <ele>100.531189</ele>
        <time>2020-10-20T12:24:10.076Z</time>
      </trkpt>
      <trkpt lat="48.48432" lon="-2.01993">
        <ele>98.97998</ele>
        <time>2020-10-20T12:24:16.084Z</time>
      </trkpt>
      <trkpt lat="48.4842" lon="-2.01939">
        <ele>96.483521</ele>
        <time>2020-10-20T12:24:21.086Z</time>
      </trkpt>
      <trkpt lat="48.48391" lon="-2.01846">
        <ele>94.982788</ele>
        <time>2020-10-20T12:24:30.058Z</time>
      </trkpt>
      <trkpt lat="48.48379" lon="-2.01795">
        <ele>93.738342</ele>
        <time>2020-10-20T12:24:35.079Z</time>
      </trkpt>
      <trkpt lat="48.48373" lon="-2.01736">
        <ele>92.757385</ele>
        <time>2020-10-20T12:24:41.064Z</time>
      </trkpt>
      <trkpt lat="48.48368" lon="-2.01689">
        <ele>93.889771</ele>
        <time>2020-10-20T12:24:46.083Z</time>
      </trkpt>
      <trkpt lat="48.4836" lon="-2.01628">
        <ele>91.456665</ele>
        <time>2020-10-20T12:24:55.082Z</time>
      </trkpt>
      <trkpt lat="48.48345" lon="-2.01601">
        <ele>88.979919</ele>
        <time>2020-10-20T12:25:01.090Z</time>
      </trkpt>
      <trkpt lat="48.48333" lon="-2.01573">
        <ele>90.455261</ele>
        <time>2020-10-20T12:25:06.574Z</time>
      </trkpt>
      <trkpt lat="48.48314" lon="-2.01527">
        <ele>94.692688</ele>
        <time>2020-10-20T12:25:15.743Z</time>
      </trkpt>
      <trkpt lat="48.48334" lon="-2.01506">
        <ele>95.657593</ele>
        <time>2020-10-20T12:25:21.062Z</time>
      </trkpt>
      <trkpt lat="48.48357" lon="-2.01486">
        <ele>95.053101</ele>
        <time>2020-10-20T12:25:26.074Z</time>
      </trkpt>
      <trkpt lat="48.48379" lon="-2.01465">
        <ele>94.439514</ele>
        <time>2020-10-20T12:25:31.076Z</time>
      </trkpt>
      <trkpt lat="48.48426" lon="-2.01422">
        <ele>95.372864</ele>
        <time>2020-10-20T12:25:41.074Z</time>
      </trkpt>
      <trkpt lat="48.48447" lon="-2.01438">
        <ele>99.865356</ele>
        <time>2020-10-20T12:25:51.073Z</time>
      </trkpt>
      <trkpt lat="48.48463" lon="-2.01458">
        <ele>95.806091</ele>
        <time>2020-10-20T12:25:56.084Z</time>
      </trkpt>
      <trkpt lat="48.48501" lon="-2.01444">
        <ele>97.142761</ele>
        <time>2020-10-20T12:26:06.430Z</time>
      </trkpt>
      <trkpt lat="48.48519" lon="-2.01438">
        <ele>96.212097</ele>
        <time>2020-10-20T12:26:11.456Z</time>
      </trkpt>
      <trkpt lat="48.48545" lon="-2.01423">
        <ele>95.045349</ele>
        <time>2020-10-20T12:26:17.078Z</time>
      </trkpt>
      <trkpt lat="48.48565" lon="-2.01412">
        <ele>93.936279</ele>
        <time>2020-10-20T12:26:22.352Z</time>
      </trkpt>
      <trkpt lat="48.48583" lon="-2.0138">
        <ele>95.848389</ele>
        <time>2020-10-20T12:26:28.095Z</time>
      </trkpt>
      <trkpt lat="48.48594" lon="-2.01377">
        <ele>98.408325</ele>
        <time>2020-10-20T12:26:33.134Z</time>
      </trkpt>
      <trkpt lat="48.48607" lon="-2.01373">
        <ele>97.84613</ele>
        <time>2020-10-20T12:26:38.373Z</time>
      </trkpt>
      <trkpt lat="48.48624" lon="-2.01369">
        <ele>96.773499</ele>
        <time>2020-10-20T12:26:43.733Z</time>
      </trkpt>
      <trkpt lat="48.48644" lon="-2.01368">
        <ele>97.204102</ele>
        <time>2020-10-20T12:26:49.075Z</time>
      </trkpt>
      <trkpt lat="48.48663" lon="-2.01365">
        <ele>94.897156</ele>
        <time>2020-10-20T12:26:54.079Z</time>
      </trkpt>
      <trkpt lat="48.48688" lon="-2.01367">
        <ele>97.192322</ele>
        <time>2020-10-20T12:27:01.071Z</time>
      </trkpt>
      <trkpt lat="48.48715" lon="-2.01366">
        <ele>100.89856</ele>
        <time>2020-10-20T12:27:09.833Z</time>
      </trkpt>
      <trkpt lat="48.48731" lon="-2.01363">
        <ele>100.953125</ele>
        <time>2020-10-20T12:27:15.334Z</time>
      </trkpt>
      <trkpt lat="48.4874" lon="-2.01358">
        <ele>99.628784</ele>
        <time>2020-10-20T12:27:20.822Z</time>
      </trkpt>
      <trkpt lat="48.48753" lon="-2.0135">
        <ele>99.210205</ele>
        <time>2020-10-20T12:27:25.955Z</time>
      </trkpt>
      <trkpt lat="48.48769" lon="-2.01342">
        <ele>100.532104</ele>
        <time>2020-10-20T12:27:31.030Z</time>
      </trkpt>
      <trkpt lat="48.48785" lon="-2.01336">
        <ele>98.510803</ele>
        <time>2020-10-20T12:27:36.205Z</time>
      </trkpt>
      <trkpt lat="48.48799" lon="-2.01332">
        <ele>99.432312</ele>
        <time>2020-10-20T12:27:41.599Z</time>
      </trkpt>
      <trkpt lat="48.48812" lon="-2.01327">
        <ele>100.206116</ele>
        <time>2020-10-20T12:27:46.653Z</time>
      </trkpt>
      <trkpt lat="48.48825" lon="-2.01322">
        <ele>99.310974</ele>
        <time>2020-10-20T12:27:51.935Z</time>
      </trkpt>
      <trkpt lat="48.48838" lon="-2.01319">
        <ele>99.822632</ele>
        <time>2020-10-20T12:27:57.037Z</time>
      </trkpt>
      <trkpt lat="48.48851" lon="-2.01319">
        <ele>101.21051</ele>
        <time>2020-10-20T12:28:02.552Z</time>
      </trkpt>
      <trkpt lat="48.48859" lon="-2.01317">
        <ele>103.016602</ele>
        <time>2020-10-20T12:28:08.020Z</time>
      </trkpt>
      <trkpt lat="48.4887" lon="-2.01319">
        <ele>103.824219</ele>
        <time>2020-10-20T12:28:13.959Z</time>
      </trkpt>
      <trkpt lat="48.48881" lon="-2.01314">
        <ele>104.289124</ele>
        <time>2020-10-20T12:28:19.086Z</time>
      </trkpt>
      <trkpt lat="48.48893" lon="-2.01312">
        <ele>106.11853</ele>
        <time>2020-10-20T12:28:24.106Z</time>
      </trkpt>
      <trkpt lat="48.48904" lon="-2.01319">
        <ele>106.750122</ele>
        <time>2020-10-20T12:28:29.384Z</time>
      </trkpt>
      <trkpt lat="48.48917" lon="-2.01334">
        <ele>106.278076</ele>
        <time>2020-10-20T12:28:35.075Z</time>
      </trkpt>
      <trkpt lat="48.48938" lon="-2.01337">
        <ele>106.044556</ele>
        <time>2020-10-20T12:28:41.053Z</time>
      </trkpt>
      <trkpt lat="48.48963" lon="-2.01326">
        <ele>106.437195</ele>
        <time>2020-10-20T12:28:46.081Z</time>
      </trkpt>
      <trkpt lat="48.49007" lon="-2.0131">
        <ele>106.101318</ele>
        <time>2020-10-20T12:28:55.069Z</time>
      </trkpt>
      <trkpt lat="48.49035" lon="-2.01307">
        <ele>106.978088</ele>
        <time>2020-10-20T12:29:00.075Z</time>
      </trkpt>
      <trkpt lat="48.49066" lon="-2.01294">
        <ele>106.329346</ele>
        <time>2020-10-20T12:29:06.077Z</time>
      </trkpt>
      <trkpt lat="48.49117" lon="-2.01276">
        <ele>107.923462</ele>
        <time>2020-10-20T12:29:15.065Z</time>
      </trkpt>
      <trkpt lat="48.49149" lon="-2.01274">
        <ele>106.038208</ele>
        <time>2020-10-20T12:29:20.072Z</time>
      </trkpt>
      <trkpt lat="48.49189" lon="-2.0127">
        <ele>105.443542</ele>
        <time>2020-10-20T12:29:26.074Z</time>
      </trkpt>
      <trkpt lat="48.49216" lon="-2.01264">
        <ele>103.957214</ele>
        <time>2020-10-20T12:29:31.082Z</time>
      </trkpt>
      <trkpt lat="48.4922" lon="-2.01306">
        <ele>105.89856</ele>
        <time>2020-10-20T12:29:40.072Z</time>
      </trkpt>
      <trkpt lat="48.49235" lon="-2.01331">
        <ele>104.113586</ele>
        <time>2020-10-20T12:29:45.080Z</time>
      </trkpt>
      <trkpt lat="48.49263" lon="-2.01349">
        <ele>102.297729</ele>
        <time>2020-10-20T12:29:51.071Z</time>
      </trkpt>
      <trkpt lat="48.49287" lon="-2.01361">
        <ele>101.425476</ele>
        <time>2020-10-20T12:29:56.071Z</time>
      </trkpt>
      <trkpt lat="48.49313" lon="-2.0137">
        <ele>99.623779</ele>
        <time>2020-10-20T12:30:01.073Z</time>
      </trkpt>
      <trkpt lat="48.49354" lon="-2.01391">
        <ele>101.156433</ele>
        <time>2020-10-20T12:30:10.078Z</time>
      </trkpt>
      <trkpt lat="48.49375" lon="-2.01401">
        <ele>102.452881</ele>
        <time>2020-10-20T12:30:15.411Z</time>
      </trkpt>
      <trkpt lat="48.49396" lon="-2.01412">
        <ele>102.120239</ele>
        <time>2020-10-20T12:30:20.912Z</time>
      </trkpt>
      <trkpt lat="48.49413" lon="-2.01425">
        <ele>101.821472</ele>
        <time>2020-10-20T12:30:26.808Z</time>
      </trkpt>
      <trkpt lat="48.49408" lon="-2.01454">
        <ele>101.426025</ele>
        <time>2020-10-20T12:30:31.961Z</time>
      </trkpt>
      <trkpt lat="48.49399" lon="-2.01486">
        <ele>102.017334</ele>
        <time>2020-10-20T12:30:37.071Z</time>
      </trkpt>
      <trkpt lat="48.49389" lon="-2.01518">
        <ele>103.53833</ele>
        <time>2020-10-20T12:30:42.094Z</time>
      </trkpt>
      <trkpt lat="48.49373" lon="-2.0157">
        <ele>104.646545</ele>
        <time>2020-10-20T12:30:51.083Z</time>
      </trkpt>
      <trkpt lat="48.4936" lon="-2.01612">
        <ele>106.328003</ele>
        <time>2020-10-20T12:30:58.093Z</time>
      </trkpt>
      <trkpt lat="48.4935" lon="-2.01642">
        <ele>107.398315</ele>
        <time>2020-10-20T12:31:03.574Z</time>
      </trkpt>
      <trkpt lat="48.49342" lon="-2.01671">
        <ele>106.647583</ele>
        <time>2020-10-20T12:31:08.676Z</time>
      </trkpt>
      <trkpt lat="48.49331" lon="-2.01703">
        <ele>108.231628</ele>
        <time>2020-10-20T12:31:14.080Z</time>
      </trkpt>
      <trkpt lat="48.49318" lon="-2.01745">
        <ele>109.856323</ele>
        <time>2020-10-20T12:31:21.098Z</time>
      </trkpt>
      <trkpt lat="48.49313" lon="-2.01789">
        <ele>109.319702</ele>
        <time>2020-10-20T12:31:29.086Z</time>
      </trkpt>
      <trkpt lat="48.4934" lon="-2.01789">
        <ele>108.358093</ele>
        <time>2020-10-20T12:31:36.000Z</time>
      </trkpt>
      <trkpt lat="48.49363" lon="-2.01789">
        <ele>107.309998</ele>
        <time>2020-10-20T12:31:41.082Z</time>
      </trkpt>
      <trkpt lat="48.49388" lon="-2.01793">
        <ele>105.729858</ele>
        <time>2020-10-20T12:31:46.506Z</time>
      </trkpt>
      <trkpt lat="48.49425" lon="-2.01806">
        <ele>105.245972</ele>
        <time>2020-10-20T12:31:54.072Z</time>
      </trkpt>
      <trkpt lat="48.49461" lon="-2.01825">
        <ele>105.847046</ele>
        <time>2020-10-20T12:32:01.069Z</time>
      </trkpt>
      <trkpt lat="48.49479" lon="-2.01835">
        <ele>108.175049</ele>
        <time>2020-10-20T12:32:06.075Z</time>
      </trkpt>
      <trkpt lat="48.49503" lon="-2.01834">
        <ele>106.068176</ele>
        <time>2020-10-20T12:32:11.872Z</time>
      </trkpt>
      <trkpt lat="48.49506" lon="-2.01778">
        <ele>103.651001</ele>
        <time>2020-10-20T12:32:19.064Z</time>
      </trkpt>
      <trkpt lat="48.4951" lon="-2.01736">
        <ele>102.354736</ele>
        <time>2020-10-20T12:32:24.068Z</time>
      </trkpt>
      <trkpt lat="48.49513" lon="-2.01694">
        <ele>99.643372</ele>
        <time>2020-10-20T12:32:29.079Z</time>
      </trkpt>
      <trkpt lat="48.4952" lon="-2.01649">
        <ele>98.462646</ele>
        <time>2020-10-20T12:32:34.081Z</time>
      </trkpt>
      <trkpt lat="48.49531" lon="-2.01585">
        <ele>96.915283</ele>
        <time>2020-10-20T12:32:41.071Z</time>
      </trkpt>
      <trkpt lat="48.49541" lon="-2.0152">
        <ele>95.051025</ele>
        <time>2020-10-20T12:32:49.089Z</time>
      </trkpt>
      <trkpt lat="48.49561" lon="-2.01519">
        <ele>94.392029</ele>
        <time>2020-10-20T12:32:56.082Z</time>
      </trkpt>
      <trkpt lat="48.49593" lon="-2.01539">
        <ele>95.851074</ele>
        <time>2020-10-20T12:33:04.425Z</time>
      </trkpt>
      <trkpt lat="48.4962" lon="-2.0155">
        <ele>96.115112</ele>
        <time>2020-10-20T12:33:10.068Z</time>
      </trkpt>
      <trkpt lat="48.49646" lon="-2.01558">
        <ele>95.392517</ele>
        <time>2020-10-20T12:33:15.074Z</time>
      </trkpt>
      <trkpt lat="48.49671" lon="-2.01572">
        <ele>95.255798</ele>
        <time>2020-10-20T12:33:20.081Z</time>
      </trkpt>
      <trkpt lat="48.49699" lon="-2.01586">
        <ele>96.160706</ele>
        <time>2020-10-20T12:33:26.073Z</time>
      </trkpt>
      <trkpt lat="48.49736" lon="-2.01606">
        <ele>95.92157</ele>
        <time>2020-10-20T12:33:35.085Z</time>
      </trkpt>
      <trkpt lat="48.49768" lon="-2.01623">
        <ele>98.332581</ele>
        <time>2020-10-20T12:33:41.078Z</time>
      </trkpt>
      <trkpt lat="48.49814" lon="-2.0165">
        <ele>93.436646</ele>
        <time>2020-10-20T12:33:50.074Z</time>
      </trkpt>
      <trkpt lat="48.49841" lon="-2.01664">
        <ele>90.416382</ele>
        <time>2020-10-20T12:33:55.081Z</time>
      </trkpt>
      <trkpt lat="48.49867" lon="-2.01671">
        <ele>85.470947</ele>
        <time>2020-10-20T12:34:01.079Z</time>
      </trkpt>
      <trkpt lat="48.49919" lon="-2.01673">
        <ele>81.590942</ele>
        <time>2020-10-20T12:34:10.071Z</time>
      </trkpt>
      <trkpt lat="48.49934" lon="-2.01647">
        <ele>79.805969</ele>
        <time>2020-10-20T12:34:15.082Z</time>
      </trkpt>
      <trkpt lat="48.49948" lon="-2.01635">
        <ele>77.733521</ele>
        <time>2020-10-20T12:34:21.046Z</time>
      </trkpt>
      <trkpt lat="48.49954" lon="-2.01648">
        <ele>78.882629</ele>
        <time>2020-10-20T12:34:26.057Z</time>
      </trkpt>
      <trkpt lat="48.49962" lon="-2.01665">
        <ele>78.312927</ele>
        <time>2020-10-20T12:34:31.480Z</time>
      </trkpt>
      <trkpt lat="48.49971" lon="-2.0167">
        <ele>76.466797</ele>
        <time>2020-10-20T12:34:36.588Z</time>
      </trkpt>
      <trkpt lat="48.49974" lon="-2.01674">
        <ele>75.668762</ele>
        <time>2020-10-20T12:34:41.877Z</time>
      </trkpt>
      <trkpt lat="48.49978" lon="-2.01667">
        <ele>78.330383</ele>
        <time>2020-10-20T12:34:47.069Z</time>
      </trkpt>
      <trkpt lat="48.4999" lon="-2.01663">
        <ele>75.667358</ele>
        <time>2020-10-20T12:34:56.079Z</time>
      </trkpt>
      <trkpt lat="48.49997" lon="-2.01648">
        <ele>79.169983</ele>
        <time>2020-10-20T12:35:02.569Z</time>
      </trkpt>
      <trkpt lat="48.50005" lon="-2.01638">
        <ele>76.319275</ele>
        <time>2020-10-20T12:35:08.014Z</time>
      </trkpt>
      <trkpt lat="48.50015" lon="-2.01633">
        <ele>75.734741</ele>
        <time>2020-10-20T12:35:13.537Z</time>
      </trkpt>
      <trkpt lat="48.50025" lon="-2.01633">
        <ele>76.770813</ele>
        <time>2020-10-20T12:35:18.855Z</time>
      </trkpt>
      <trkpt lat="48.50034" lon="-2.01636">
        <ele>79.785278</ele>
        <time>2020-10-20T12:35:24.063Z</time>
      </trkpt>
      <trkpt lat="48.5004" lon="-2.01638">
        <ele>82.029419</ele>
        <time>2020-10-20T12:35:29.068Z</time>
      </trkpt>
      <trkpt lat="48.50047" lon="-2.01644">
        <ele>85.239197</ele>
        <time>2020-10-20T12:35:34.325Z</time>
      </trkpt>
      <trkpt lat="48.50055" lon="-2.01642">
        <ele>86.317505</ele>
        <time>2020-10-20T12:35:39.955Z</time>
      </trkpt>
      <trkpt lat="48.50062" lon="-2.01639">
        <ele>86.131287</ele>
        <time>2020-10-20T12:35:45.073Z</time>
      </trkpt>
      <trkpt lat="48.50073" lon="-2.01637">
        <ele>84.9198</ele>
        <time>2020-10-20T12:35:51.067Z</time>
      </trkpt>
      <trkpt lat="48.50085" lon="-2.01636">
        <ele>85.068481</ele>
        <time>2020-10-20T12:35:56.079Z</time>
      </trkpt>
      <trkpt lat="48.50097" lon="-2.01635">
        <ele>85.265137</ele>
        <time>2020-10-20T12:36:01.204Z</time>
      </trkpt>
      <trkpt lat="48.50109" lon="-2.01632">
        <ele>85.976013</ele>
        <time>2020-10-20T12:36:06.291Z</time>
      </trkpt>
      <trkpt lat="48.50123" lon="-2.01633">
        <ele>83.875793</ele>
        <time>2020-10-20T12:36:11.442Z</time>
      </trkpt>
      <trkpt lat="48.5014" lon="-2.01627">
        <ele>88.209534</ele>
        <time>2020-10-20T12:36:17.088Z</time>
      </trkpt>
      <trkpt lat="48.50167" lon="-2.01621">
        <ele>86.045837</ele>
        <time>2020-10-20T12:36:26.073Z</time>
      </trkpt>
      <trkpt lat="48.50185" lon="-2.0162">
        <ele>84.281799</ele>
        <time>2020-10-20T12:36:31.717Z</time>
      </trkpt>
      <trkpt lat="48.50199" lon="-2.01624">
        <ele>84.988892</ele>
        <time>2020-10-20T12:36:36.972Z</time>
      </trkpt>
      <trkpt lat="48.50207" lon="-2.01615">
        <ele>87.890259</ele>
        <time>2020-10-20T12:36:42.081Z</time>
      </trkpt>
      <trkpt lat="48.50206" lon="-2.01598">
        <ele>85.148132</ele>
        <time>2020-10-20T12:36:47.085Z</time>
      </trkpt>
      <trkpt lat="48.50209" lon="-2.01582">
        <ele>85.804688</ele>
        <time>2020-10-20T12:36:52.559Z</time>
      </trkpt>
      <trkpt lat="48.50213" lon="-2.01563">
        <ele>87.696777</ele>
        <time>2020-10-20T12:36:58.066Z</time>
      </trkpt>
      <trkpt lat="48.50222" lon="-2.0155">
        <ele>86.58606</ele>
        <time>2020-10-20T12:37:03.229Z</time>
      </trkpt>
      <trkpt lat="48.50235" lon="-2.01547">
        <ele>86.566467</ele>
        <time>2020-10-20T12:37:08.664Z</time>
      </trkpt>
      <trkpt lat="48.5025" lon="-2.01546">
        <ele>86.58197</ele>
        <time>2020-10-20T12:37:14.070Z</time>
      </trkpt>
      <trkpt lat="48.50267" lon="-2.01552">
        <ele>86.850464</ele>
        <time>2020-10-20T12:37:21.053Z</time>
      </trkpt>
      <trkpt lat="48.5028" lon="-2.01553">
        <ele>89.907166</ele>
        <time>2020-10-20T12:37:26.065Z</time>
      </trkpt>
      <trkpt lat="48.50304" lon="-2.01554">
        <ele>91.120728</ele>
        <time>2020-10-20T12:37:34.514Z</time>
      </trkpt>
      <trkpt lat="48.50317" lon="-2.01552">
        <ele>92.821411</ele>
        <time>2020-10-20T12:37:40.056Z</time>
      </trkpt>
      <trkpt lat="48.50331" lon="-2.01553">
        <ele>91.322876</ele>
        <time>2020-10-20T12:37:45.778Z</time>
      </trkpt>
      <trkpt lat="48.50347" lon="-2.01555">
        <ele>91.666931</ele>
        <time>2020-10-20T12:37:51.387Z</time>
      </trkpt>
      <trkpt lat="48.5036" lon="-2.01558">
        <ele>92.143433</ele>
        <time>2020-10-20T12:37:56.394Z</time>
      </trkpt>
      <trkpt lat="48.50374" lon="-2.01564">
        <ele>92.612549</ele>
        <time>2020-10-20T12:38:02.081Z</time>
      </trkpt>
      <trkpt lat="48.50387" lon="-2.01566">
        <ele>91.117249</ele>
        <time>2020-10-20T12:38:07.414Z</time>
      </trkpt>
      <trkpt lat="48.50403" lon="-2.01571">
        <ele>90.840027</ele>
        <time>2020-10-20T12:38:12.954Z</time>
      </trkpt>
      <trkpt lat="48.50418" lon="-2.01577">
        <ele>91.452087</ele>
        <time>2020-10-20T12:38:18.428Z</time>
      </trkpt>
      <trkpt lat="48.50435" lon="-2.01584">
        <ele>91.677185</ele>
        <time>2020-10-20T12:38:24.079Z</time>
      </trkpt>
      <trkpt lat="48.50454" lon="-2.01595">
        <ele>93.238525</ele>
        <time>2020-10-20T12:38:31.465Z</time>
      </trkpt>
      <trkpt lat="48.50474" lon="-2.01609">
        <ele>94.378662</ele>
        <time>2020-10-20T12:38:39.073Z</time>
      </trkpt>
      <trkpt lat="48.50487" lon="-2.0162">
        <ele>93.439758</ele>
        <time>2020-10-20T12:38:44.295Z</time>
      </trkpt>
      <trkpt lat="48.50496" lon="-2.01626">
        <ele>93.595459</ele>
        <time>2020-10-20T12:38:49.820Z</time>
      </trkpt>
      <trkpt lat="48.5051" lon="-2.01622">
        <ele>94.407959</ele>
        <time>2020-10-20T12:38:55.076Z</time>
      </trkpt>
      <trkpt lat="48.50523" lon="-2.01617">
        <ele>96.669312</ele>
        <time>2020-10-20T12:39:00.080Z</time>
      </trkpt>
      <trkpt lat="48.5054" lon="-2.01621">
        <ele>97.740845</ele>
        <time>2020-10-20T12:39:06.067Z</time>
      </trkpt>
      <trkpt lat="48.50573" lon="-2.01623">
        <ele>99.434631</ele>
        <time>2020-10-20T12:39:16.019Z</time>
      </trkpt>
      <trkpt lat="48.50589" lon="-2.01626">
        <ele>100.689331</ele>
        <time>2020-10-20T12:39:21.025Z</time>
      </trkpt>
      <trkpt lat="48.50606" lon="-2.0163">
        <ele>102.06604</ele>
        <time>2020-10-20T12:39:26.234Z</time>
      </trkpt>
      <trkpt lat="48.50623" lon="-2.01634">
        <ele>101.192749</ele>
        <time>2020-10-20T12:39:31.537Z</time>
      </trkpt>
      <trkpt lat="48.50642" lon="-2.01638">
        <ele>102.119263</ele>
        <time>2020-10-20T12:39:36.858Z</time>
      </trkpt>
      <trkpt lat="48.50661" lon="-2.01641">
        <ele>102.650879</ele>
        <time>2020-10-20T12:39:42.069Z</time>
      </trkpt>
      <trkpt lat="48.50676" lon="-2.01643">
        <ele>103.572754</ele>
        <time>2020-10-20T12:39:47.072Z</time>
      </trkpt>
      <trkpt lat="48.50691" lon="-2.01647">
        <ele>103.301636</ele>
        <time>2020-10-20T12:39:52.080Z</time>
      </trkpt>
      <trkpt lat="48.50711" lon="-2.01649">
        <ele>103.76123</ele>
        <time>2020-10-20T12:39:57.322Z</time>
      </trkpt>
      <trkpt lat="48.50728" lon="-2.01652">
        <ele>105.183289</ele>
        <time>2020-10-20T12:40:02.587Z</time>
      </trkpt>
      <trkpt lat="48.50747" lon="-2.01655">
        <ele>103.6427</ele>
        <time>2020-10-20T12:40:07.700Z</time>
      </trkpt>
      <trkpt lat="48.50764" lon="-2.01658">
        <ele>104.227295</ele>
        <time>2020-10-20T12:40:12.975Z</time>
      </trkpt>
      <trkpt lat="48.5078" lon="-2.01658">
        <ele>105.061401</ele>
        <time>2020-10-20T12:40:18.062Z</time>
      </trkpt>
      <trkpt lat="48.50797" lon="-2.01658">
        <ele>107.198242</ele>
        <time>2020-10-20T12:40:23.072Z</time>
      </trkpt>
      <trkpt lat="48.50813" lon="-2.0166">
        <ele>108.281677</ele>
        <time>2020-10-20T12:40:28.085Z</time>
      </trkpt>
      <trkpt lat="48.50832" lon="-2.01663">
        <ele>108.588623</ele>
        <time>2020-10-20T12:40:33.700Z</time>
      </trkpt>
      <trkpt lat="48.50848" lon="-2.01665">
        <ele>106.789856</ele>
        <time>2020-10-20T12:40:39.059Z</time>
      </trkpt>
      <trkpt lat="48.50861" lon="-2.01672">
        <ele>105.927429</ele>
        <time>2020-10-20T12:40:44.078Z</time>
      </trkpt>
      <trkpt lat="48.5087" lon="-2.01685">
        <ele>107.41272</ele>
        <time>2020-10-20T12:40:49.084Z</time>
      </trkpt>
      <trkpt lat="48.5088" lon="-2.01698">
        <ele>107.304871</ele>
        <time>2020-10-20T12:40:54.374Z</time>
      </trkpt>
      <trkpt lat="48.50887" lon="-2.01711">
        <ele>105.664856</ele>
        <time>2020-10-20T12:40:59.546Z</time>
      </trkpt>
      <trkpt lat="48.50898" lon="-2.01729">
        <ele>108.979004</ele>
        <time>2020-10-20T12:41:05.067Z</time>
      </trkpt>
      <trkpt lat="48.50904" lon="-2.01742">
        <ele>111.361023</ele>
        <time>2020-10-20T12:41:10.394Z</time>
      </trkpt>
      <trkpt lat="48.5091" lon="-2.01759">
        <ele>112.654846</ele>
        <time>2020-10-20T12:41:15.735Z</time>
      </trkpt>
      <trkpt lat="48.50917" lon="-2.01776">
        <ele>111.831726</ele>
        <time>2020-10-20T12:41:20.978Z</time>
      </trkpt>
      <trkpt lat="48.50923" lon="-2.01794">
        <ele>114.099915</ele>
        <time>2020-10-20T12:41:26.064Z</time>
      </trkpt>
      <trkpt lat="48.5093" lon="-2.01809">
        <ele>114.506409</ele>
        <time>2020-10-20T12:41:31.069Z</time>
      </trkpt>
      <trkpt lat="48.50935" lon="-2.01812">
        <ele>115.518921</ele>
        <time>2020-10-20T12:41:36.075Z</time>
      </trkpt>
      <trkpt lat="48.50952" lon="-2.01797">
        <ele>118.485596</ele>
        <time>2020-10-20T12:41:46.069Z</time>
      </trkpt>
      <trkpt lat="48.50964" lon="-2.01785">
        <ele>119.566528</ele>
        <time>2020-10-20T12:41:51.294Z</time>
      </trkpt>
      <trkpt lat="48.50974" lon="-2.01778">
        <ele>119.755554</ele>
        <time>2020-10-20T12:41:56.471Z</time>
      </trkpt>
      <trkpt lat="48.50993" lon="-2.01755">
        <ele>119.992798</ele>
        <time>2020-10-20T12:42:01.828Z</time>
      </trkpt>
      <trkpt lat="48.5101" lon="-2.01742">
        <ele>119.500061</ele>
        <time>2020-10-20T12:42:06.997Z</time>
      </trkpt>
      <trkpt lat="48.51027" lon="-2.01731">
        <ele>122.681763</ele>
        <time>2020-10-20T12:42:12.054Z</time>
      </trkpt>
      <trkpt lat="48.51045" lon="-2.01716">
        <ele>120.014709</ele>
        <time>2020-10-20T12:42:17.074Z</time>
      </trkpt>
      <trkpt lat="48.51075" lon="-2.01704">
        <ele>120.454651</ele>
        <time>2020-10-20T12:42:26.410Z</time>
      </trkpt>
      <trkpt lat="48.51099" lon="-2.01698">
        <ele>117.452026</ele>
        <time>2020-10-20T12:42:32.565Z</time>
      </trkpt>
      <trkpt lat="48.51118" lon="-2.01695">
        <ele>117.531372</ele>
        <time>2020-10-20T12:42:37.583Z</time>
      </trkpt>
      <trkpt lat="48.51138" lon="-2.01694">
        <ele>121.587708</ele>
        <time>2020-10-20T12:42:43.093Z</time>
      </trkpt>
      <trkpt lat="48.51165" lon="-2.01675">
        <ele>119.905762</ele>
        <time>2020-10-20T12:42:51.608Z</time>
      </trkpt>
      <trkpt lat="48.51183" lon="-2.01658">
        <ele>118.188293</ele>
        <time>2020-10-20T12:42:58.063Z</time>
      </trkpt>
      <trkpt lat="48.51198" lon="-2.01643">
        <ele>116.201843</ele>
        <time>2020-10-20T12:43:03.436Z</time>
      </trkpt>
      <trkpt lat="48.51214" lon="-2.0163">
        <ele>119.265259</ele>
        <time>2020-10-20T12:43:08.909Z</time>
      </trkpt>
      <trkpt lat="48.51225" lon="-2.01618">
        <ele>125.589844</ele>
        <time>2020-10-20T12:43:14.216Z</time>
      </trkpt>
      <trkpt lat="48.51241" lon="-2.01605">
        <ele>122.197021</ele>
        <time>2020-10-20T12:43:19.772Z</time>
      </trkpt>
      <trkpt lat="48.51255" lon="-2.01591">
        <ele>120.560791</ele>
        <time>2020-10-20T12:43:25.037Z</time>
      </trkpt>
      <trkpt lat="48.51284" lon="-2.01568">
        <ele>123.272278</ele>
        <time>2020-10-20T12:43:30.639Z</time>
      </trkpt>
      <trkpt lat="48.513" lon="-2.01555">
        <ele>119.510132</ele>
        <time>2020-10-20T12:43:36.047Z</time>
      </trkpt>
      <trkpt lat="48.51304" lon="-2.01528">
        <ele>116.495483</ele>
        <time>2020-10-20T12:43:41.073Z</time>
      </trkpt>
      <trkpt lat="48.51314" lon="-2.01506">
        <ele>115.725098</ele>
        <time>2020-10-20T12:43:47.059Z</time>
      </trkpt>
      <trkpt lat="48.51325" lon="-2.01477">
        <ele>116.712646</ele>
        <time>2020-10-20T12:43:52.090Z</time>
      </trkpt>
      <trkpt lat="48.5133" lon="-2.01446">
        <ele>117.718323</ele>
        <time>2020-10-20T12:43:57.092Z</time>
      </trkpt>
      <trkpt lat="48.51342" lon="-2.01395">
        <ele>117.190247</ele>
        <time>2020-10-20T12:44:06.621Z</time>
      </trkpt>
      <trkpt lat="48.51345" lon="-2.01377">
        <ele>112.940674</ele>
        <time>2020-10-20T12:44:12.992Z</time>
      </trkpt>
      <trkpt lat="48.5135" lon="-2.01345">
        <ele>113.539551</ele>
        <time>2020-10-20T12:44:18.085Z</time>
      </trkpt>
      <trkpt lat="48.51357" lon="-2.0131">
        <ele>112.888672</ele>
        <time>2020-10-20T12:44:23.556Z</time>
      </trkpt>
      <trkpt lat="48.51367" lon="-2.01267">
        <ele>111.57135</ele>
        <time>2020-10-20T12:44:28.865Z</time>
      </trkpt>
      <trkpt lat="48.51371" lon="-2.01247">
        <ele>113.259827</ele>
        <time>2020-10-20T12:44:34.869Z</time>
      </trkpt>
      <trkpt lat="48.51374" lon="-2.01212">
        <ele>111.082947</ele>
        <time>2020-10-20T12:44:40.095Z</time>
      </trkpt>
      <trkpt lat="48.51386" lon="-2.01161">
        <ele>112.123474</ele>
        <time>2020-10-20T12:44:46.067Z</time>
      </trkpt>
      <trkpt lat="48.51397" lon="-2.01117">
        <ele>109.669189</ele>
        <time>2020-10-20T12:44:51.078Z</time>
      </trkpt>
      <trkpt lat="48.5143" lon="-2.01066">
        <ele>104.306152</ele>
        <time>2020-10-20T12:45:01.055Z</time>
      </trkpt>
      <trkpt lat="48.51448" lon="-2.01045">
        <ele>104.982361</ele>
        <time>2020-10-20T12:45:06.066Z</time>
      </trkpt>
      <trkpt lat="48.51464" lon="-2.01025">
        <ele>103.811523</ele>
        <time>2020-10-20T12:45:11.072Z</time>
      </trkpt>
      <trkpt lat="48.51499" lon="-2.0097">
        <ele>99.3573</ele>
        <time>2020-10-20T12:45:21.065Z</time>
      </trkpt>
      <trkpt lat="48.51511" lon="-2.0094">
        <ele>99.819641</ele>
        <time>2020-10-20T12:45:26.074Z</time>
      </trkpt>
      <trkpt lat="48.51523" lon="-2.00904">
        <ele>104.24292</ele>
        <time>2020-10-20T12:45:31.079Z</time>
      </trkpt>
      <trkpt lat="48.51543" lon="-2.00848">
        <ele>96.210754</ele>
        <time>2020-10-20T12:45:41.145Z</time>
      </trkpt>
      <trkpt lat="48.5156" lon="-2.00827">
        <ele>109.018921</ele>
        <time>2020-10-20T12:45:46.820Z</time>
      </trkpt>
      <trkpt lat="48.51567" lon="-2.00807">
        <ele>99.547119</ele>
        <time>2020-10-20T12:45:52.079Z</time>
      </trkpt>
      <trkpt lat="48.51574" lon="-2.00797">
        <ele>100.356995</ele>
        <time>2020-10-20T12:45:57.881Z</time>
      </trkpt>
      <trkpt lat="48.51579" lon="-2.00795">
        <ele>99.361755</ele>
        <time>2020-10-20T12:46:06.437Z</time>
      </trkpt>
      <trkpt lat="48.51592" lon="-2.00781">
        <ele>99.337708</ele>
        <time>2020-10-20T12:46:13.318Z</time>
      </trkpt>
      <trkpt lat="48.51615" lon="-2.00751">
        <ele>95.493896</ele>
        <time>2020-10-20T12:46:19.092Z</time>
      </trkpt>
      <trkpt lat="48.5164" lon="-2.00715">
        <ele>91.792542</ele>
        <time>2020-10-20T12:46:26.072Z</time>
      </trkpt>
      <trkpt lat="48.51664" lon="-2.00674">
        <ele>87.034302</ele>
        <time>2020-10-20T12:46:34.298Z</time>
      </trkpt>
      <trkpt lat="48.51681" lon="-2.00643">
        <ele>84.543091</ele>
        <time>2020-10-20T12:46:39.544Z</time>
      </trkpt>
      <trkpt lat="48.51702" lon="-2.00627">
        <ele>86.901855</ele>
        <time>2020-10-20T12:46:44.578Z</time>
      </trkpt>
      <trkpt lat="48.51718" lon="-2.0061">
        <ele>84.975037</ele>
        <time>2020-10-20T12:46:49.715Z</time>
      </trkpt>
      <trkpt lat="48.5173" lon="-2.00597">
        <ele>86.189331</ele>
        <time>2020-10-20T12:46:55.079Z</time>
      </trkpt>
      <trkpt lat="48.51732" lon="-2.00566">
        <ele>86.239868</ele>
        <time>2020-10-20T12:47:00.934Z</time>
      </trkpt>
      <trkpt lat="48.51732" lon="-2.00527">
        <ele>86.175354</ele>
        <time>2020-10-20T12:47:06.062Z</time>
      </trkpt>
      <trkpt lat="48.51721" lon="-2.0049">
        <ele>80.857666</ele>
        <time>2020-10-20T12:47:11.065Z</time>
      </trkpt>
      <trkpt lat="48.51727" lon="-2.00463">
        <ele>79.983765</ele>
        <time>2020-10-20T12:47:16.071Z</time>
      </trkpt>
      <trkpt lat="48.51748" lon="-2.00462">
        <ele>81.225952</ele>
        <time>2020-10-20T12:47:21.255Z</time>
      </trkpt>
      <trkpt lat="48.5178" lon="-2.00469">
        <ele>78.083008</ele>
        <time>2020-10-20T12:47:27.066Z</time>
      </trkpt>
      <trkpt lat="48.51846" lon="-2.00479">
        <ele>77.469727</ele>
        <time>2020-10-20T12:47:36.060Z</time>
      </trkpt>
      <trkpt lat="48.51885" lon="-2.00479">
        <ele>74.578674</ele>
        <time>2020-10-20T12:47:42.069Z</time>
      </trkpt>
      <trkpt lat="48.51926" lon="-2.00482">
        <ele>73.465576</ele>
        <time>2020-10-20T12:47:47.074Z</time>
      </trkpt>
      <trkpt lat="48.51961" lon="-2.00487">
        <ele>68.989746</ele>
        <time>2020-10-20T12:47:52.084Z</time>
      </trkpt>
      <trkpt lat="48.52014" lon="-2.00467">
        <ele>65.676147</ele>
        <time>2020-10-20T12:48:01.071Z</time>
      </trkpt>
      <trkpt lat="48.52021" lon="-2.00425">
        <ele>63.424377</ele>
        <time>2020-10-20T12:48:06.083Z</time>
      </trkpt>
      <trkpt lat="48.52023" lon="-2.00365">
        <ele>67.830688</ele>
        <time>2020-10-20T12:48:12.076Z</time>
      </trkpt>
      <trkpt lat="48.52029" lon="-2.00278">
        <ele>67.643494</ele>
        <time>2020-10-20T12:48:21.053Z</time>
      </trkpt>
      <trkpt lat="48.52027" lon="-2.00226">
        <ele>66.69989</ele>
        <time>2020-10-20T12:48:26.060Z</time>
      </trkpt>
      <trkpt lat="48.52024" lon="-2.0017">
        <ele>64.664551</ele>
        <time>2020-10-20T12:48:31.076Z</time>
      </trkpt>
      <trkpt lat="48.52014" lon="-2.00145">
        <ele>66.901184</ele>
        <time>2020-10-20T12:48:36.080Z</time>
      </trkpt>
      <trkpt lat="48.51998" lon="-2.00134">
        <ele>67.56012</ele>
        <time>2020-10-20T12:48:42.076Z</time>
      </trkpt>
      <trkpt lat="48.52007" lon="-2.00109">
        <ele>66.92395</ele>
        <time>2020-10-20T12:48:47.203Z</time>
      </trkpt>
      <trkpt lat="48.52029" lon="-2.00081">
        <ele>61.376099</ele>
        <time>2020-10-20T12:48:52.649Z</time>
      </trkpt>
      <trkpt lat="48.5205" lon="-2.00057">
        <ele>57.056274</ele>
        <time>2020-10-20T12:48:58.055Z</time>
      </trkpt>
      <trkpt lat="48.5207" lon="-2.00028">
        <ele>59.112061</ele>
        <time>2020-10-20T12:49:03.078Z</time>
      </trkpt>
      <trkpt lat="48.5208" lon="-1.99995">
        <ele>58.544189</ele>
        <time>2020-10-20T12:49:08.085Z</time>
      </trkpt>
      <trkpt lat="48.52084" lon="-1.99976">
        <ele>62.701538</ele>
        <time>2020-10-20T12:49:13.628Z</time>
      </trkpt>
      <trkpt lat="48.52084" lon="-1.99956">
        <ele>62.900208</ele>
        <time>2020-10-20T12:49:19.016Z</time>
      </trkpt>
      <trkpt lat="48.52077" lon="-1.9995">
        <ele>64.262146</ele>
        <time>2020-10-20T12:49:24.728Z</time>
      </trkpt>
      <trkpt lat="48.52064" lon="-1.99943">
        <ele>64.817139</ele>
        <time>2020-10-20T12:49:29.897Z</time>
      </trkpt>
      <trkpt lat="48.52049" lon="-1.99937">
        <ele>63.012878</ele>
        <time>2020-10-20T12:49:35.159Z</time>
      </trkpt>
      <trkpt lat="48.52035" lon="-1.99928">
        <ele>65.535217</ele>
        <time>2020-10-20T12:49:40.595Z</time>
      </trkpt>
      <trkpt lat="48.52024" lon="-1.99919">
        <ele>63.469177</ele>
        <time>2020-10-20T12:49:45.966Z</time>
      </trkpt>
      <trkpt lat="48.52024" lon="-1.99898">
        <ele>63.65686</ele>
        <time>2020-10-20T12:49:51.076Z</time>
      </trkpt>
      <trkpt lat="48.52025" lon="-1.99872">
        <ele>62.892883</ele>
        <time>2020-10-20T12:49:56.500Z</time>
      </trkpt>
      <trkpt lat="48.52026" lon="-1.99841">
        <ele>61.36084</ele>
        <time>2020-10-20T12:50:01.692Z</time>
      </trkpt>
      <trkpt lat="48.52025" lon="-1.99812">
        <ele>59.862732</ele>
        <time>2020-10-20T12:50:06.732Z</time>
      </trkpt>
      <trkpt lat="48.52026" lon="-1.99797">
        <ele>59.813904</ele>
        <time>2020-10-20T12:50:12.072Z</time>
      </trkpt>
      <trkpt lat="48.52031" lon="-1.99787">
        <ele>60.001587</ele>
        <time>2020-10-20T12:50:17.079Z</time>
      </trkpt>
      <trkpt lat="48.52028" lon="-1.99761">
        <ele>60.97113</ele>
        <time>2020-10-20T12:50:22.770Z</time>
      </trkpt>
      <trkpt lat="48.52012" lon="-1.99749">
        <ele>59.844604</ele>
        <time>2020-10-20T12:50:28.075Z</time>
      </trkpt>
      <trkpt lat="48.51987" lon="-1.99732">
        <ele>61.725403</ele>
        <time>2020-10-20T12:50:36.065Z</time>
      </trkpt>
      <trkpt lat="48.51969" lon="-1.99716">
        <ele>62.684204</ele>
        <time>2020-10-20T12:50:41.804Z</time>
      </trkpt>
      <trkpt lat="48.51941" lon="-1.997">
        <ele>63.237793</ele>
        <time>2020-10-20T12:50:49.978Z</time>
      </trkpt>
      <trkpt lat="48.51925" lon="-1.99688">
        <ele>63.619263</ele>
        <time>2020-10-20T12:50:55.275Z</time>
      </trkpt>
      <trkpt lat="48.51912" lon="-1.99671">
        <ele>62.892029</ele>
        <time>2020-10-20T12:51:00.318Z</time>
      </trkpt>
      <trkpt lat="48.51904" lon="-1.99661">
        <ele>64.229736</ele>
        <time>2020-10-20T12:51:05.440Z</time>
      </trkpt>
      <trkpt lat="48.51893" lon="-1.99656">
        <ele>68.626038</ele>
        <time>2020-10-20T12:51:10.662Z</time>
      </trkpt>
      <trkpt lat="48.51879" lon="-1.99645">
        <ele>67.522339</ele>
        <time>2020-10-20T12:51:16.052Z</time>
      </trkpt>
      <trkpt lat="48.51866" lon="-1.99634">
        <ele>68.396484</ele>
        <time>2020-10-20T12:51:21.079Z</time>
      </trkpt>
      <trkpt lat="48.51841" lon="-1.99608">
        <ele>66.169861</ele>
        <time>2020-10-20T12:51:31.458Z</time>
      </trkpt>
      <trkpt lat="48.51849" lon="-1.99592">
        <ele>68.758484</ele>
        <time>2020-10-20T12:51:36.982Z</time>
      </trkpt>
      <trkpt lat="48.51861" lon="-1.9958">
        <ele>69.343018</ele>
        <time>2020-10-20T12:51:42.053Z</time>
      </trkpt>
      <trkpt lat="48.5186" lon="-1.99579">
        <ele>68.651001</ele>
        <time>2020-10-20T12:51:51.599Z</time>
      </trkpt>
      <trkpt lat="48.51876" lon="-1.99564">
        <ele>66.226074</ele>
        <time>2020-10-20T12:51:59.906Z</time>
      </trkpt>
      <trkpt lat="48.5188" lon="-1.99562">
        <ele>67.616516</ele>
        <time>2020-10-20T12:52:05.070Z</time>
      </trkpt>
      <trkpt lat="48.51883" lon="-1.99559">
        <ele>69.273376</ele>
        <time>2020-10-20T12:52:21.061Z</time>
      </trkpt>
      <trkpt lat="48.5189" lon="-1.99557">
        <ele>68.9021</ele>
        <time>2020-10-20T12:52:26.062Z</time>
      </trkpt>
      <trkpt lat="48.51897" lon="-1.99553">
        <ele>64.675415</ele>
        <time>2020-10-20T12:52:31.075Z</time>
      </trkpt>
      <trkpt lat="48.51914" lon="-1.99538">
        <ele>66.307556</ele>
        <time>2020-10-20T12:52:36.586Z</time>
      </trkpt>
      <trkpt lat="48.51933" lon="-1.99521">
        <ele>62.522034</ele>
        <time>2020-10-20T12:52:41.798Z</time>
      </trkpt>
      <trkpt lat="48.51966" lon="-1.99484">
        <ele>63.168274</ele>
        <time>2020-10-20T12:52:50.647Z</time>
      </trkpt>
      <trkpt lat="48.51982" lon="-1.99462">
        <ele>61.727966</ele>
        <time>2020-10-20T12:52:56.081Z</time>
      </trkpt>
      <trkpt lat="48.52016" lon="-1.99438">
        <ele>58.064636</ele>
        <time>2020-10-20T12:53:06.081Z</time>
      </trkpt>
      <trkpt lat="48.52054" lon="-1.99391">
        <ele>56.202698</ele>
        <time>2020-10-20T12:53:16.079Z</time>
      </trkpt>
      <trkpt lat="48.52106" lon="-1.99346">
        <ele>58.840454</ele>
        <time>2020-10-20T12:53:26.060Z</time>
      </trkpt>
      <trkpt lat="48.52136" lon="-1.99325">
        <ele>60.177979</ele>
        <time>2020-10-20T12:53:31.062Z</time>
      </trkpt>
      <trkpt lat="48.52156" lon="-1.99317">
        <ele>54.229675</ele>
        <time>2020-10-20T12:59:36.079Z</time>
      </trkpt>
      <trkpt lat="48.52162" lon="-1.99299">
        <ele>58.234375</ele>
        <time>2020-10-20T12:59:41.090Z</time>
      </trkpt>
      <trkpt lat="48.5216" lon="-1.9927">
        <ele>58.550476</ele>
        <time>2020-10-20T12:59:50.055Z</time>
      </trkpt>
      <trkpt lat="48.52156" lon="-1.99256">
        <ele>59.601257</ele>
        <time>2020-10-20T12:59:55.072Z</time>
      </trkpt>
      <trkpt lat="48.52153" lon="-1.99244">
        <ele>61.963867</ele>
        <time>2020-10-20T13:00:00.073Z</time>
      </trkpt>
      <trkpt lat="48.52151" lon="-1.99228">
        <ele>64.79425</ele>
        <time>2020-10-20T13:00:06.071Z</time>
      </trkpt>
      <trkpt lat="48.5215" lon="-1.99215">
        <ele>67.130798</ele>
        <time>2020-10-20T13:00:11.076Z</time>
      </trkpt>
      <trkpt lat="48.52139" lon="-1.99188">
        <ele>68.932617</ele>
        <time>2020-10-20T13:00:21.071Z</time>
      </trkpt>
      <trkpt lat="48.52134" lon="-1.99175">
        <ele>69.990417</ele>
        <time>2020-10-20T13:00:26.080Z</time>
      </trkpt>
      <trkpt lat="48.52128" lon="-1.99146">
        <ele>71.292236</ele>
        <time>2020-10-20T13:00:36.064Z</time>
      </trkpt>
      <trkpt lat="48.52127" lon="-1.99132">
        <ele>72.180298</ele>
        <time>2020-10-20T13:00:41.265Z</time>
      </trkpt>
      <trkpt lat="48.52125" lon="-1.99115">
        <ele>74.164795</ele>
        <time>2020-10-20T13:00:47.013Z</time>
      </trkpt>
      <trkpt lat="48.52124" lon="-1.99097">
        <ele>74.95929</ele>
        <time>2020-10-20T13:00:52.504Z</time>
      </trkpt>
      <trkpt lat="48.52123" lon="-1.9908">
        <ele>76.277588</ele>
        <time>2020-10-20T13:00:57.593Z</time>
      </trkpt>
      <trkpt lat="48.52121" lon="-1.99061">
        <ele>77.065002</ele>
        <time>2020-10-20T13:01:03.063Z</time>
      </trkpt>
      <trkpt lat="48.52118" lon="-1.9904">
        <ele>77.911255</ele>
        <time>2020-10-20T13:01:08.421Z</time>
      </trkpt>
      <trkpt lat="48.52117" lon="-1.99022">
        <ele>78.673645</ele>
        <time>2020-10-20T13:01:13.577Z</time>
      </trkpt>
      <trkpt lat="48.52116" lon="-1.99004">
        <ele>79.08374</ele>
        <time>2020-10-20T13:01:18.870Z</time>
      </trkpt>
      <trkpt lat="48.52115" lon="-1.98985">
        <ele>78.256592</ele>
        <time>2020-10-20T13:01:24.337Z</time>
      </trkpt>
      <trkpt lat="48.52115" lon="-1.98964">
        <ele>77.310669</ele>
        <time>2020-10-20T13:01:30.004Z</time>
      </trkpt>
      <trkpt lat="48.52113" lon="-1.98948">
        <ele>77.220093</ele>
        <time>2020-10-20T13:01:35.075Z</time>
      </trkpt>
      <trkpt lat="48.52105" lon="-1.98937">
        <ele>76.962952</ele>
        <time>2020-10-20T13:01:41.060Z</time>
      </trkpt>
      <trkpt lat="48.5209" lon="-1.98939">
        <ele>76.882629</ele>
        <time>2020-10-20T13:01:46.474Z</time>
      </trkpt>
      <trkpt lat="48.52076" lon="-1.9894">
        <ele>76.313538</ele>
        <time>2020-10-20T13:01:51.544Z</time>
      </trkpt>
      <trkpt lat="48.52062" lon="-1.9894">
        <ele>76.052856</ele>
        <time>2020-10-20T13:01:56.739Z</time>
      </trkpt>
      <trkpt lat="48.52047" lon="-1.98941">
        <ele>74.518921</ele>
        <time>2020-10-20T13:02:01.961Z</time>
      </trkpt>
      <trkpt lat="48.52033" lon="-1.98942">
        <ele>74.713684</ele>
        <time>2020-10-20T13:02:07.081Z</time>
      </trkpt>
      <trkpt lat="48.52018" lon="-1.98943">
        <ele>74.719788</ele>
        <time>2020-10-20T13:02:12.473Z</time>
      </trkpt>
      <trkpt lat="48.52009" lon="-1.98928">
        <ele>76.070801</ele>
        <time>2020-10-20T13:02:17.774Z</time>
      </trkpt>
      <trkpt lat="48.52014" lon="-1.98902">
        <ele>74.917786</ele>
        <time>2020-10-20T13:02:23.082Z</time>
      </trkpt>
      <trkpt lat="48.52018" lon="-1.9887">
        <ele>73.962036</ele>
        <time>2020-10-20T13:02:28.458Z</time>
      </trkpt>
      <trkpt lat="48.5202" lon="-1.98837">
        <ele>73.7229</ele>
        <time>2020-10-20T13:02:33.777Z</time>
      </trkpt>
      <trkpt lat="48.52019" lon="-1.98804">
        <ele>72.212524</ele>
        <time>2020-10-20T13:02:39.238Z</time>
      </trkpt>
      <trkpt lat="48.52018" lon="-1.98772">
        <ele>71.916504</ele>
        <time>2020-10-20T13:02:44.678Z</time>
      </trkpt>
      <trkpt lat="48.52013" lon="-1.98765">
        <ele>72.549377</ele>
        <time>2020-10-20T13:04:06.043Z</time>
      </trkpt>
      <trkpt lat="48.5201" lon="-1.98768">
        <ele>73.294006</ele>
        <time>2020-10-20T13:04:41.071Z</time>
      </trkpt>
      <trkpt lat="48.52009" lon="-1.98769">
        <ele>72.157349</ele>
        <time>2020-10-20T13:04:50.065Z</time>
      </trkpt>
      <trkpt lat="48.52008" lon="-1.98764">
        <ele>69.593384</ele>
        <time>2020-10-20T13:04:56.087Z</time>
      </trkpt>
      <trkpt lat="48.52009" lon="-1.98759">
        <ele>69.195801</ele>
        <time>2020-10-20T13:05:07.572Z</time>
      </trkpt>
      <trkpt lat="48.52005" lon="-1.9869">
        <ele>67.103638</ele>
        <time>2020-10-20T13:06:32.458Z</time>
      </trkpt>
      <trkpt lat="48.51992" lon="-1.98696">
        <ele>65.620544</ele>
        <time>2020-10-20T13:06:42.069Z</time>
      </trkpt>
      <trkpt lat="48.51974" lon="-1.987">
        <ele>66.415344</ele>
        <time>2020-10-20T13:06:48.033Z</time>
      </trkpt>
      <trkpt lat="48.51957" lon="-1.98704">
        <ele>66.83429</ele>
        <time>2020-10-20T13:06:53.731Z</time>
      </trkpt>
      <trkpt lat="48.51941" lon="-1.98708">
        <ele>66.049866</ele>
        <time>2020-10-20T13:06:59.060Z</time>
      </trkpt>
      <trkpt lat="48.51925" lon="-1.98715">
        <ele>67.643311</ele>
        <time>2020-10-20T13:07:04.082Z</time>
      </trkpt>
      <trkpt lat="48.51911" lon="-1.98719">
        <ele>67.927612</ele>
        <time>2020-10-20T13:07:09.226Z</time>
      </trkpt>
      <trkpt lat="48.51903" lon="-1.9872">
        <ele>69.095093</ele>
        <time>2020-10-20T13:07:14.454Z</time>
      </trkpt>
      <trkpt lat="48.51899" lon="-1.98724">
        <ele>69.892639</ele>
        <time>2020-10-20T13:07:22.057Z</time>
      </trkpt>
      <trkpt lat="48.519" lon="-1.98725">
        <ele>68.861877</ele>
        <time>2020-10-20T13:07:36.706Z</time>
      </trkpt>
      <trkpt lat="48.51904" lon="-1.98736">
        <ele>67.468018</ele>
        <time>2020-10-20T13:07:42.063Z</time>
      </trkpt>
      <trkpt lat="48.51907" lon="-1.98754">
        <ele>67.594482</ele>
        <time>2020-10-20T13:07:47.782Z</time>
      </trkpt>
      <trkpt lat="48.51909" lon="-1.98771">
        <ele>65.947632</ele>
        <time>2020-10-20T13:07:53.023Z</time>
      </trkpt>
      <trkpt lat="48.51911" lon="-1.98789">
        <ele>63.065918</ele>
        <time>2020-10-20T13:07:58.291Z</time>
      </trkpt>
      <trkpt lat="48.51912" lon="-1.98806">
        <ele>64.235413</ele>
        <time>2020-10-20T13:08:03.464Z</time>
      </trkpt>
      <trkpt lat="48.51912" lon="-1.98821">
        <ele>64.597168</ele>
        <time>2020-10-20T13:08:08.569Z</time>
      </trkpt>
      <trkpt lat="48.51916" lon="-1.98839">
        <ele>60.413086</ele>
        <time>2020-10-20T13:08:13.877Z</time>
      </trkpt>
      <trkpt lat="48.51917" lon="-1.98856">
        <ele>63.252258</ele>
        <time>2020-10-20T13:08:19.061Z</time>
      </trkpt>
      <trkpt lat="48.5192" lon="-1.9887">
        <ele>65.337036</ele>
        <time>2020-10-20T13:08:24.074Z</time>
      </trkpt>
      <trkpt lat="48.51923" lon="-1.98882">
        <ele>67.454224</ele>
        <time>2020-10-20T13:08:29.075Z</time>
      </trkpt>
      <trkpt lat="48.51925" lon="-1.98903">
        <ele>70.016907</ele>
        <time>2020-10-20T13:08:36.986Z</time>
      </trkpt>
      <trkpt lat="48.51922" lon="-1.98913">
        <ele>68.26062</ele>
        <time>2020-10-20T13:08:41.997Z</time>
      </trkpt>
      <trkpt lat="48.5191" lon="-1.98918">
        <ele>66.781494</ele>
        <time>2020-10-20T13:08:47.334Z</time>
      </trkpt>
      <trkpt lat="48.51892" lon="-1.98935">
        <ele>62.025757</ele>
        <time>2020-10-20T13:08:56.076Z</time>
      </trkpt>
      <trkpt lat="48.51883" lon="-1.98943">
        <ele>62.575989</ele>
        <time>2020-10-20T13:09:01.439Z</time>
      </trkpt>
      <trkpt lat="48.51875" lon="-1.98951">
        <ele>57.972534</ele>
        <time>2020-10-20T13:09:06.947Z</time>
      </trkpt>
      <trkpt lat="48.51874" lon="-1.98954">
        <ele>63.260742</ele>
        <time>2020-10-20T13:09:12.869Z</time>
      </trkpt>
      <trkpt lat="48.51872" lon="-1.98954">
        <ele>63.234558</ele>
        <time>2020-10-20T13:09:22.060Z</time>
      </trkpt>
      <trkpt lat="48.51867" lon="-1.98956">
        <ele>62.447327</ele>
        <time>2020-10-20T13:09:27.317Z</time>
      </trkpt>
      <trkpt lat="48.51849" lon="-1.98965">
        <ele>63.822388</ele>
        <time>2020-10-20T13:09:34.412Z</time>
      </trkpt>
      <trkpt lat="48.51838" lon="-1.98974">
        <ele>63.386841</ele>
        <time>2020-10-20T13:09:39.546Z</time>
      </trkpt>
      <trkpt lat="48.51835" lon="-1.98974">
        <ele>62.466125</ele>
        <time>2020-10-20T13:09:47.052Z</time>
      </trkpt>
      <trkpt lat="48.51832" lon="-1.98979">
        <ele>63.520508</ele>
        <time>2020-10-20T13:09:55.096Z</time>
      </trkpt>
      <trkpt lat="48.51824" lon="-1.98983">
        <ele>62.574646</ele>
        <time>2020-10-20T13:10:00.497Z</time>
      </trkpt>
      <trkpt lat="48.51815" lon="-1.98991">
        <ele>63.830261</ele>
        <time>2020-10-20T13:10:05.649Z</time>
      </trkpt>
      <trkpt lat="48.51805" lon="-1.98997">
        <ele>66.284363</ele>
        <time>2020-10-20T13:10:11.071Z</time>
      </trkpt>
      <trkpt lat="48.51794" lon="-1.99007">
        <ele>64.734436</ele>
        <time>2020-10-20T13:10:16.616Z</time>
      </trkpt>
      <trkpt lat="48.51781" lon="-1.99017">
        <ele>63.312134</ele>
        <time>2020-10-20T13:10:22.083Z</time>
      </trkpt>
      <trkpt lat="48.5177" lon="-1.99023">
        <ele>62.984863</ele>
        <time>2020-10-20T13:10:27.088Z</time>
      </trkpt>
      <trkpt lat="48.51758" lon="-1.99028">
        <ele>64.873291</ele>
        <time>2020-10-20T13:10:32.485Z</time>
      </trkpt>
      <trkpt lat="48.51745" lon="-1.99034">
        <ele>61.046448</ele>
        <time>2020-10-20T13:10:37.922Z</time>
      </trkpt>
      <trkpt lat="48.51736" lon="-1.9904">
        <ele>64.82074</ele>
        <time>2020-10-20T13:10:43.329Z</time>
      </trkpt>
      <trkpt lat="48.51726" lon="-1.99046">
        <ele>64.326294</ele>
        <time>2020-10-20T13:10:48.809Z</time>
      </trkpt>
      <trkpt lat="48.51713" lon="-1.99064">
        <ele>67.550354</ele>
        <time>2020-10-20T13:10:57.075Z</time>
      </trkpt>
      <trkpt lat="48.51714" lon="-1.99089">
        <ele>67.512756</ele>
        <time>2020-10-20T13:11:04.830Z</time>
      </trkpt>
      <trkpt lat="48.51716" lon="-1.99109">
        <ele>69.788757</ele>
        <time>2020-10-20T13:11:10.079Z</time>
      </trkpt>
      <trkpt lat="48.51712" lon="-1.99124">
        <ele>67.888428</ele>
        <time>2020-10-20T13:11:15.470Z</time>
      </trkpt>
      <trkpt lat="48.51698" lon="-1.99125">
        <ele>65.398926</ele>
        <time>2020-10-20T13:11:20.860Z</time>
      </trkpt>
      <trkpt lat="48.51682" lon="-1.99125">
        <ele>66.04541</ele>
        <time>2020-10-20T13:11:26.076Z</time>
      </trkpt>
      <trkpt lat="48.51665" lon="-1.99129">
        <ele>66.419067</ele>
        <time>2020-10-20T13:11:31.425Z</time>
      </trkpt>
      <trkpt lat="48.51648" lon="-1.99134">
        <ele>63.639099</ele>
        <time>2020-10-20T13:11:36.586Z</time>
      </trkpt>
      <trkpt lat="48.51629" lon="-1.99134">
        <ele>63.334229</ele>
        <time>2020-10-20T13:11:42.097Z</time>
      </trkpt>
      <trkpt lat="48.51618" lon="-1.99127">
        <ele>66.101501</ele>
        <time>2020-10-20T13:11:47.301Z</time>
      </trkpt>
      <trkpt lat="48.51611" lon="-1.99094">
        <ele>69.496155</ele>
        <time>2020-10-20T13:11:52.706Z</time>
      </trkpt>
      <trkpt lat="48.516" lon="-1.99061">
        <ele>69.66626</ele>
        <time>2020-10-20T13:11:57.754Z</time>
      </trkpt>
      <trkpt lat="48.51589" lon="-1.99034">
        <ele>65.297791</ele>
        <time>2020-10-20T13:12:03.068Z</time>
      </trkpt>
      <trkpt lat="48.51581" lon="-1.99007">
        <ele>66.015869</ele>
        <time>2020-10-20T13:12:08.090Z</time>
      </trkpt>
      <trkpt lat="48.51576" lon="-1.98965">
        <ele>64.471252</ele>
        <time>2020-10-20T13:12:17.014Z</time>
      </trkpt>
      <trkpt lat="48.51576" lon="-1.98941">
        <ele>63.101685</ele>
        <time>2020-10-20T13:12:22.086Z</time>
      </trkpt>
      <trkpt lat="48.51573" lon="-1.98922">
        <ele>61.431458</ele>
        <time>2020-10-20T13:12:28.280Z</time>
      </trkpt>
      <trkpt lat="48.51573" lon="-1.98904">
        <ele>61.146484</ele>
        <time>2020-10-20T13:12:33.383Z</time>
      </trkpt>
      <trkpt lat="48.51567" lon="-1.9888">
        <ele>62.928345</ele>
        <time>2020-10-20T13:12:38.427Z</time>
      </trkpt>
      <trkpt lat="48.51563" lon="-1.98864">
        <ele>65.596008</ele>
        <time>2020-10-20T13:12:43.632Z</time>
      </trkpt>
      <trkpt lat="48.5156" lon="-1.98846">
        <ele>65.725708</ele>
        <time>2020-10-20T13:12:49.540Z</time>
      </trkpt>
      <trkpt lat="48.51555" lon="-1.9883">
        <ele>65.983948</ele>
        <time>2020-10-20T13:12:54.667Z</time>
      </trkpt>
      <trkpt lat="48.51548" lon="-1.98815">
        <ele>68.242615</ele>
        <time>2020-10-20T13:13:00.072Z</time>
      </trkpt>
      <trkpt lat="48.51536" lon="-1.98806">
        <ele>67.943176</ele>
        <time>2020-10-20T13:13:05.075Z</time>
      </trkpt>
      <trkpt lat="48.5152" lon="-1.98795">
        <ele>70.422119</ele>
        <time>2020-10-20T13:13:12.294Z</time>
      </trkpt>
      <trkpt lat="48.51503" lon="-1.98786">
        <ele>70.806519</ele>
        <time>2020-10-20T13:13:21.069Z</time>
      </trkpt>
      <trkpt lat="48.5149" lon="-1.98782">
        <ele>73.59668</ele>
        <time>2020-10-20T13:13:27.353Z</time>
      </trkpt>
      <trkpt lat="48.51475" lon="-1.98793">
        <ele>77.364929</ele>
        <time>2020-10-20T13:13:36.760Z</time>
      </trkpt>
      <trkpt lat="48.51472" lon="-1.98806">
        <ele>80.205261</ele>
        <time>2020-10-20T13:13:42.140Z</time>
      </trkpt>
      <trkpt lat="48.51469" lon="-1.98817">
        <ele>80.032349</ele>
        <time>2020-10-20T13:13:48.074Z</time>
      </trkpt>
      <trkpt lat="48.51466" lon="-1.98823">
        <ele>79.20575</ele>
        <time>2020-10-20T13:13:53.302Z</time>
      </trkpt>
      <trkpt lat="48.51462" lon="-1.98829">
        <ele>82.022583</ele>
        <time>2020-10-20T13:13:59.035Z</time>
      </trkpt>
      <trkpt lat="48.51459" lon="-1.9884">
        <ele>81.987366</ele>
        <time>2020-10-20T13:14:04.383Z</time>
      </trkpt>
      <trkpt lat="48.51461" lon="-1.98853">
        <ele>76.524719</ele>
        <time>2020-10-20T13:14:09.707Z</time>
      </trkpt>
      <trkpt lat="48.51459" lon="-1.98863">
        <ele>80.284119</ele>
        <time>2020-10-20T13:14:14.809Z</time>
      </trkpt>
      <trkpt lat="48.51455" lon="-1.98873">
        <ele>85.905945</ele>
        <time>2020-10-20T13:14:20.066Z</time>
      </trkpt>
      <trkpt lat="48.5145" lon="-1.98889">
        <ele>85.68219</ele>
        <time>2020-10-20T13:14:27.525Z</time>
      </trkpt>
      <trkpt lat="48.51443" lon="-1.98909">
        <ele>76.122192</ele>
        <time>2020-10-20T13:14:35.080Z</time>
      </trkpt>
      <trkpt lat="48.51436" lon="-1.98933">
        <ele>83.97229</ele>
        <time>2020-10-20T13:14:42.296Z</time>
      </trkpt>
      <trkpt lat="48.51429" lon="-1.98946">
        <ele>87.033264</ele>
        <time>2020-10-20T13:14:47.595Z</time>
      </trkpt>
      <trkpt lat="48.5142" lon="-1.98965">
        <ele>68.484558</ele>
        <time>2020-10-20T13:14:55.843Z</time>
      </trkpt>
      <trkpt lat="48.51416" lon="-1.98975">
        <ele>82.648315</ele>
        <time>2020-10-20T13:15:00.997Z</time>
      </trkpt>
      <trkpt lat="48.51408" lon="-1.98989">
        <ele>86.328735</ele>
        <time>2020-10-20T13:15:06.487Z</time>
      </trkpt>
      <trkpt lat="48.51398" lon="-1.98998">
        <ele>87.918091</ele>
        <time>2020-10-20T13:15:12.074Z</time>
      </trkpt>
      <trkpt lat="48.51377" lon="-1.99003">
        <ele>89.294006</ele>
        <time>2020-10-20T13:15:22.013Z</time>
      </trkpt>
      <trkpt lat="48.51363" lon="-1.99005">
        <ele>86.482117</ele>
        <time>2020-10-20T13:15:28.080Z</time>
      </trkpt>
      <trkpt lat="48.51352" lon="-1.99009">
        <ele>85.885681</ele>
        <time>2020-10-20T13:15:33.089Z</time>
      </trkpt>
      <trkpt lat="48.5134" lon="-1.99014">
        <ele>74.715149</ele>
        <time>2020-10-20T13:15:38.794Z</time>
      </trkpt>
      <trkpt lat="48.51328" lon="-1.99016">
        <ele>84.155823</ele>
        <time>2020-10-20T13:15:44.069Z</time>
      </trkpt>
      <trkpt lat="48.51318" lon="-1.99018">
        <ele>83.399963</ele>
        <time>2020-10-20T13:15:49.089Z</time>
      </trkpt>
      <trkpt lat="48.51307" lon="-1.99021">
        <ele>86.188538</ele>
        <time>2020-10-20T13:15:54.637Z</time>
      </trkpt>
      <trkpt lat="48.51296" lon="-1.99021">
        <ele>88.272461</ele>
        <time>2020-10-20T13:16:00.066Z</time>
      </trkpt>
      <trkpt lat="48.51284" lon="-1.99025">
        <ele>91.592773</ele>
        <time>2020-10-20T13:16:05.318Z</time>
      </trkpt>
      <trkpt lat="48.5127" lon="-1.99031">
        <ele>93.22998</ele>
        <time>2020-10-20T13:16:10.679Z</time>
      </trkpt>
      <trkpt lat="48.51255" lon="-1.99037">
        <ele>90.475098</ele>
        <time>2020-10-20T13:16:16.082Z</time>
      </trkpt>
      <trkpt lat="48.51241" lon="-1.99042">
        <ele>91.491089</ele>
        <time>2020-10-20T13:16:22.090Z</time>
      </trkpt>
      <trkpt lat="48.51223" lon="-1.99054">
        <ele>89.921692</ele>
        <time>2020-10-20T13:16:32.078Z</time>
      </trkpt>
      <trkpt lat="48.51211" lon="-1.9905">
        <ele>91.533813</ele>
        <time>2020-10-20T13:16:37.191Z</time>
      </trkpt>
      <trkpt lat="48.51198" lon="-1.99048">
        <ele>93.293213</ele>
        <time>2020-10-20T13:16:42.195Z</time>
      </trkpt>
      <trkpt lat="48.51173" lon="-1.99054">
        <ele>93.087463</ele>
        <time>2020-10-20T13:16:47.609Z</time>
      </trkpt>
      <trkpt lat="48.51144" lon="-1.99058">
        <ele>93.082764</ele>
        <time>2020-10-20T13:16:53.065Z</time>
      </trkpt>
      <trkpt lat="48.51123" lon="-1.99056">
        <ele>93.379028</ele>
        <time>2020-10-20T13:16:58.086Z</time>
      </trkpt>
      <trkpt lat="48.51073" lon="-1.99056">
        <ele>91.872925</ele>
        <time>2020-10-20T13:17:07.075Z</time>
      </trkpt>
      <trkpt lat="48.51045" lon="-1.99042">
        <ele>92.660828</ele>
        <time>2020-10-20T13:17:13.069Z</time>
      </trkpt>
      <trkpt lat="48.51022" lon="-1.99037">
        <ele>93.369812</ele>
        <time>2020-10-20T13:17:18.080Z</time>
      </trkpt>
      <trkpt lat="48.51" lon="-1.99037">
        <ele>95.423218</ele>
        <time>2020-10-20T13:17:23.083Z</time>
      </trkpt>
      <trkpt lat="48.5098" lon="-1.9904">
        <ele>95.131226</ele>
        <time>2020-10-20T13:17:28.502Z</time>
      </trkpt>
      <trkpt lat="48.50964" lon="-1.99042">
        <ele>96.470581</ele>
        <time>2020-10-20T13:17:33.780Z</time>
      </trkpt>
      <trkpt lat="48.50951" lon="-1.99028">
        <ele>98.18335</ele>
        <time>2020-10-20T13:17:39.080Z</time>
      </trkpt>
      <trkpt lat="48.50936" lon="-1.99022">
        <ele>98.759644</ele>
        <time>2020-10-20T13:17:44.087Z</time>
      </trkpt>
      <trkpt lat="48.5092" lon="-1.99019">
        <ele>98.671082</ele>
        <time>2020-10-20T13:17:49.431Z</time>
      </trkpt>
      <trkpt lat="48.50903" lon="-1.99018">
        <ele>97.484802</ele>
        <time>2020-10-20T13:17:54.464Z</time>
      </trkpt>
      <trkpt lat="48.50876" lon="-1.99018">
        <ele>96.187561</ele>
        <time>2020-10-20T13:18:00.075Z</time>
      </trkpt>
      <trkpt lat="48.50848" lon="-1.99019">
        <ele>96.01709</ele>
        <time>2020-10-20T13:18:05.080Z</time>
      </trkpt>
      <trkpt lat="48.50818" lon="-1.99022">
        <ele>95.588257</ele>
        <time>2020-10-20T13:18:10.094Z</time>
      </trkpt>
      <trkpt lat="48.50778" lon="-1.99029">
        <ele>96.398804</ele>
        <time>2020-10-20T13:18:17.082Z</time>
      </trkpt>
      <trkpt lat="48.5074" lon="-1.9903">
        <ele>94.115784</ele>
        <time>2020-10-20T13:18:25.099Z</time>
      </trkpt>
      <trkpt lat="48.50707" lon="-1.99024">
        <ele>94.70343</ele>
        <time>2020-10-20T13:18:32.090Z</time>
      </trkpt>
      <trkpt lat="48.50693" lon="-1.99016">
        <ele>94.915649</ele>
        <time>2020-10-20T13:18:37.091Z</time>
      </trkpt>
      <trkpt lat="48.50666" lon="-1.99014">
        <ele>91.019531</ele>
        <time>2020-10-20T13:18:46.075Z</time>
      </trkpt>
      <trkpt lat="48.50652" lon="-1.99011">
        <ele>95.349854</ele>
        <time>2020-10-20T13:18:52.000Z</time>
      </trkpt>
      <trkpt lat="48.5064" lon="-1.99008">
        <ele>97.325623</ele>
        <time>2020-10-20T13:18:57.059Z</time>
      </trkpt>
      <trkpt lat="48.5063" lon="-1.99004">
        <ele>96.80249</ele>
        <time>2020-10-20T13:19:02.073Z</time>
      </trkpt>
      <trkpt lat="48.50619" lon="-1.99005">
        <ele>96.978882</ele>
        <time>2020-10-20T13:19:09.020Z</time>
      </trkpt>
      <trkpt lat="48.50616" lon="-1.99016">
        <ele>97.299995</ele>
        <time>2020-10-20T13:20:40.087Z</time>
      </trkpt>
      <trkpt lat="48.50612" lon="-1.99038">
        <ele>97.299995</ele>
        <time>2020-10-20T13:20:46.992Z</time>
      </trkpt>
      <trkpt lat="48.50608" lon="-1.99056">
        <ele>97.299995</ele>
        <time>2020-10-20T13:20:52.079Z</time>
      </trkpt>
      <trkpt lat="48.50597" lon="-1.99105">
        <ele>97.299995</ele>
        <time>2020-10-20T13:21:00.752Z</time>
      </trkpt>
      <trkpt lat="48.50587" lon="-1.99151">
        <ele>97.299995</ele>
        <time>2020-10-20T13:21:07.072Z</time>
      </trkpt>
      <trkpt lat="48.50584" lon="-1.99223">
        <ele>97.299995</ele>
        <time>2020-10-20T13:21:17.064Z</time>
      </trkpt>
      <trkpt lat="48.50592" lon="-1.99235">
        <ele>87.352051</ele>
        <time>2020-10-20T13:21:22.065Z</time>
      </trkpt>
      <trkpt lat="48.5062" lon="-1.99267">
        <ele>88.957397</ele>
        <time>2020-10-20T13:21:31.973Z</time>
      </trkpt>
      <trkpt lat="48.50642" lon="-1.99298">
        <ele>86.84259</ele>
        <time>2020-10-20T13:21:37.079Z</time>
      </trkpt>
      <trkpt lat="48.50657" lon="-1.9932">
        <ele>87.965881</ele>
        <time>2020-10-20T13:21:42.481Z</time>
      </trkpt>
      <trkpt lat="48.50675" lon="-1.99344">
        <ele>88.365723</ele>
        <time>2020-10-20T13:21:48.075Z</time>
      </trkpt>
      <trkpt lat="48.50688" lon="-1.99353">
        <ele>85.660034</ele>
        <time>2020-10-20T13:21:55.649Z</time>
      </trkpt>
      <trkpt lat="48.50692" lon="-1.99365">
        <ele>88.203491</ele>
        <time>2020-10-20T13:22:00.649Z</time>
      </trkpt>
      <trkpt lat="48.50704" lon="-1.99384">
        <ele>91.122803</ele>
        <time>2020-10-20T13:22:05.957Z</time>
      </trkpt>
      <trkpt lat="48.5072" lon="-1.994">
        <ele>90.693909</ele>
        <time>2020-10-20T13:22:11.496Z</time>
      </trkpt>
      <trkpt lat="48.50738" lon="-1.99416">
        <ele>90.318787</ele>
        <time>2020-10-20T13:22:16.650Z</time>
      </trkpt>
      <trkpt lat="48.50739" lon="-1.99436">
        <ele>93.5</ele>
        <time>2020-10-20T13:22:22.051Z</time>
      </trkpt>
      <trkpt lat="48.5073" lon="-1.99442">
        <ele>93.5</ele>
        <time>2020-10-20T13:22:28.138Z</time>
      </trkpt>
      <trkpt lat="48.50731" lon="-1.99437">
        <ele>93.5</ele>
        <time>2020-10-20T13:22:37.062Z</time>
      </trkpt>
      <trkpt lat="48.50736" lon="-1.99422">
        <ele>93.5</ele>
        <time>2020-10-20T13:22:47.073Z</time>
      </trkpt>
      <trkpt lat="48.50753" lon="-1.99439">
        <ele>62.5</ele>
        <time>2020-10-20T13:22:57.064Z</time>
      </trkpt>
      <trkpt lat="48.5078" lon="-1.99465">
        <ele>62.5</ele>
        <time>2020-10-20T13:23:03.154Z</time>
      </trkpt>
      <trkpt lat="48.50802" lon="-1.99501">
        <ele>62.5</ele>
        <time>2020-10-20T13:23:13.156Z</time>
      </trkpt>
      <trkpt lat="48.5084" lon="-1.99524">
        <ele>62.5</ele>
        <time>2020-10-20T13:23:22.705Z</time>
      </trkpt>
      <trkpt lat="48.50879" lon="-1.99571">
        <ele>62.5</ele>
        <time>2020-10-20T13:23:32.662Z</time>
      </trkpt>
      <trkpt lat="48.50897" lon="-1.99625">
        <ele>91.799995</ele>
        <time>2020-10-20T13:23:38.070Z</time>
      </trkpt>
      <trkpt lat="48.50907" lon="-1.99649">
        <ele>92</ele>
        <time>2020-10-20T13:23:43.105Z</time>
      </trkpt>
      <trkpt lat="48.50912" lon="-1.99683">
        <ele>92</ele>
        <time>2020-10-20T13:23:49.761Z</time>
      </trkpt>
      <trkpt lat="48.50912" lon="-1.99711">
        <ele>92</ele>
        <time>2020-10-20T13:23:55.115Z</time>
      </trkpt>
      <trkpt lat="48.50918" lon="-1.99742">
        <ele>92</ele>
        <time>2020-10-20T13:24:00.177Z</time>
      </trkpt>
      <trkpt lat="48.50924" lon="-1.99769">
        <ele>92</ele>
        <time>2020-10-20T13:24:05.212Z</time>
      </trkpt>
      <trkpt lat="48.50925" lon="-1.99807">
        <ele>92</ele>
        <time>2020-10-20T13:24:12.069Z</time>
      </trkpt>
      <trkpt lat="48.50928" lon="-1.9983">
        <ele>92</ele>
        <time>2020-10-20T13:24:17.630Z</time>
      </trkpt>
      <trkpt lat="48.50935" lon="-1.99843">
        <ele>92</ele>
        <time>2020-10-20T13:24:22.956Z</time>
      </trkpt>
      <trkpt lat="48.50938" lon="-1.99856">
        <ele>92</ele>
        <time>2020-10-20T13:24:29.911Z</time>
      </trkpt>
      <trkpt lat="48.50926" lon="-1.99868">
        <ele>92</ele>
        <time>2020-10-20T13:24:35.236Z</time>
      </trkpt>
      <trkpt lat="48.50929" lon="-1.99885">
        <ele>97.284851</ele>
        <time>2020-10-20T13:24:42.063Z</time>
      </trkpt>
      <trkpt lat="48.50939" lon="-1.99903">
        <ele>98.357727</ele>
        <time>2020-10-20T13:24:48.141Z</time>
      </trkpt>
      <trkpt lat="48.50964" lon="-1.99943">
        <ele>96.461182</ele>
        <time>2020-10-20T13:24:57.066Z</time>
      </trkpt>
      <trkpt lat="48.50973" lon="-1.99972">
        <ele>99.657959</ele>
        <time>2020-10-20T13:25:07.073Z</time>
      </trkpt>
      <trkpt lat="48.50977" lon="-1.9999">
        <ele>100.850952</ele>
        <time>2020-10-20T13:25:12.956Z</time>
      </trkpt>
      <trkpt lat="48.50987" lon="-2.00036">
        <ele>97.624878</ele>
        <time>2020-10-20T13:25:22.025Z</time>
      </trkpt>
      <trkpt lat="48.50992" lon="-2.0006">
        <ele>98.796936</ele>
        <time>2020-10-20T13:25:29.481Z</time>
      </trkpt>
      <trkpt lat="48.51004" lon="-2.00076">
        <ele>99.575256</ele>
        <time>2020-10-20T13:25:35.142Z</time>
      </trkpt>
      <trkpt lat="48.51014" lon="-2.00087">
        <ele>101.532715</ele>
        <time>2020-10-20T13:25:40.178Z</time>
      </trkpt>
      <trkpt lat="48.51025" lon="-2.00104">
        <ele>102.772705</ele>
        <time>2020-10-20T13:25:45.758Z</time>
      </trkpt>
      <trkpt lat="48.51039" lon="-2.00115">
        <ele>100.292236</ele>
        <time>2020-10-20T13:25:50.994Z</time>
      </trkpt>
      <trkpt lat="48.51056" lon="-2.00127">
        <ele>103.376587</ele>
        <time>2020-10-20T13:25:56.169Z</time>
      </trkpt>
      <trkpt lat="48.51063" lon="-2.00133">
        <ele>107.839417</ele>
        <time>2020-10-20T13:26:01.222Z</time>
      </trkpt>
      <trkpt lat="48.51068" lon="-2.00148">
        <ele>105.36084</ele>
        <time>2020-10-20T13:26:06.432Z</time>
      </trkpt>
      <trkpt lat="48.51087" lon="-2.00166">
        <ele>106.217712</ele>
        <time>2020-10-20T13:26:12.071Z</time>
      </trkpt>
      <trkpt lat="48.51103" lon="-2.00175">
        <ele>107.140137</ele>
        <time>2020-10-20T13:26:27.577Z</time>
      </trkpt>
      <trkpt lat="48.51099" lon="-2.00191">
        <ele>106.611328</ele>
        <time>2020-10-20T13:26:33.482Z</time>
      </trkpt>
      <trkpt lat="48.51098" lon="-2.00213">
        <ele>107.117126</ele>
        <time>2020-10-20T13:26:38.839Z</time>
      </trkpt>
      <trkpt lat="48.51099" lon="-2.00235">
        <ele>108.235596</ele>
        <time>2020-10-20T13:26:43.997Z</time>
      </trkpt>
      <trkpt lat="48.51097" lon="-2.00255">
        <ele>105.079956</ele>
        <time>2020-10-20T13:26:49.118Z</time>
      </trkpt>
      <trkpt lat="48.51092" lon="-2.0028">
        <ele>103.9021</ele>
        <time>2020-10-20T13:26:54.235Z</time>
      </trkpt>
      <trkpt lat="48.51091" lon="-2.00292">
        <ele>108.974609</ele>
        <time>2020-10-20T13:26:59.563Z</time>
      </trkpt>
      <trkpt lat="48.51079" lon="-2.00315">
        <ele>110.091919</ele>
        <time>2020-10-20T13:27:07.062Z</time>
      </trkpt>
      <trkpt lat="48.51081" lon="-2.00324">
        <ele>109.735229</ele>
        <time>2020-10-20T13:27:12.128Z</time>
      </trkpt>
      <trkpt lat="48.51093" lon="-2.00333">
        <ele>100.019104</ele>
        <time>2020-10-20T13:27:17.631Z</time>
      </trkpt>
      <trkpt lat="48.51113" lon="-2.0035">
        <ele>103.853271</ele>
        <time>2020-10-20T13:27:23.639Z</time>
      </trkpt>
      <trkpt lat="48.51126" lon="-2.00353">
        <ele>100.63678</ele>
        <time>2020-10-20T13:27:29.052Z</time>
      </trkpt>
      <trkpt lat="48.51128" lon="-2.0037">
        <ele>99.070923</ele>
        <time>2020-10-20T13:27:38.099Z</time>
      </trkpt>
      <trkpt lat="48.51128" lon="-2.00358">
        <ele>102.359924</ele>
        <time>2020-10-20T13:28:07.068Z</time>
      </trkpt>
      <trkpt lat="48.51127" lon="-2.00363">
        <ele>105.301636</ele>
        <time>2020-10-20T13:28:13.075Z</time>
      </trkpt>
      <trkpt lat="48.5112" lon="-2.00391">
        <ele>104.048889</ele>
        <time>2020-10-20T13:28:19.378Z</time>
      </trkpt>
      <trkpt lat="48.51121" lon="-2.00393">
        <ele>105.739197</ele>
        <time>2020-10-20T13:28:24.918Z</time>
      </trkpt>
      <trkpt lat="48.51116" lon="-2.00441">
        <ele>92.948792</ele>
        <time>2020-10-20T13:28:30.694Z</time>
      </trkpt>
      <trkpt lat="48.51116" lon="-2.00483">
        <ele>101.921997</ele>
        <time>2020-10-20T13:28:35.984Z</time>
      </trkpt>
      <trkpt lat="48.51119" lon="-2.00519">
        <ele>106.450439</ele>
        <time>2020-10-20T13:28:41.031Z</time>
      </trkpt>
      <trkpt lat="48.51126" lon="-2.00549">
        <ele>106.97937</ele>
        <time>2020-10-20T13:28:46.143Z</time>
      </trkpt>
      <trkpt lat="48.51132" lon="-2.00581">
        <ele>102.698364</ele>
        <time>2020-10-20T13:28:53.175Z</time>
      </trkpt>
      <trkpt lat="48.5114" lon="-2.00638">
        <ele>104.673462</ele>
        <time>2020-10-20T13:29:02.250Z</time>
      </trkpt>
      <trkpt lat="48.51123" lon="-2.00682">
        <ele>104.938293</ele>
        <time>2020-10-20T13:29:13.125Z</time>
      </trkpt>
      <trkpt lat="48.51153" lon="-2.00727">
        <ele>95.273682</ele>
        <time>2020-10-20T13:29:23.121Z</time>
      </trkpt>
      <trkpt lat="48.5117" lon="-2.00743">
        <ele>102.837524</ele>
        <time>2020-10-20T13:29:29.014Z</time>
      </trkpt>
      <trkpt lat="48.5118" lon="-2.00787">
        <ele>109.024048</ele>
        <time>2020-10-20T13:29:37.079Z</time>
      </trkpt>
      <trkpt lat="48.51181" lon="-2.00823">
        <ele>110.164368</ele>
        <time>2020-10-20T13:29:43.119Z</time>
      </trkpt>
      <trkpt lat="48.51187" lon="-2.00875">
        <ele>110.664795</ele>
        <time>2020-10-20T13:29:53.147Z</time>
      </trkpt>
      <trkpt lat="48.51187" lon="-2.00913">
        <ele>112.50708</ele>
        <time>2020-10-20T13:29:59.244Z</time>
      </trkpt>
      <trkpt lat="48.51182" lon="-2.0093">
        <ele>111.686096</ele>
        <time>2020-10-20T13:30:04.738Z</time>
      </trkpt>
      <trkpt lat="48.51181" lon="-2.00963">
        <ele>112.041382</ele>
        <time>2020-10-20T13:30:09.863Z</time>
      </trkpt>
      <trkpt lat="48.51183" lon="-2.00989">
        <ele>110.650574</ele>
        <time>2020-10-20T13:30:15.120Z</time>
      </trkpt>
      <trkpt lat="48.51184" lon="-2.01011">
        <ele>113.840576</ele>
        <time>2020-10-20T13:30:20.626Z</time>
      </trkpt>
      <trkpt lat="48.51187" lon="-2.01033">
        <ele>115.659485</ele>
        <time>2020-10-20T13:30:25.954Z</time>
      </trkpt>
      <trkpt lat="48.51187" lon="-2.01058">
        <ele>117.892029</ele>
        <time>2020-10-20T13:30:31.273Z</time>
      </trkpt>
      <trkpt lat="48.51179" lon="-2.01073">
        <ele>111.937683</ele>
        <time>2020-10-20T13:30:36.430Z</time>
      </trkpt>
      <trkpt lat="48.51167" lon="-2.01078">
        <ele>106.4375</ele>
        <time>2020-10-20T13:30:41.437Z</time>
      </trkpt>
      <trkpt lat="48.51156" lon="-2.01081">
        <ele>110.106873</ele>
        <time>2020-10-20T13:30:46.525Z</time>
      </trkpt>
      <trkpt lat="48.51142" lon="-2.0109">
        <ele>103.939331</ele>
        <time>2020-10-20T13:30:51.629Z</time>
      </trkpt>
      <trkpt lat="48.51129" lon="-2.01104">
        <ele>107.865784</ele>
        <time>2020-10-20T13:30:56.893Z</time>
      </trkpt>
      <trkpt lat="48.51116" lon="-2.01131">
        <ele>112.02002</ele>
        <time>2020-10-20T13:31:02.017Z</time>
      </trkpt>
      <trkpt lat="48.511" lon="-2.01167">
        <ele>114.615906</ele>
        <time>2020-10-20T13:31:07.039Z</time>
      </trkpt>
      <trkpt lat="48.51099" lon="-2.01167">
        <ele>112.957764</ele>
        <time>2020-10-20T13:31:12.068Z</time>
      </trkpt>
      <trkpt lat="48.51083" lon="-2.01228">
        <ele>117.267212</ele>
        <time>2020-10-20T13:31:18.821Z</time>
      </trkpt>
      <trkpt lat="48.51074" lon="-2.01257">
        <ele>113.28241</ele>
        <time>2020-10-20T13:31:24.315Z</time>
      </trkpt>
      <trkpt lat="48.51066" lon="-2.01279">
        <ele>110.107422</ele>
        <time>2020-10-20T13:31:29.533Z</time>
      </trkpt>
      <trkpt lat="48.51064" lon="-2.01311">
        <ele>105.463928</ele>
        <time>2020-10-20T13:31:34.874Z</time>
      </trkpt>
      <trkpt lat="48.51067" lon="-2.01343">
        <ele>108.75769</ele>
        <time>2020-10-20T13:31:40.092Z</time>
      </trkpt>
      <trkpt lat="48.51066" lon="-2.01367">
        <ele>105.05542</ele>
        <time>2020-10-20T13:31:45.733Z</time>
      </trkpt>
      <trkpt lat="48.51067" lon="-2.01388">
        <ele>102.198486</ele>
        <time>2020-10-20T13:31:51.498Z</time>
      </trkpt>
      <trkpt lat="48.51066" lon="-2.01418">
        <ele>108.07135</ele>
        <time>2020-10-20T13:31:56.702Z</time>
      </trkpt>
      <trkpt lat="48.51068" lon="-2.01447">
        <ele>99.170288</ele>
        <time>2020-10-20T13:32:02.060Z</time>
      </trkpt>
      <trkpt lat="48.51063" lon="-2.01477">
        <ele>100.196411</ele>
        <time>2020-10-20T13:32:07.211Z</time>
      </trkpt>
      <trkpt lat="48.51062" lon="-2.015">
        <ele>109.743164</ele>
        <time>2020-10-20T13:32:12.713Z</time>
      </trkpt>
      <trkpt lat="48.51071" lon="-2.01523">
        <ele>111.680115</ele>
        <time>2020-10-20T13:32:18.105Z</time>
      </trkpt>
      <trkpt lat="48.51077" lon="-2.01545">
        <ele>114.475464</ele>
        <time>2020-10-20T13:32:23.445Z</time>
      </trkpt>
      <trkpt lat="48.51077" lon="-2.01557">
        <ele>116.694336</ele>
        <time>2020-10-20T13:32:28.931Z</time>
      </trkpt>
      <trkpt lat="48.51078" lon="-2.01578">
        <ele>122.354004</ele>
        <time>2020-10-20T13:32:34.431Z</time>
      </trkpt>
      <trkpt lat="48.51081" lon="-2.0159">
        <ele>125.857788</ele>
        <time>2020-10-20T13:32:39.533Z</time>
      </trkpt>
      <trkpt lat="48.51087" lon="-2.01604">
        <ele>109.980774</ele>
        <time>2020-10-20T13:32:44.595Z</time>
      </trkpt>
      <trkpt lat="48.51095" lon="-2.01616">
        <ele>113.339355</ele>
        <time>2020-10-20T13:32:49.989Z</time>
      </trkpt>
      <trkpt lat="48.51106" lon="-2.0163">
        <ele>115.088379</ele>
        <time>2020-10-20T13:32:55.355Z</time>
      </trkpt>
      <trkpt lat="48.51112" lon="-2.01641">
        <ele>100.702698</ele>
        <time>2020-10-20T13:33:00.759Z</time>
      </trkpt>
      <trkpt lat="48.51115" lon="-2.01645">
        <ele>108.812622</ele>
        <time>2020-10-20T13:33:05.952Z</time>
      </trkpt>
      <trkpt lat="48.51116" lon="-2.01661">
        <ele>115.191895</ele>
        <time>2020-10-20T13:33:11.998Z</time>
      </trkpt>
      <trkpt lat="48.51119" lon="-2.01674">
        <ele>105.149048</ele>
        <time>2020-10-20T13:33:17.859Z</time>
      </trkpt>
      <trkpt lat="48.51114" lon="-2.01687">
        <ele>109.041748</ele>
        <time>2020-10-20T13:34:12.054Z</time>
      </trkpt>
      <trkpt lat="48.51112" lon="-2.01687">
        <ele>111.137207</ele>
        <time>2020-10-20T13:34:22.053Z</time>
      </trkpt>
      <trkpt lat="48.5111" lon="-2.0169">
        <ele>113.042358</ele>
        <time>2020-10-20T13:34:28.446Z</time>
      </trkpt>
      <trkpt lat="48.51102" lon="-2.0169">
        <ele>114.761963</ele>
        <time>2020-10-20T13:34:33.878Z</time>
      </trkpt>
      <trkpt lat="48.51089" lon="-2.01692">
        <ele>115.622742</ele>
        <time>2020-10-20T13:34:39.091Z</time>
      </trkpt>
      <trkpt lat="48.51061" lon="-2.01704">
        <ele>116.863403</ele>
        <time>2020-10-20T13:34:46.988Z</time>
      </trkpt>
      <trkpt lat="48.5104" lon="-2.01712">
        <ele>115.524048</ele>
        <time>2020-10-20T13:34:52.053Z</time>
      </trkpt>
      <trkpt lat="48.51021" lon="-2.01723">
        <ele>117.398682</ele>
        <time>2020-10-20T13:34:57.427Z</time>
      </trkpt>
      <trkpt lat="48.50996" lon="-2.01745">
        <ele>119.884888</ele>
        <time>2020-10-20T13:35:05.060Z</time>
      </trkpt>
      <trkpt lat="48.50975" lon="-2.01763">
        <ele>115.843567</ele>
        <time>2020-10-20T13:35:10.447Z</time>
      </trkpt>
      <trkpt lat="48.50946" lon="-2.01801">
        <ele>115.498657</ele>
        <time>2020-10-20T13:35:15.773Z</time>
      </trkpt>
      <trkpt lat="48.50934" lon="-2.01811">
        <ele>120.787231</ele>
        <time>2020-10-20T13:35:20.878Z</time>
      </trkpt>
      <trkpt lat="48.50923" lon="-2.01781">
        <ele>115.988098</ele>
        <time>2020-10-20T13:35:26.061Z</time>
      </trkpt>
      <trkpt lat="48.50906" lon="-2.01745">
        <ele>114.547363</ele>
        <time>2020-10-20T13:35:31.082Z</time>
      </trkpt>
      <trkpt lat="48.50895" lon="-2.01714">
        <ele>109.666626</ele>
        <time>2020-10-20T13:35:36.086Z</time>
      </trkpt>
      <trkpt lat="48.50864" lon="-2.01678">
        <ele>109.286011</ele>
        <time>2020-10-20T13:35:42.066Z</time>
      </trkpt>
      <trkpt lat="48.50831" lon="-2.01663">
        <ele>113.920776</ele>
        <time>2020-10-20T13:35:47.079Z</time>
      </trkpt>
      <trkpt lat="48.50759" lon="-2.01658">
        <ele>110.57666</ele>
        <time>2020-10-20T13:35:56.077Z</time>
      </trkpt>
      <trkpt lat="48.50717" lon="-2.01652">
        <ele>107.664124</ele>
        <time>2020-10-20T13:36:01.088Z</time>
      </trkpt>
      <trkpt lat="48.50668" lon="-2.01647">
        <ele>105.70929</ele>
        <time>2020-10-20T13:36:07.072Z</time>
      </trkpt>
      <trkpt lat="48.50629" lon="-2.01639">
        <ele>103.221619</ele>
        <time>2020-10-20T13:36:12.072Z</time>
      </trkpt>
      <trkpt lat="48.50561" lon="-2.01626">
        <ele>99.870483</ele>
        <time>2020-10-20T13:36:21.078Z</time>
      </trkpt>
      <trkpt lat="48.50518" lon="-2.01622">
        <ele>97.784119</ele>
        <time>2020-10-20T13:36:27.080Z</time>
      </trkpt>
      <trkpt lat="48.50487" lon="-2.01623">
        <ele>97.767822</ele>
        <time>2020-10-20T13:36:32.080Z</time>
      </trkpt>
      <trkpt lat="48.50458" lon="-2.01599">
        <ele>96.349548</ele>
        <time>2020-10-20T13:36:37.088Z</time>
      </trkpt>
      <trkpt lat="48.50402" lon="-2.01571">
        <ele>96.548523</ele>
        <time>2020-10-20T13:36:46.088Z</time>
      </trkpt>
      <trkpt lat="48.50366" lon="-2.0156">
        <ele>96.681885</ele>
        <time>2020-10-20T13:36:52.080Z</time>
      </trkpt>
      <trkpt lat="48.50346" lon="-2.01554">
        <ele>96.450256</ele>
        <time>2020-10-20T13:36:57.090Z</time>
      </trkpt>
      <trkpt lat="48.50302" lon="-2.01556">
        <ele>97.585999</ele>
        <time>2020-10-20T13:37:06.083Z</time>
      </trkpt>
      <trkpt lat="48.50267" lon="-2.01552">
        <ele>95.3302</ele>
        <time>2020-10-20T13:37:12.063Z</time>
      </trkpt>
      <trkpt lat="48.5024" lon="-2.01549">
        <ele>91.806824</ele>
        <time>2020-10-20T13:37:17.072Z</time>
      </trkpt>
      <trkpt lat="48.50217" lon="-2.01556">
        <ele>92.513855</ele>
        <time>2020-10-20T13:37:22.076Z</time>
      </trkpt>
      <trkpt lat="48.50209" lon="-2.01587">
        <ele>93.200684</ele>
        <time>2020-10-20T13:37:27.088Z</time>
      </trkpt>
      <trkpt lat="48.50201" lon="-2.0156">
        <ele>88.629761</ele>
        <time>2020-10-20T13:37:36.588Z</time>
      </trkpt>
      <trkpt lat="48.50202" lon="-2.01529">
        <ele>91.281189</ele>
        <time>2020-10-20T13:37:42.018Z</time>
      </trkpt>
      <trkpt lat="48.50201" lon="-2.01501">
        <ele>91.603699</ele>
        <time>2020-10-20T13:37:47.024Z</time>
      </trkpt>
      <trkpt lat="48.502" lon="-2.01472">
        <ele>93.311218</ele>
        <time>2020-10-20T13:37:52.155Z</time>
      </trkpt>
      <trkpt lat="48.50199" lon="-2.01439">
        <ele>91.6297</ele>
        <time>2020-10-20T13:37:57.531Z</time>
      </trkpt>
      <trkpt lat="48.50199" lon="-2.01411">
        <ele>91.517944</ele>
        <time>2020-10-20T13:38:02.589Z</time>
      </trkpt>
      <trkpt lat="48.50198" lon="-2.0138">
        <ele>91.240784</ele>
        <time>2020-10-20T13:38:08.082Z</time>
      </trkpt>
      <trkpt lat="48.50197" lon="-2.0135">
        <ele>91.509766</ele>
        <time>2020-10-20T13:38:13.379Z</time>
      </trkpt>
      <trkpt lat="48.50197" lon="-2.01319">
        <ele>90.692566</ele>
        <time>2020-10-20T13:38:19.014Z</time>
      </trkpt>
      <trkpt lat="48.50197" lon="-2.01291">
        <ele>90.115051</ele>
        <time>2020-10-20T13:38:24.077Z</time>
      </trkpt>
      <trkpt lat="48.50196" lon="-2.01261">
        <ele>90.412231</ele>
        <time>2020-10-20T13:38:29.288Z</time>
      </trkpt>
      <trkpt lat="48.50196" lon="-2.01227">
        <ele>90.420898</ele>
        <time>2020-10-20T13:38:35.082Z</time>
      </trkpt>
      <trkpt lat="48.50195" lon="-2.01184">
        <ele>91.704712</ele>
        <time>2020-10-20T13:38:42.083Z</time>
      </trkpt>
      <trkpt lat="48.50195" lon="-2.01139">
        <ele>90.905457</ele>
        <time>2020-10-20T13:38:50.470Z</time>
      </trkpt>
      <trkpt lat="48.50194" lon="-2.01114">
        <ele>90.633545</ele>
        <time>2020-10-20T13:38:55.895Z</time>
      </trkpt>
      <trkpt lat="48.50192" lon="-2.01085">
        <ele>89.828247</ele>
        <time>2020-10-20T13:39:00.902Z</time>
      </trkpt>
      <trkpt lat="48.50193" lon="-2.01053">
        <ele>89.927979</ele>
        <time>2020-10-20T13:39:05.958Z</time>
      </trkpt>
      <trkpt lat="48.50192" lon="-2.0102">
        <ele>89.119995</ele>
        <time>2020-10-20T13:39:10.965Z</time>
      </trkpt>
      <trkpt lat="48.50194" lon="-2.00982">
        <ele>88.431213</ele>
        <time>2020-10-20T13:39:16.073Z</time>
      </trkpt>
      <trkpt lat="48.50193" lon="-2.00947">
        <ele>87.698669</ele>
        <time>2020-10-20T13:39:21.080Z</time>
      </trkpt>
      <trkpt lat="48.50191" lon="-2.00897">
        <ele>86.601807</ele>
        <time>2020-10-20T13:39:27.074Z</time>
      </trkpt>
      <trkpt lat="48.50156" lon="-2.00825">
        <ele>89.319092</ele>
        <time>2020-10-20T13:39:36.077Z</time>
      </trkpt>
      <trkpt lat="48.50129" lon="-2.00762">
        <ele>80.112305</ele>
        <time>2020-10-20T13:39:42.072Z</time>
      </trkpt>
      <trkpt lat="48.50108" lon="-2.00713">
        <ele>75.399109</ele>
        <time>2020-10-20T13:39:47.079Z</time>
      </trkpt>
      <trkpt lat="48.50066" lon="-2.00673">
        <ele>75.074768</ele>
        <time>2020-10-20T13:39:56.093Z</time>
      </trkpt>
      <trkpt lat="48.50063" lon="-2.00649">
        <ele>74.980347</ele>
        <time>2020-10-20T13:40:02.087Z</time>
      </trkpt>
      <trkpt lat="48.50028" lon="-2.00637">
        <ele>68.901917</ele>
        <time>2020-10-20T13:40:12.071Z</time>
      </trkpt>
      <trkpt lat="48.49989" lon="-2.00636">
        <ele>67.185974</ele>
        <time>2020-10-20T13:40:22.061Z</time>
      </trkpt>
      <trkpt lat="48.49969" lon="-2.0063">
        <ele>70.936462</ele>
        <time>2020-10-20T13:40:27.073Z</time>
      </trkpt>
      <trkpt lat="48.49947" lon="-2.00624">
        <ele>75.755005</ele>
        <time>2020-10-20T13:40:33.607Z</time>
      </trkpt>
      <trkpt lat="48.49936" lon="-2.00615">
        <ele>76.061157</ele>
        <time>2020-10-20T13:40:38.952Z</time>
      </trkpt>
      <trkpt lat="48.49951" lon="-2.00604">
        <ele>78.134216</ele>
        <time>2020-10-20T13:40:44.083Z</time>
      </trkpt>
      <trkpt lat="48.49957" lon="-2.00567">
        <ele>79.994873</ele>
        <time>2020-10-20T13:40:52.070Z</time>
      </trkpt>
      <trkpt lat="48.49949" lon="-2.00533">
        <ele>79.177307</ele>
        <time>2020-10-20T13:40:59.077Z</time>
      </trkpt>
      <trkpt lat="48.49943" lon="-2.00508">
        <ele>80.919067</ele>
        <time>2020-10-20T13:41:05.082Z</time>
      </trkpt>
      <trkpt lat="48.49937" lon="-2.00479">
        <ele>81.611023</ele>
        <time>2020-10-20T13:41:12.072Z</time>
      </trkpt>
      <trkpt lat="48.49936" lon="-2.00457">
        <ele>82.803772</ele>
        <time>2020-10-20T13:41:17.078Z</time>
      </trkpt>
      <trkpt lat="48.49931" lon="-2.0042">
        <ele>83.416382</ele>
        <time>2020-10-20T13:41:25.093Z</time>
      </trkpt>
      <trkpt lat="48.49926" lon="-2.00391">
        <ele>84.773193</ele>
        <time>2020-10-20T13:41:32.074Z</time>
      </trkpt>
      <trkpt lat="48.49924" lon="-2.00356">
        <ele>86.417542</ele>
        <time>2020-10-20T13:41:40.075Z</time>
      </trkpt>
      <trkpt lat="48.49919" lon="-2.00334">
        <ele>86.897888</ele>
        <time>2020-10-20T13:41:45.100Z</time>
      </trkpt>
      <trkpt lat="48.49911" lon="-2.00297">
        <ele>87.586487</ele>
        <time>2020-10-20T13:41:52.070Z</time>
      </trkpt>
      <trkpt lat="48.49905" lon="-2.00273">
        <ele>87.441711</ele>
        <time>2020-10-20T13:41:57.090Z</time>
      </trkpt>
      <trkpt lat="48.49895" lon="-2.00235">
        <ele>87.887207</ele>
        <time>2020-10-20T13:42:05.069Z</time>
      </trkpt>
      <trkpt lat="48.4989" lon="-2.0021">
        <ele>87.84668</ele>
        <time>2020-10-20T13:42:10.080Z</time>
      </trkpt>
      <trkpt lat="48.49884" lon="-2.00183">
        <ele>87.501465</ele>
        <time>2020-10-20T13:42:15.091Z</time>
      </trkpt>
      <trkpt lat="48.49876" lon="-2.0015">
        <ele>87.53302</ele>
        <time>2020-10-20T13:42:22.073Z</time>
      </trkpt>
      <trkpt lat="48.49868" lon="-2.00127">
        <ele>87.285278</ele>
        <time>2020-10-20T13:42:27.089Z</time>
      </trkpt>
      <trkpt lat="48.49849" lon="-2.00094">
        <ele>87.865112</ele>
        <time>2020-10-20T13:42:35.089Z</time>
      </trkpt>
      <trkpt lat="48.49818" lon="-2.00112">
        <ele>88.254639</ele>
        <time>2020-10-20T13:42:42.073Z</time>
      </trkpt>
      <trkpt lat="48.49798" lon="-2.00128">
        <ele>88.713806</ele>
        <time>2020-10-20T13:42:47.078Z</time>
      </trkpt>
      <trkpt lat="48.49771" lon="-2.00153">
        <ele>87.445862</ele>
        <time>2020-10-20T13:42:55.091Z</time>
      </trkpt>
      <trkpt lat="48.49749" lon="-2.00174">
        <ele>87.393127</ele>
        <time>2020-10-20T13:43:00.282Z</time>
      </trkpt>
      <trkpt lat="48.49729" lon="-2.00193">
        <ele>88.364075</ele>
        <time>2020-10-20T13:43:06.092Z</time>
      </trkpt>
      <trkpt lat="48.49709" lon="-2.00214">
        <ele>88.6828</ele>
        <time>2020-10-20T13:43:12.057Z</time>
      </trkpt>
      <trkpt lat="48.49692" lon="-2.00233">
        <ele>88.09967</ele>
        <time>2020-10-20T13:43:17.064Z</time>
      </trkpt>
      <trkpt lat="48.49675" lon="-2.00251">
        <ele>90.156799</ele>
        <time>2020-10-20T13:43:22.076Z</time>
      </trkpt>
      <trkpt lat="48.49639" lon="-2.00284">
        <ele>89.813721</ele>
        <time>2020-10-20T13:43:32.072Z</time>
      </trkpt>
      <trkpt lat="48.49623" lon="-2.00301">
        <ele>91.204712</ele>
        <time>2020-10-20T13:43:37.079Z</time>
      </trkpt>
      <trkpt lat="48.49586" lon="-2.00336">
        <ele>94.671509</ele>
        <time>2020-10-20T13:43:48.086Z</time>
      </trkpt>
      <trkpt lat="48.49567" lon="-2.00355">
        <ele>96.35144</ele>
        <time>2020-10-20T13:43:53.618Z</time>
      </trkpt>
      <trkpt lat="48.4955" lon="-2.00372">
        <ele>94.988892</ele>
        <time>2020-10-20T13:43:59.002Z</time>
      </trkpt>
      <trkpt lat="48.49536" lon="-2.00383">
        <ele>97.237</ele>
        <time>2020-10-20T13:44:04.091Z</time>
      </trkpt>
      <trkpt lat="48.49518" lon="-2.00402">
        <ele>100.168945</ele>
        <time>2020-10-20T13:44:11.998Z</time>
      </trkpt>
      <trkpt lat="48.49517" lon="-2.00422">
        <ele>99.535828</ele>
        <time>2020-10-20T13:44:17.071Z</time>
      </trkpt>
      <trkpt lat="48.49518" lon="-2.0044">
        <ele>97.438354</ele>
        <time>2020-10-20T13:44:22.084Z</time>
      </trkpt>
      <trkpt lat="48.4952" lon="-2.00474">
        <ele>98.254395</ele>
        <time>2020-10-20T13:44:29.079Z</time>
      </trkpt>
      <trkpt lat="48.4952" lon="-2.00515">
        <ele>99.821106</ele>
        <time>2020-10-20T13:44:34.086Z</time>
      </trkpt>
      <trkpt lat="48.49523" lon="-2.00581">
        <ele>99.249573</ele>
        <time>2020-10-20T13:44:42.076Z</time>
      </trkpt>
      <trkpt lat="48.49503" lon="-2.00627">
        <ele>99.54126</ele>
        <time>2020-10-20T13:44:49.073Z</time>
      </trkpt>
      <trkpt lat="48.49487" lon="-2.00656">
        <ele>98.799995</ele>
        <time>2020-10-20T13:44:55.081Z</time>
      </trkpt>
      <trkpt lat="48.49453" lon="-2.00678">
        <ele>98.799995</ele>
        <time>2020-10-20T13:45:02.094Z</time>
      </trkpt>
      <trkpt lat="48.49429" lon="-2.00704">
        <ele>98.799995</ele>
        <time>2020-10-20T13:45:10.086Z</time>
      </trkpt>
      <trkpt lat="48.4942" lon="-2.00706">
        <ele>98.799995</ele>
        <time>2020-10-20T13:45:15.539Z</time>
      </trkpt>
      <trkpt lat="48.49401" lon="-2.00715">
        <ele>98.799995</ele>
        <time>2020-10-20T13:45:20.668Z</time>
      </trkpt>
      <trkpt lat="48.49387" lon="-2.00724">
        <ele>98.799995</ele>
        <time>2020-10-20T13:45:25.798Z</time>
      </trkpt>
      <trkpt lat="48.49377" lon="-2.0073">
        <ele>98.799995</ele>
        <time>2020-10-20T13:45:31.097Z</time>
      </trkpt>
      <trkpt lat="48.49365" lon="-2.00733">
        <ele>98.799995</ele>
        <time>2020-10-20T13:45:37.068Z</time>
      </trkpt>
      <trkpt lat="48.49354" lon="-2.00741">
        <ele>98.799995</ele>
        <time>2020-10-20T13:45:42.277Z</time>
      </trkpt>
      <trkpt lat="48.49334" lon="-2.00755">
        <ele>100.939209</ele>
        <time>2020-10-20T13:45:51.603Z</time>
      </trkpt>
      <trkpt lat="48.49322" lon="-2.0076">
        <ele>103.27002</ele>
        <time>2020-10-20T13:45:57.064Z</time>
      </trkpt>
      <trkpt lat="48.49309" lon="-2.00767">
        <ele>102.219666</ele>
        <time>2020-10-20T13:46:02.348Z</time>
      </trkpt>
      <trkpt lat="48.49296" lon="-2.00777">
        <ele>101.950684</ele>
        <time>2020-10-20T13:46:07.732Z</time>
      </trkpt>
      <trkpt lat="48.49281" lon="-2.00787">
        <ele>103.509277</ele>
        <time>2020-10-20T13:46:12.898Z</time>
      </trkpt>
      <trkpt lat="48.49268" lon="-2.00798">
        <ele>105.502075</ele>
        <time>2020-10-20T13:46:17.996Z</time>
      </trkpt>
      <trkpt lat="48.49256" lon="-2.00809">
        <ele>103.107544</ele>
        <time>2020-10-20T13:46:23.013Z</time>
      </trkpt>
      <trkpt lat="48.49244" lon="-2.00822">
        <ele>100.363098</ele>
        <time>2020-10-20T13:46:28.454Z</time>
      </trkpt>
      <trkpt lat="48.4923" lon="-2.00837">
        <ele>102.891479</ele>
        <time>2020-10-20T13:46:34.078Z</time>
      </trkpt>
      <trkpt lat="48.49216" lon="-2.00848">
        <ele>103.599915</ele>
        <time>2020-10-20T13:46:39.567Z</time>
      </trkpt>
      <trkpt lat="48.49204" lon="-2.00861">
        <ele>103.415222</ele>
        <time>2020-10-20T13:46:44.607Z</time>
      </trkpt>
      <trkpt lat="48.49191" lon="-2.00872">
        <ele>103.720581</ele>
        <time>2020-10-20T13:46:49.929Z</time>
      </trkpt>
      <trkpt lat="48.49174" lon="-2.00887">
        <ele>102.281128</ele>
        <time>2020-10-20T13:46:55.078Z</time>
      </trkpt>
      <trkpt lat="48.49166" lon="-2.00902">
        <ele>101.825012</ele>
        <time>2020-10-20T13:47:00.727Z</time>
      </trkpt>
      <trkpt lat="48.49171" lon="-2.00923">
        <ele>104.794739</ele>
        <time>2020-10-20T13:47:05.932Z</time>
      </trkpt>
      <trkpt lat="48.4918" lon="-2.00948">
        <ele>104.694397</ele>
        <time>2020-10-20T13:47:11.206Z</time>
      </trkpt>
      <trkpt lat="48.49191" lon="-2.00976">
        <ele>108.701233</ele>
        <time>2020-10-20T13:47:16.461Z</time>
      </trkpt>
      <trkpt lat="48.49204" lon="-2.01012">
        <ele>110.901978</ele>
        <time>2020-10-20T13:47:22.074Z</time>
      </trkpt>
      <trkpt lat="48.49204" lon="-2.01046">
        <ele>107.555237</ele>
        <time>2020-10-20T13:47:27.816Z</time>
      </trkpt>
      <trkpt lat="48.49205" lon="-2.01079">
        <ele>111.002441</ele>
        <time>2020-10-20T13:47:33.071Z</time>
      </trkpt>
      <trkpt lat="48.49207" lon="-2.01139">
        <ele>106.134521</ele>
        <time>2020-10-20T13:47:42.083Z</time>
      </trkpt>
      <trkpt lat="48.4921" lon="-2.01166">
        <ele>104.15448</ele>
        <time>2020-10-20T13:47:47.107Z</time>
      </trkpt>
      <trkpt lat="48.49218" lon="-2.01219">
        <ele>103.145752</ele>
        <time>2020-10-20T13:47:54.071Z</time>
      </trkpt>
      <trkpt lat="48.49221" lon="-2.01258">
        <ele>110.785706</ele>
        <time>2020-10-20T13:47:59.079Z</time>
      </trkpt>
      <trkpt lat="48.49203" lon="-2.01266">
        <ele>111.593201</ele>
        <time>2020-10-20T13:48:04.084Z</time>
      </trkpt>
      <trkpt lat="48.49167" lon="-2.01268">
        <ele>108.971191</ele>
        <time>2020-10-20T13:48:12.073Z</time>
      </trkpt>
      <trkpt lat="48.49143" lon="-2.01268">
        <ele>107.006531</ele>
        <time>2020-10-20T13:48:17.083Z</time>
      </trkpt>
      <trkpt lat="48.49112" lon="-2.01277">
        <ele>109.312988</ele>
        <time>2020-10-20T13:48:24.660Z</time>
      </trkpt>
      <trkpt lat="48.49089" lon="-2.01285">
        <ele>110.187378</ele>
        <time>2020-10-20T13:48:30.085Z</time>
      </trkpt>
      <trkpt lat="48.49071" lon="-2.01294">
        <ele>107.845215</ele>
        <time>2020-10-20T13:48:35.088Z</time>
      </trkpt>
      <trkpt lat="48.49052" lon="-2.013">
        <ele>109.326538</ele>
        <time>2020-10-20T13:48:40.504Z</time>
      </trkpt>
      <trkpt lat="48.49036" lon="-2.01306">
        <ele>111.768188</ele>
        <time>2020-10-20T13:48:45.587Z</time>
      </trkpt>
      <trkpt lat="48.49019" lon="-2.01311">
        <ele>111.354187</ele>
        <time>2020-10-20T13:48:50.866Z</time>
      </trkpt>
      <trkpt lat="48.49001" lon="-2.01315">
        <ele>110.808044</ele>
        <time>2020-10-20T13:48:56.506Z</time>
      </trkpt>
      <trkpt lat="48.48981" lon="-2.01323">
        <ele>106.00061</ele>
        <time>2020-10-20T13:49:01.947Z</time>
      </trkpt>
      <trkpt lat="48.48962" lon="-2.0133">
        <ele>105.143311</ele>
        <time>2020-10-20T13:49:07.070Z</time>
      </trkpt>
      <trkpt lat="48.48942" lon="-2.01336">
        <ele>110.74408</ele>
        <time>2020-10-20T13:49:12.086Z</time>
      </trkpt>
      <trkpt lat="48.48919" lon="-2.01335">
        <ele>108.047119</ele>
        <time>2020-10-20T13:49:18.052Z</time>
      </trkpt>
      <trkpt lat="48.48904" lon="-2.01321">
        <ele>110.680237</ele>
        <time>2020-10-20T13:49:23.090Z</time>
      </trkpt>
      <trkpt lat="48.48868" lon="-2.0131">
        <ele>109.538208</ele>
        <time>2020-10-20T13:49:32.071Z</time>
      </trkpt>
      <trkpt lat="48.48839" lon="-2.01316">
        <ele>109.251709</ele>
        <time>2020-10-20T13:49:37.075Z</time>
      </trkpt>
      <trkpt lat="48.48805" lon="-2.01329">
        <ele>105.117981</ele>
        <time>2020-10-20T13:49:43.070Z</time>
      </trkpt>
      <trkpt lat="48.48777" lon="-2.0134">
        <ele>105.44519</ele>
        <time>2020-10-20T13:49:48.078Z</time>
      </trkpt>
      <trkpt lat="48.48742" lon="-2.01353">
        <ele>107.144409</ele>
        <time>2020-10-20T13:49:53.088Z</time>
      </trkpt>
      <trkpt lat="48.48691" lon="-2.0136">
        <ele>112.214478</ele>
        <time>2020-10-20T13:50:02.067Z</time>
      </trkpt>
      <trkpt lat="48.48657" lon="-2.01356">
        <ele>105.000488</ele>
        <time>2020-10-20T13:50:08.065Z</time>
      </trkpt>
      <trkpt lat="48.48629" lon="-2.01365">
        <ele>99.035889</ele>
        <time>2020-10-20T13:50:13.087Z</time>
      </trkpt>
      <trkpt lat="48.48583" lon="-2.01387">
        <ele>95.905579</ele>
        <time>2020-10-20T13:50:22.061Z</time>
      </trkpt>
      <trkpt lat="48.48566" lon="-2.01411">
        <ele>96.720337</ele>
        <time>2020-10-20T13:50:27.067Z</time>
      </trkpt>
      <trkpt lat="48.4854" lon="-2.01427">
        <ele>97.851074</ele>
        <time>2020-10-20T13:50:32.079Z</time>
      </trkpt>
      <trkpt lat="48.48518" lon="-2.01436">
        <ele>96.809021</ele>
        <time>2020-10-20T13:50:37.434Z</time>
      </trkpt>
      <trkpt lat="48.48501" lon="-2.01445">
        <ele>97.899048</ele>
        <time>2020-10-20T13:50:43.491Z</time>
      </trkpt>
      <trkpt lat="48.48485" lon="-2.01451">
        <ele>99.719055</ele>
        <time>2020-10-20T13:50:48.973Z</time>
      </trkpt>
      <trkpt lat="48.48467" lon="-2.01457">
        <ele>99.381226</ele>
        <time>2020-10-20T13:50:54.078Z</time>
      </trkpt>
      <trkpt lat="48.48442" lon="-2.01448">
        <ele>99.657776</ele>
        <time>2020-10-20T13:51:02.488Z</time>
      </trkpt>
      <trkpt lat="48.48438" lon="-2.01417">
        <ele>98.182678</ele>
        <time>2020-10-20T13:51:09.876Z</time>
      </trkpt>
      <trkpt lat="48.48428" lon="-2.01423">
        <ele>98.483398</ele>
        <time>2020-10-20T13:51:15.095Z</time>
      </trkpt>
      <trkpt lat="48.48413" lon="-2.01438">
        <ele>98.313049</ele>
        <time>2020-10-20T13:51:20.106Z</time>
      </trkpt>
      <trkpt lat="48.48389" lon="-2.0146">
        <ele>97.947693</ele>
        <time>2020-10-20T13:51:28.081Z</time>
      </trkpt>
      <trkpt lat="48.48372" lon="-2.01476">
        <ele>96.911621</ele>
        <time>2020-10-20T13:51:33.084Z</time>
      </trkpt>
      <trkpt lat="48.48346" lon="-2.01499">
        <ele>99.151794</ele>
        <time>2020-10-20T13:51:40.068Z</time>
      </trkpt>
      <trkpt lat="48.48327" lon="-2.01513">
        <ele>99.133728</ele>
        <time>2020-10-20T13:51:45.081Z</time>
      </trkpt>
      <trkpt lat="48.48321" lon="-2.01549">
        <ele>97.20813</ele>
        <time>2020-10-20T13:51:52.082Z</time>
      </trkpt>
      <trkpt lat="48.48348" lon="-2.01609">
        <ele>96.110779</ele>
        <time>2020-10-20T13:52:01.096Z</time>
      </trkpt>
      <trkpt lat="48.48366" lon="-2.01661">
        <ele>94.842529</ele>
        <time>2020-10-20T13:52:07.070Z</time>
      </trkpt>
      <trkpt lat="48.48371" lon="-2.01733">
        <ele>90.621094</ele>
        <time>2020-10-20T13:52:16.079Z</time>
      </trkpt>
      <trkpt lat="48.48376" lon="-2.01772">
        <ele>93.43512</ele>
        <time>2020-10-20T13:52:21.083Z</time>
      </trkpt>
      <trkpt lat="48.48382" lon="-2.01809">
        <ele>96.015625</ele>
        <time>2020-10-20T13:52:26.087Z</time>
      </trkpt>
      <trkpt lat="48.48388" lon="-2.01845">
        <ele>95.361206</ele>
        <time>2020-10-20T13:52:32.077Z</time>
      </trkpt>
      <trkpt lat="48.48399" lon="-2.01872">
        <ele>97.25946</ele>
        <time>2020-10-20T13:52:37.085Z</time>
      </trkpt>
      <trkpt lat="48.48409" lon="-2.01917">
        <ele>99.315674</ele>
        <time>2020-10-20T13:52:46.061Z</time>
      </trkpt>
      <trkpt lat="48.48416" lon="-2.0194">
        <ele>100.235901</ele>
        <time>2020-10-20T13:52:51.069Z</time>
      </trkpt>
      <trkpt lat="48.48424" lon="-2.01962">
        <ele>103.841553</ele>
        <time>2020-10-20T13:52:56.150Z</time>
      </trkpt>
      <trkpt lat="48.4843" lon="-2.01985">
        <ele>104.692078</ele>
        <time>2020-10-20T13:53:01.188Z</time>
      </trkpt>
      <trkpt lat="48.48433" lon="-2.02001">
        <ele>107.435608</ele>
        <time>2020-10-20T13:53:06.648Z</time>
      </trkpt>
      <trkpt lat="48.48436" lon="-2.0202">
        <ele>106.559875</ele>
        <time>2020-10-20T13:53:12.080Z</time>
      </trkpt>
      <trkpt lat="48.48437" lon="-2.02039">
        <ele>111.25769</ele>
        <time>2020-10-20T13:53:17.675Z</time>
      </trkpt>
      <trkpt lat="48.48439" lon="-2.02054">
        <ele>111.637451</ele>
        <time>2020-10-20T13:53:22.731Z</time>
      </trkpt>
      <trkpt lat="48.48441" lon="-2.0207">
        <ele>113.310669</ele>
        <time>2020-10-20T13:53:27.990Z</time>
      </trkpt>
      <trkpt lat="48.48442" lon="-2.02081">
        <ele>112.852356</ele>
        <time>2020-10-20T13:53:33.073Z</time>
      </trkpt>
      <trkpt lat="48.48444" lon="-2.02095">
        <ele>113.295349</ele>
        <time>2020-10-20T13:53:38.074Z</time>
      </trkpt>
      <trkpt lat="48.48447" lon="-2.02109">
        <ele>111.449341</ele>
        <time>2020-10-20T13:53:43.078Z</time>
      </trkpt>
      <trkpt lat="48.48449" lon="-2.02135">
        <ele>113.835571</ele>
        <time>2020-10-20T13:53:48.246Z</time>
      </trkpt>
      <trkpt lat="48.48445" lon="-2.02164">
        <ele>113.698975</ele>
        <time>2020-10-20T13:53:53.879Z</time>
      </trkpt>
      <trkpt lat="48.48439" lon="-2.02198">
        <ele>112.962036</ele>
        <time>2020-10-20T13:53:59.085Z</time>
      </trkpt>
      <trkpt lat="48.48432" lon="-2.02231">
        <ele>113.188599</ele>
        <time>2020-10-20T13:54:04.998Z</time>
      </trkpt>
      <trkpt lat="48.48425" lon="-2.02266">
        <ele>113.937012</ele>
        <time>2020-10-20T13:54:10.078Z</time>
      </trkpt>
      <trkpt lat="48.4842" lon="-2.02291">
        <ele>114.869507</ele>
        <time>2020-10-20T13:54:15.542Z</time>
      </trkpt>
      <trkpt lat="48.48414" lon="-2.02321">
        <ele>112.738342</ele>
        <time>2020-10-20T13:54:20.547Z</time>
      </trkpt>
      <trkpt lat="48.48406" lon="-2.0235">
        <ele>111.115112</ele>
        <time>2020-10-20T13:54:25.971Z</time>
      </trkpt>
      <trkpt lat="48.48399" lon="-2.02367">
        <ele>112.306824</ele>
        <time>2020-10-20T13:54:31.072Z</time>
      </trkpt>
      <trkpt lat="48.48391" lon="-2.02387">
        <ele>113.769287</ele>
        <time>2020-10-20T13:54:36.076Z</time>
      </trkpt>
      <trkpt lat="48.48382" lon="-2.02408">
        <ele>115.510742</ele>
        <time>2020-10-20T13:54:42.257Z</time>
      </trkpt>
      <trkpt lat="48.48373" lon="-2.02431">
        <ele>118.623474</ele>
        <time>2020-10-20T13:54:47.908Z</time>
      </trkpt>
      <trkpt lat="48.48358" lon="-2.02471">
        <ele>115.763672</ele>
        <time>2020-10-20T13:54:56.729Z</time>
      </trkpt>
      <trkpt lat="48.48348" lon="-2.02499">
        <ele>117.435791</ele>
        <time>2020-10-20T13:55:02.076Z</time>
      </trkpt>
      <trkpt lat="48.48339" lon="-2.02529">
        <ele>118.067444</ele>
        <time>2020-10-20T13:55:08.025Z</time>
      </trkpt>
      <trkpt lat="48.48333" lon="-2.02552">
        <ele>118.373535</ele>
        <time>2020-10-20T13:55:13.042Z</time>
      </trkpt>
      <trkpt lat="48.48327" lon="-2.02575">
        <ele>117.869141</ele>
        <time>2020-10-20T13:55:18.447Z</time>
      </trkpt>
      <trkpt lat="48.48321" lon="-2.02601">
        <ele>119.578247</ele>
        <time>2020-10-20T13:55:23.508Z</time>
      </trkpt>
      <trkpt lat="48.48315" lon="-2.02624">
        <ele>120.839844</ele>
        <time>2020-10-20T13:55:29.093Z</time>
      </trkpt>
      <trkpt lat="48.48313" lon="-2.02646">
        <ele>122.622742</ele>
        <time>2020-10-20T13:55:34.096Z</time>
      </trkpt>
      <trkpt lat="48.48314" lon="-2.02674">
        <ele>123.166016</ele>
        <time>2020-10-20T13:55:40.029Z</time>
      </trkpt>
      <trkpt lat="48.48316" lon="-2.02705">
        <ele>122.126221</ele>
        <time>2020-10-20T13:55:45.693Z</time>
      </trkpt>
      <trkpt lat="48.48323" lon="-2.02732">
        <ele>122.796448</ele>
        <time>2020-10-20T13:55:50.699Z</time>
      </trkpt>
      <trkpt lat="48.48333" lon="-2.02763">
        <ele>122.548584</ele>
        <time>2020-10-20T13:55:56.099Z</time>
      </trkpt>
      <trkpt lat="48.48344" lon="-2.02803">
        <ele>121.483704</ele>
        <time>2020-10-20T13:56:03.088Z</time>
      </trkpt>
      <trkpt lat="48.48358" lon="-2.02858">
        <ele>121.216553</ele>
        <time>2020-10-20T13:56:11.076Z</time>
      </trkpt>
      <trkpt lat="48.48351" lon="-2.02884">
        <ele>121.432251</ele>
        <time>2020-10-20T13:56:17.070Z</time>
      </trkpt>
      <trkpt lat="48.48329" lon="-2.02888">
        <ele>121.101868</ele>
        <time>2020-10-20T13:56:22.076Z</time>
      </trkpt>
      <trkpt lat="48.483" lon="-2.02893">
        <ele>120.580444</ele>
        <time>2020-10-20T13:56:28.097Z</time>
      </trkpt>
      <trkpt lat="48.48253" lon="-2.02902">
        <ele>120.207336</ele>
        <time>2020-10-20T13:56:37.068Z</time>
      </trkpt>
      <trkpt lat="48.48222" lon="-2.02908">
        <ele>120.646179</ele>
        <time>2020-10-20T13:56:42.075Z</time>
      </trkpt>
      <trkpt lat="48.4818" lon="-2.02917">
        <ele>119.015625</ele>
        <time>2020-10-20T13:56:48.091Z</time>
      </trkpt>
      <trkpt lat="48.4811" lon="-2.02934">
        <ele>116.486877</ele>
        <time>2020-10-20T13:56:57.087Z</time>
      </trkpt>
      <trkpt lat="48.48064" lon="-2.02946">
        <ele>115.274719</ele>
        <time>2020-10-20T13:57:03.093Z</time>
      </trkpt>
      <trkpt lat="48.48004" lon="-2.02958">
        <ele>115.323059</ele>
        <time>2020-10-20T13:57:12.073Z</time>
      </trkpt>
      <trkpt lat="48.47972" lon="-2.02967">
        <ele>114.326172</ele>
        <time>2020-10-20T13:57:18.100Z</time>
      </trkpt>
      <trkpt lat="48.47924" lon="-2.02991">
        <ele>115.675354</ele>
        <time>2020-10-20T13:57:27.067Z</time>
      </trkpt>
      <trkpt lat="48.47899" lon="-2.03007">
        <ele>113.48584</ele>
        <time>2020-10-20T13:57:32.067Z</time>
      </trkpt>
      <trkpt lat="48.47875" lon="-2.03021">
        <ele>112.923767</ele>
        <time>2020-10-20T13:57:37.079Z</time>
      </trkpt>
      <trkpt lat="48.47845" lon="-2.03037">
        <ele>113.873291</ele>
        <time>2020-10-20T13:57:43.076Z</time>
      </trkpt>
      <trkpt lat="48.47822" lon="-2.03045">
        <ele>115.640198</ele>
        <time>2020-10-20T13:57:48.076Z</time>
      </trkpt>
      <trkpt lat="48.47801" lon="-2.03046">
        <ele>116.138245</ele>
        <time>2020-10-20T13:57:53.076Z</time>
      </trkpt>
      <trkpt lat="48.47782" lon="-2.03048">
        <ele>115.889038</ele>
        <time>2020-10-20T13:57:58.090Z</time>
      </trkpt>
      <trkpt lat="48.47754" lon="-2.03053">
        <ele>115.077942</ele>
        <time>2020-10-20T13:58:07.083Z</time>
      </trkpt>
      <trkpt lat="48.4773" lon="-2.03051">
        <ele>115.264282</ele>
        <time>2020-10-20T13:58:14.075Z</time>
      </trkpt>
      <trkpt lat="48.47705" lon="-2.03055">
        <ele>116.042969</ele>
        <time>2020-10-20T13:58:19.091Z</time>
      </trkpt>
      <trkpt lat="48.47682" lon="-2.03061">
        <ele>115.807312</ele>
        <time>2020-10-20T13:58:24.097Z</time>
      </trkpt>
      <trkpt lat="48.47644" lon="-2.03074">
        <ele>115.855652</ele>
        <time>2020-10-20T13:58:32.072Z</time>
      </trkpt>
      <trkpt lat="48.47619" lon="-2.03086">
        <ele>115.240417</ele>
        <time>2020-10-20T13:58:37.078Z</time>
      </trkpt>
      <trkpt lat="48.47582" lon="-2.03102">
        <ele>114.841492</ele>
        <time>2020-10-20T13:58:44.074Z</time>
      </trkpt>
      <trkpt lat="48.47558" lon="-2.03114">
        <ele>116.146118</ele>
        <time>2020-10-20T13:58:49.076Z</time>
      </trkpt>
      <trkpt lat="48.4752" lon="-2.03137">
        <ele>116.997437</ele>
        <time>2020-10-20T13:58:57.073Z</time>
      </trkpt>
      <trkpt lat="48.475" lon="-2.03152">
        <ele>117.045776</ele>
        <time>2020-10-20T13:59:02.096Z</time>
      </trkpt>
      <trkpt lat="48.47469" lon="-2.03173">
        <ele>116.778259</ele>
        <time>2020-10-20T13:59:09.069Z</time>
      </trkpt>
      <trkpt lat="48.47448" lon="-2.03195">
        <ele>118.51355</ele>
        <time>2020-10-20T13:59:14.080Z</time>
      </trkpt>
      <trkpt lat="48.47426" lon="-2.03209">
        <ele>120.659912</ele>
        <time>2020-10-20T13:59:19.083Z</time>
      </trkpt>
      <trkpt lat="48.47387" lon="-2.0322">
        <ele>119.395813</ele>
        <time>2020-10-20T13:59:27.069Z</time>
      </trkpt>
      <trkpt lat="48.47362" lon="-2.03221">
        <ele>118.196228</ele>
        <time>2020-10-20T13:59:32.082Z</time>
      </trkpt>
      <trkpt lat="48.47335" lon="-2.03215">
        <ele>118.963867</ele>
        <time>2020-10-20T13:59:39.091Z</time>
      </trkpt>
      <trkpt lat="48.47319" lon="-2.03216">
        <ele>117.878845</ele>
        <time>2020-10-20T13:59:44.679Z</time>
      </trkpt>
      <trkpt lat="48.473" lon="-2.03209">
        <ele>114.996582</ele>
        <time>2020-10-20T13:59:49.690Z</time>
      </trkpt>
      <trkpt lat="48.47284" lon="-2.03203">
        <ele>114.228455</ele>
        <time>2020-10-20T13:59:54.753Z</time>
      </trkpt>
      <trkpt lat="48.47269" lon="-2.03196">
        <ele>116.126831</ele>
        <time>2020-10-20T14:00:00.062Z</time>
      </trkpt>
      <trkpt lat="48.47254" lon="-2.03183">
        <ele>115.904297</ele>
        <time>2020-10-20T14:00:05.080Z</time>
      </trkpt>
      <trkpt lat="48.47237" lon="-2.03166">
        <ele>116.232178</ele>
        <time>2020-10-20T14:00:10.330Z</time>
      </trkpt>
      <trkpt lat="48.47216" lon="-2.03144">
        <ele>114.753906</ele>
        <time>2020-10-20T14:00:16.088Z</time>
      </trkpt>
      <trkpt lat="48.47198" lon="-2.03128">
        <ele>114.759705</ele>
        <time>2020-10-20T14:00:21.088Z</time>
      </trkpt>
      <trkpt lat="48.47175" lon="-2.03102">
        <ele>114.976685</ele>
        <time>2020-10-20T14:00:27.071Z</time>
      </trkpt>
      <trkpt lat="48.47156" lon="-2.03083">
        <ele>113.183167</ele>
        <time>2020-10-20T14:00:32.091Z</time>
      </trkpt>
      <trkpt lat="48.47135" lon="-2.03073">
        <ele>113.98468</ele>
        <time>2020-10-20T14:00:37.420Z</time>
      </trkpt>
      <trkpt lat="48.47116" lon="-2.03067">
        <ele>113.265076</ele>
        <time>2020-10-20T14:00:42.538Z</time>
      </trkpt>
      <trkpt lat="48.47074" lon="-2.03067">
        <ele>115.383545</ele>
        <time>2020-10-20T14:00:51.876Z</time>
      </trkpt>
      <trkpt lat="48.4705" lon="-2.03077">
        <ele>114.646912</ele>
        <time>2020-10-20T14:00:57.506Z</time>
      </trkpt>
      <trkpt lat="48.4703" lon="-2.03083">
        <ele>115.041504</ele>
        <time>2020-10-20T14:01:02.792Z</time>
      </trkpt>
      <trkpt lat="48.4701" lon="-2.03088">
        <ele>114.374878</ele>
        <time>2020-10-20T14:01:08.093Z</time>
      </trkpt>
      <trkpt lat="48.46992" lon="-2.03093">
        <ele>114.264832</ele>
        <time>2020-10-20T14:01:13.299Z</time>
      </trkpt>
      <trkpt lat="48.46973" lon="-2.03099">
        <ele>113.746826</ele>
        <time>2020-10-20T14:01:18.648Z</time>
      </trkpt>
      <trkpt lat="48.46956" lon="-2.03106">
        <ele>117.715088</ele>
        <time>2020-10-20T14:01:23.781Z</time>
      </trkpt>
      <trkpt lat="48.4694" lon="-2.03116">
        <ele>117.328918</ele>
        <time>2020-10-20T14:01:29.721Z</time>
      </trkpt>
      <trkpt lat="48.46927" lon="-2.03125">
        <ele>119.176636</ele>
        <time>2020-10-20T14:01:35.078Z</time>
      </trkpt>
      <trkpt lat="48.46916" lon="-2.03131">
        <ele>113.422302</ele>
        <time>2020-10-20T14:01:40.090Z</time>
      </trkpt>
      <trkpt lat="48.46896" lon="-2.03135">
        <ele>120.557251</ele>
        <time>2020-10-20T14:01:47.551Z</time>
      </trkpt>
      <trkpt lat="48.46876" lon="-2.03133">
        <ele>119.832031</ele>
        <time>2020-10-20T14:01:55.453Z</time>
      </trkpt>
      <trkpt lat="48.46861" lon="-2.03131">
        <ele>113.554321</ele>
        <time>2020-10-20T14:02:00.694Z</time>
      </trkpt>
      <trkpt lat="48.46844" lon="-2.03129">
        <ele>116.350403</ele>
        <time>2020-10-20T14:02:05.933Z</time>
      </trkpt>
      <trkpt lat="48.46825" lon="-2.03123">
        <ele>119.464417</ele>
        <time>2020-10-20T14:02:11.258Z</time>
      </trkpt>
      <trkpt lat="48.468" lon="-2.03111">
        <ele>121.120361</ele>
        <time>2020-10-20T14:02:17.077Z</time>
      </trkpt>
      <trkpt lat="48.46779" lon="-2.03105">
        <ele>120.687378</ele>
        <time>2020-10-20T14:02:22.112Z</time>
      </trkpt>
      <trkpt lat="48.4673" lon="-2.03084">
        <ele>116.321533</ele>
        <time>2020-10-20T14:02:32.089Z</time>
      </trkpt>
      <trkpt lat="48.46664" lon="-2.03048">
        <ele>102.260742</ele>
        <time>2020-10-20T14:02:42.061Z</time>
      </trkpt>
      <trkpt lat="48.46628" lon="-2.03046">
        <ele>107.288025</ele>
        <time>2020-10-20T14:02:47.075Z</time>
      </trkpt>
      <trkpt lat="48.46592" lon="-2.03037">
        <ele>103.871033</ele>
        <time>2020-10-20T14:02:52.078Z</time>
      </trkpt>
      <trkpt lat="48.4653" lon="-2.03029">
        <ele>105.839966</ele>
        <time>2020-10-20T14:03:02.071Z</time>
      </trkpt>
      <trkpt lat="48.46495" lon="-2.03022">
        <ele>105.966003</ele>
        <time>2020-10-20T14:03:07.071Z</time>
      </trkpt>
      <trkpt lat="48.46462" lon="-2.03019">
        <ele>98.411072</ele>
        <time>2020-10-20T14:03:12.071Z</time>
      </trkpt>
      <trkpt lat="48.46432" lon="-2.03022">
        <ele>93.358826</ele>
        <time>2020-10-20T14:03:17.072Z</time>
      </trkpt>
      <trkpt lat="48.46402" lon="-2.03042">
        <ele>87.581421</ele>
        <time>2020-10-20T14:03:22.072Z</time>
      </trkpt>
      <trkpt lat="48.46341" lon="-2.03054">
        <ele>77.329407</ele>
        <time>2020-10-20T14:03:32.082Z</time>
      </trkpt>
      <trkpt lat="48.46278" lon="-2.03102">
        <ele>75.059509</ele>
        <time>2020-10-20T14:03:42.062Z</time>
      </trkpt>
      <trkpt lat="48.46243" lon="-2.03134">
        <ele>75.848816</ele>
        <time>2020-10-20T14:03:47.080Z</time>
      </trkpt>
      <trkpt lat="48.46211" lon="-2.03172">
        <ele>72.403687</ele>
        <time>2020-10-20T14:03:52.080Z</time>
      </trkpt>
      <trkpt lat="48.46186" lon="-2.032">
        <ele>68.708923</ele>
        <time>2020-10-20T14:03:57.103Z</time>
      </trkpt>
      <trkpt lat="48.46172" lon="-2.03248">
        <ele>65.036987</ele>
        <time>2020-10-20T14:04:07.091Z</time>
      </trkpt>
      <trkpt lat="48.46217" lon="-2.03244">
        <ele>59.497437</ele>
        <time>2020-10-20T14:04:17.063Z</time>
      </trkpt>
      <trkpt lat="48.46241" lon="-2.03251">
        <ele>58.195313</ele>
        <time>2020-10-20T14:04:22.070Z</time>
      </trkpt>
      <trkpt lat="48.46269" lon="-2.03237">
        <ele>58.536194</ele>
        <time>2020-10-20T14:04:27.098Z</time>
      </trkpt>
      <trkpt lat="48.46323" lon="-2.03247">
        <ele>67.061768</ele>
        <time>2020-10-20T14:04:37.068Z</time>
      </trkpt>
      <trkpt lat="48.4635" lon="-2.03266">
        <ele>61.073608</ele>
        <time>2020-10-20T14:04:42.072Z</time>
      </trkpt>
      <trkpt lat="48.46406" lon="-2.03313">
        <ele>54.888123</ele>
        <time>2020-10-20T14:04:52.063Z</time>
      </trkpt>
      <trkpt lat="48.46432" lon="-2.03335">
        <ele>70.380127</ele>
        <time>2020-10-20T14:04:57.077Z</time>
      </trkpt>
      <trkpt lat="48.46478" lon="-2.03386">
        <ele>56.883667</ele>
        <time>2020-10-20T14:05:07.069Z</time>
      </trkpt>
      <trkpt lat="48.4653" lon="-2.03378">
        <ele>60.82373</ele>
        <time>2020-10-20T14:05:17.085Z</time>
      </trkpt>
      <trkpt lat="48.46575" lon="-2.03373">
        <ele>60.766541</ele>
        <time>2020-10-20T14:05:27.063Z</time>
      </trkpt>
      <trkpt lat="48.46591" lon="-2.03376">
        <ele>64.29248</ele>
        <time>2020-10-20T14:05:32.069Z</time>
      </trkpt>
      <trkpt lat="48.46607" lon="-2.03378">
        <ele>61.047119</ele>
        <time>2020-10-20T14:05:37.079Z</time>
      </trkpt>
      <trkpt lat="48.46623" lon="-2.03379">
        <ele>64.277283</ele>
        <time>2020-10-20T14:05:42.079Z</time>
      </trkpt>
      <trkpt lat="48.4665" lon="-2.03382">
        <ele>68.109741</ele>
        <time>2020-10-20T14:05:52.076Z</time>
      </trkpt>
      <trkpt lat="48.46684" lon="-2.03385">
        <ele>65.32196</ele>
        <time>2020-10-20T14:06:02.065Z</time>
      </trkpt>
      <trkpt lat="48.467" lon="-2.03397">
        <ele>64.831787</ele>
        <time>2020-10-20T14:06:07.079Z</time>
      </trkpt>
      <trkpt lat="48.46717" lon="-2.03415">
        <ele>63.085083</ele>
        <time>2020-10-20T14:06:12.093Z</time>
      </trkpt>
      <trkpt lat="48.46751" lon="-2.03453">
        <ele>61.155579</ele>
        <time>2020-10-20T14:06:22.083Z</time>
      </trkpt>
      <trkpt lat="48.46773" lon="-2.03506">
        <ele>60.008667</ele>
        <time>2020-10-20T14:06:32.072Z</time>
      </trkpt>
      <trkpt lat="48.46777" lon="-2.0358">
        <ele>59.925781</ele>
        <time>2020-10-20T14:06:42.060Z</time>
      </trkpt>
      <trkpt lat="48.46758" lon="-2.03601">
        <ele>59.297791</ele>
        <time>2020-10-20T14:06:47.060Z</time>
      </trkpt>
      <trkpt lat="48.46739" lon="-2.0362">
        <ele>60.895081</ele>
        <time>2020-10-20T14:06:52.072Z</time>
      </trkpt>
      <trkpt lat="48.46734" lon="-2.03642">
        <ele>62.811523</ele>
        <time>2020-10-20T14:06:57.074Z</time>
      </trkpt>
      <trkpt lat="48.4673" lon="-2.03655">
        <ele>62.515076</ele>
        <time>2020-10-20T14:07:02.266Z</time>
      </trkpt>
      <trkpt lat="48.46728" lon="-2.03669">
        <ele>70.328308</ele>
        <time>2020-10-20T14:07:07.515Z</time>
      </trkpt>
      <trkpt lat="48.46724" lon="-2.03672">
        <ele>71.701843</ele>
        <time>2020-10-20T14:07:13.087Z</time>
      </trkpt>
      <trkpt lat="48.46723" lon="-2.03656">
        <ele>91.556519</ele>
        <time>2020-10-20T14:07:18.235Z</time>
      </trkpt>
      <trkpt lat="48.46731" lon="-2.03645">
        <ele>80.284363</ele>
        <time>2020-10-20T14:07:23.728Z</time>
      </trkpt>
      <trkpt lat="48.4673" lon="-2.03635">
        <ele>76.498352</ele>
        <time>2020-10-20T14:07:29.068Z</time>
      </trkpt>
      <trkpt lat="48.46727" lon="-2.03621">
        <ele>85.286133</ele>
        <time>2020-10-20T14:07:38.061Z</time>
      </trkpt>
      <trkpt lat="48.46723" lon="-2.03629">
        <ele>89.329224</ele>
        <time>2020-10-20T14:07:51.064Z</time>
      </trkpt>
      <trkpt lat="48.46718" lon="-2.03629">
        <ele>112.199997</ele>
        <time>2020-10-20T14:08:01.075Z</time>
      </trkpt>
      <trkpt lat="48.46718" lon="-2.03628">
        <ele>112.199997</ele>
        <time>2020-10-20T14:08:06.081Z</time>
      </trkpt>
      <trkpt lat="48.46716" lon="-2.03629">
        <ele>112.199997</ele>
        <time>2020-10-20T14:08:13.061Z</time>
      </trkpt>
      <trkpt lat="48.46715" lon="-2.03632">
        <ele>112.199997</ele>
        <time>2020-10-20T14:08:22.053Z</time>
      </trkpt>
      <trkpt lat="48.46713" lon="-2.03641">
        <ele>112.199997</ele>
        <time>2020-10-20T14:08:27.067Z</time>
      </trkpt>
      <trkpt lat="48.46712" lon="-2.0366">
        <ele>112.199997</ele>
        <time>2020-10-20T14:08:34.517Z</time>
      </trkpt>
      <trkpt lat="48.46707" lon="-2.03669">
        <ele>112.199997</ele>
        <time>2020-10-20T14:08:40.060Z</time>
      </trkpt>
      <trkpt lat="48.46702" lon="-2.03676">
        <ele>112.199997</ele>
        <time>2020-10-20T14:08:45.074Z</time>
      </trkpt>
      <trkpt lat="48.46698" lon="-2.03683">
        <ele>112.199997</ele>
        <time>2020-10-20T14:08:50.175Z</time>
      </trkpt>
      <trkpt lat="48.46698" lon="-2.03688">
        <ele>94.658203</ele>
        <time>2020-10-20T14:08:55.557Z</time>
      </trkpt>
      <trkpt lat="48.46691" lon="-2.0369">
        <ele>99.427185</ele>
        <time>2020-10-20T14:09:00.957Z</time>
      </trkpt>
      <trkpt lat="48.46693" lon="-2.03682">
        <ele>100.643066</ele>
        <time>2020-10-20T14:09:06.060Z</time>
      </trkpt>
      <trkpt lat="48.46698" lon="-2.03677">
        <ele>100.129578</ele>
        <time>2020-10-20T14:09:11.060Z</time>
      </trkpt>
      <trkpt lat="48.46697" lon="-2.0367">
        <ele>98.109314</ele>
        <time>2020-10-20T14:09:16.061Z</time>
      </trkpt>
      <trkpt lat="48.46697" lon="-2.03661">
        <ele>113.299995</ele>
        <time>2020-10-20T14:09:21.084Z</time>
      </trkpt>
      <trkpt lat="48.46699" lon="-2.03653">
        <ele>113.299995</ele>
        <time>2020-10-20T14:09:27.054Z</time>
      </trkpt>
      <trkpt lat="48.4669" lon="-2.03652">
        <ele>113.299995</ele>
        <time>2020-10-20T14:09:32.079Z</time>
      </trkpt>
      <trkpt lat="48.46686" lon="-2.03642">
        <ele>113.299995</ele>
        <time>2020-10-20T14:09:37.819Z</time>
      </trkpt>
      <trkpt lat="48.46687" lon="-2.03651">
        <ele>113.299995</ele>
        <time>2020-10-20T14:09:48.068Z</time>
      </trkpt>
      <trkpt lat="48.46678" lon="-2.03648">
        <ele>113.299995</ele>
        <time>2020-10-20T14:09:57.078Z</time>
      </trkpt>
      <trkpt lat="48.46676" lon="-2.0364">
        <ele>112.199997</ele>
        <time>2020-10-20T14:10:03.071Z</time>
      </trkpt>
      <trkpt lat="48.46672" lon="-2.0365">
        <ele>112.400002</ele>
        <time>2020-10-20T14:10:12.659Z</time>
      </trkpt>
      <trkpt lat="48.46663" lon="-2.03649">
        <ele>112.400002</ele>
        <time>2020-10-20T14:10:18.057Z</time>
      </trkpt>
      <trkpt lat="48.46656" lon="-2.03648">
        <ele>112.400002</ele>
        <time>2020-10-20T14:10:23.906Z</time>
      </trkpt>
      <trkpt lat="48.46649" lon="-2.03652">
        <ele>113.299995</ele>
        <time>2020-10-20T14:10:29.341Z</time>
      </trkpt>
      <trkpt lat="48.46644" lon="-2.03658">
        <ele>112.400002</ele>
        <time>2020-10-20T14:10:35.088Z</time>
      </trkpt>
      <trkpt lat="48.46636" lon="-2.03661">
        <ele>113.299995</ele>
        <time>2020-10-20T14:10:42.092Z</time>
      </trkpt>
      <trkpt lat="48.46627" lon="-2.0366">
        <ele>113.299995</ele>
        <time>2020-10-20T14:10:50.070Z</time>
      </trkpt>
      <trkpt lat="48.4662" lon="-2.03658">
        <ele>113.299995</ele>
        <time>2020-10-20T14:10:55.080Z</time>
      </trkpt>
      <trkpt lat="48.46612" lon="-2.03656">
        <ele>113.299995</ele>
        <time>2020-10-20T14:11:00.084Z</time>
      </trkpt>
      <trkpt lat="48.46604" lon="-2.03645">
        <ele>113.299995</ele>
        <time>2020-10-20T14:11:07.063Z</time>
      </trkpt>
      <trkpt lat="48.46596" lon="-2.03639">
        <ele>113.299995</ele>
        <time>2020-10-20T14:11:12.088Z</time>
      </trkpt>
      <trkpt lat="48.46582" lon="-2.03641">
        <ele>114.279053</ele>
        <time>2020-10-20T14:11:21.084Z</time>
      </trkpt>
      <trkpt lat="48.46579" lon="-2.03656">
        <ele>114.750305</ele>
        <time>2020-10-20T14:11:27.090Z</time>
      </trkpt>
      <trkpt lat="48.4657" lon="-2.03678">
        <ele>115.051147</ele>
        <time>2020-10-20T14:11:36.093Z</time>
      </trkpt>
      <trkpt lat="48.46563" lon="-2.03693">
        <ele>114.943298</ele>
        <time>2020-10-20T14:11:42.083Z</time>
      </trkpt>
      <trkpt lat="48.46557" lon="-2.03704">
        <ele>116.32074</ele>
        <time>2020-10-20T14:11:47.091Z</time>
      </trkpt>
      <trkpt lat="48.4654" lon="-2.03709">
        <ele>115.054993</ele>
        <time>2020-10-20T14:11:56.091Z</time>
      </trkpt>
      <trkpt lat="48.46528" lon="-2.03712">
        <ele>115.258789</ele>
        <time>2020-10-20T14:12:02.078Z</time>
      </trkpt>
      <trkpt lat="48.46521" lon="-2.03713">
        <ele>114.621277</ele>
        <time>2020-10-20T14:12:07.080Z</time>
      </trkpt>
      <trkpt lat="48.46503" lon="-2.03713">
        <ele>112.97937</ele>
        <time>2020-10-20T14:12:16.100Z</time>
      </trkpt>
      <trkpt lat="48.46489" lon="-2.03718">
        <ele>113.219849</ele>
        <time>2020-10-20T14:12:22.079Z</time>
      </trkpt>
      <trkpt lat="48.46479" lon="-2.03719">
        <ele>116.539368</ele>
        <time>2020-10-20T14:12:27.085Z</time>
      </trkpt>
      <trkpt lat="48.46468" lon="-2.03721">
        <ele>119.363647</ele>
        <time>2020-10-20T14:12:32.092Z</time>
      </trkpt>
      <trkpt lat="48.46448" lon="-2.0373">
        <ele>119.617981</ele>
        <time>2020-10-20T14:12:41.073Z</time>
      </trkpt>
      <trkpt lat="48.46438" lon="-2.03732">
        <ele>123.5</ele>
        <time>2020-10-20T14:12:46.083Z</time>
      </trkpt>
      <trkpt lat="48.46427" lon="-2.03744">
        <ele>123.5</ele>
        <time>2020-10-20T14:12:51.087Z</time>
      </trkpt>
      <trkpt lat="48.46412" lon="-2.03754">
        <ele>124.799995</ele>
        <time>2020-10-20T14:12:57.072Z</time>
      </trkpt>
      <trkpt lat="48.46384" lon="-2.03764">
        <ele>124.599998</ele>
        <time>2020-10-20T14:13:06.074Z</time>
      </trkpt>
      <trkpt lat="48.46363" lon="-2.03764">
        <ele>124.599998</ele>
        <time>2020-10-20T14:13:12.084Z</time>
      </trkpt>
      <trkpt lat="48.46335" lon="-2.03776">
        <ele>124.599998</ele>
        <time>2020-10-20T14:13:21.083Z</time>
      </trkpt>
      <trkpt lat="48.46316" lon="-2.03783">
        <ele>124.599998</ele>
        <time>2020-10-20T14:13:27.103Z</time>
      </trkpt>
      <trkpt lat="48.4628" lon="-2.03796">
        <ele>121.699997</ele>
        <time>2020-10-20T14:13:36.082Z</time>
      </trkpt>
      <trkpt lat="48.46259" lon="-2.03814">
        <ele>121.699997</ele>
        <time>2020-10-20T14:13:42.077Z</time>
      </trkpt>
      <trkpt lat="48.4624" lon="-2.03814">
        <ele>121.699997</ele>
        <time>2020-10-20T14:13:47.095Z</time>
      </trkpt>
      <trkpt lat="48.46225" lon="-2.03822">
        <ele>121.699997</ele>
        <time>2020-10-20T14:13:52.585Z</time>
      </trkpt>
      <trkpt lat="48.46203" lon="-2.03827">
        <ele>121.699997</ele>
        <time>2020-10-20T14:13:58.650Z</time>
      </trkpt>
      <trkpt lat="48.46181" lon="-2.03834">
        <ele>121.699997</ele>
        <time>2020-10-20T14:14:04.076Z</time>
      </trkpt>
      <trkpt lat="48.46161" lon="-2.03842">
        <ele>122.548889</ele>
        <time>2020-10-20T14:14:09.080Z</time>
      </trkpt>
      <trkpt lat="48.46131" lon="-2.03859">
        <ele>123.860535</ele>
        <time>2020-10-20T14:14:17.084Z</time>
      </trkpt>
      <trkpt lat="48.461" lon="-2.03871">
        <ele>119.197021</ele>
        <time>2020-10-20T14:14:24.472Z</time>
      </trkpt>
      <trkpt lat="48.46084" lon="-2.03885">
        <ele>118.156311</ele>
        <time>2020-10-20T14:14:29.495Z</time>
      </trkpt>
      <trkpt lat="48.46062" lon="-2.03896">
        <ele>117.12561</ele>
        <time>2020-10-20T14:14:34.715Z</time>
      </trkpt>
      <trkpt lat="48.46041" lon="-2.03919">
        <ele>119.8302</ele>
        <time>2020-10-20T14:14:40.095Z</time>
      </trkpt>
      <trkpt lat="48.46014" lon="-2.03951">
        <ele>119.747192</ele>
        <time>2020-10-20T14:14:47.088Z</time>
      </trkpt>
      <trkpt lat="48.45984" lon="-2.03987">
        <ele>120.521729</ele>
        <time>2020-10-20T14:14:55.082Z</time>
      </trkpt>
      <trkpt lat="48.45968" lon="-2.04013">
        <ele>120.835754</ele>
        <time>2020-10-20T14:15:00.084Z</time>
      </trkpt>
      <trkpt lat="48.45951" lon="-2.04038">
        <ele>121.260559</ele>
        <time>2020-10-20T14:15:05.088Z</time>
      </trkpt>
      <trkpt lat="48.45934" lon="-2.04056">
        <ele>120.45752</ele>
        <time>2020-10-20T14:15:10.389Z</time>
      </trkpt>
      <trkpt lat="48.4592" lon="-2.0409">
        <ele>118.444214</ele>
        <time>2020-10-20T14:15:16.092Z</time>
      </trkpt>
      <trkpt lat="48.45919" lon="-2.04125">
        <ele>117.729309</ele>
        <time>2020-10-20T14:15:21.101Z</time>
      </trkpt>
      <trkpt lat="48.4592" lon="-2.04167">
        <ele>117.441711</ele>
        <time>2020-10-20T14:15:27.048Z</time>
      </trkpt>
      <trkpt lat="48.4592" lon="-2.042">
        <ele>120.153931</ele>
        <time>2020-10-20T14:15:32.064Z</time>
      </trkpt>
      <trkpt lat="48.45917" lon="-2.04219">
        <ele>120.976624</ele>
        <time>2020-10-20T14:15:37.072Z</time>
      </trkpt>
      <trkpt lat="48.45907" lon="-2.04245">
        <ele>116.871338</ele>
        <time>2020-10-20T14:15:46.942Z</time>
      </trkpt>
      <trkpt lat="48.45908" lon="-2.04268">
        <ele>117.606873</ele>
        <time>2020-10-20T14:15:52.193Z</time>
      </trkpt>
      <trkpt lat="48.45907" lon="-2.04291">
        <ele>117.071899</ele>
        <time>2020-10-20T14:15:57.686Z</time>
      </trkpt>
      <trkpt lat="48.45909" lon="-2.04314">
        <ele>120.902954</ele>
        <time>2020-10-20T14:16:03.086Z</time>
      </trkpt>
      <trkpt lat="48.45907" lon="-2.04336">
        <ele>122.255493</ele>
        <time>2020-10-20T14:16:08.089Z</time>
      </trkpt>
      <trkpt lat="48.45893" lon="-2.04369">
        <ele>121.817993</ele>
        <time>2020-10-20T14:16:17.072Z</time>
      </trkpt>
      <trkpt lat="48.45882" lon="-2.04394">
        <ele>118.532349</ele>
        <time>2020-10-20T14:16:24.094Z</time>
      </trkpt>
      <trkpt lat="48.45869" lon="-2.04423">
        <ele>117.42334</ele>
        <time>2020-10-20T14:16:32.071Z</time>
      </trkpt>
      <trkpt lat="48.45861" lon="-2.04439">
        <ele>119.685425</ele>
        <time>2020-10-20T14:16:37.081Z</time>
      </trkpt>
      <trkpt lat="48.45852" lon="-2.04449">
        <ele>122.177063</ele>
        <time>2020-10-20T14:16:42.088Z</time>
      </trkpt>
      <trkpt lat="48.4583" lon="-2.04449">
        <ele>123.367493</ele>
        <time>2020-10-20T14:16:50.085Z</time>
      </trkpt>
      <trkpt lat="48.45812" lon="-2.04457">
        <ele>124.333862</ele>
        <time>2020-10-20T14:16:55.815Z</time>
      </trkpt>
      <trkpt lat="48.45814" lon="-2.04472">
        <ele>124.83844</ele>
        <time>2020-10-20T14:17:01.079Z</time>
      </trkpt>
      <trkpt lat="48.45826" lon="-2.0451">
        <ele>123.675659</ele>
        <time>2020-10-20T14:17:07.066Z</time>
      </trkpt>
      <trkpt lat="48.45827" lon="-2.04547">
        <ele>123.217102</ele>
        <time>2020-10-20T14:17:12.090Z</time>
      </trkpt>
      <trkpt lat="48.4583" lon="-2.0462">
        <ele>121.405396</ele>
        <time>2020-10-20T14:17:21.078Z</time>
      </trkpt>
      <trkpt lat="48.45833" lon="-2.0466">
        <ele>123.726501</ele>
        <time>2020-10-20T14:17:26.086Z</time>
      </trkpt>
      <trkpt lat="48.45833" lon="-2.04706">
        <ele>124.607971</ele>
        <time>2020-10-20T14:17:32.086Z</time>
      </trkpt>
      <trkpt lat="48.4583" lon="-2.04776">
        <ele>123.0224</ele>
        <time>2020-10-20T14:17:41.090Z</time>
      </trkpt>
      <trkpt lat="48.45806" lon="-2.04774">
        <ele>121.382019</ele>
        <time>2020-10-20T14:17:46.101Z</time>
      </trkpt>
      <trkpt lat="48.45783" lon="-2.0477">
        <ele>124.099998</ele>
        <time>2020-10-20T14:17:52.065Z</time>
      </trkpt>
      <trkpt lat="48.45767" lon="-2.04766">
        <ele>124.099998</ele>
        <time>2020-10-20T14:17:57.087Z</time>
      </trkpt>
      <trkpt lat="48.45756" lon="-2.0477">
        <ele>124.099998</ele>
        <time>2020-10-20T14:18:03.091Z</time>
      </trkpt>
      <trkpt lat="48.45753" lon="-2.04815">
        <ele>124.099998</ele>
        <time>2020-10-20T14:18:13.060Z</time>
      </trkpt>
      <trkpt lat="48.45752" lon="-2.04839">
        <ele>124.099998</ele>
        <time>2020-10-20T14:18:18.073Z</time>
      </trkpt>
      <trkpt lat="48.45749" lon="-2.04843">
        <ele>124.099998</ele>
        <time>2020-10-20T14:18:25.835Z</time>
      </trkpt>
    </trkseg>
  </trk>
</gpx>